Air Quality Table

TIMESTAMP NO2 SO2 O3 PM10 PM2.5 CO TEMP HUM AIRPRES WS WD NO BENZENE
2022-08-08 17:00 14.73 µg/m3 0.66 µg/m3 96.65 µg/m3 25.58 µg/m3 16.71 µg/m3 0.57 mg/m3 29.85 °C 75.78 % 1,010.88 mbar 3.13 m/s 58.52 Deg 3.21 µg/m3 N/A
2022-08-08 16:00 12.03 µg/m3 0.51 µg/m3 99.63 µg/m3 24 µg/m3 16.85 µg/m3 0.58 mg/m3 29.81 °C 75.7 % 1,010.78 mbar 3.28 m/s 57.51 Deg 2.41 µg/m3 N/A
2022-08-08 15:00 9.87 µg/m3 0.36 µg/m3 93.73 µg/m3 24.27 µg/m3 16.81 µg/m3 0.56 mg/m3 29.6 °C 76.68 % 1,010.76 mbar 3.71 m/s 54.08 Deg 2.65 µg/m3 N/A
2022-08-08 14:00 14.37 µg/m3 0.29 µg/m3 99.7 µg/m3 23.33 µg/m3 17.3 µg/m3 0.57 mg/m3 29.48 °C 79.32 % 1,011.26 mbar 3.84 m/s 57.9 Deg 3.47 µg/m3 N/A
2022-08-08 13:00 14 µg/m3 0.56 µg/m3 104.26 µg/m3 25.17 µg/m3 17.27 µg/m3 0.58 mg/m3 29.1 °C 81.86 % 1,011.25 mbar 3.79 m/s 55.9 Deg 2.97 µg/m3 N/A
2022-08-08 12:00 17.71 µg/m3 0.62 µg/m3 86.44 µg/m3 23.41 µg/m3 15.11 µg/m3 0.58 mg/m3 28.93 °C 81.44 % 1,011.42 mbar 3.6 m/s 59.13 Deg 4.55 µg/m3 N/A
2022-08-08 11:00 17.3 µg/m3 0.46 µg/m3 75.24 µg/m3 22.81 µg/m3 14.33 µg/m3 0.58 mg/m3 28.75 °C 79.25 % 1,011.46 mbar 3.36 m/s 56.41 Deg 5.37 µg/m3 N/A
2022-08-08 10:00 19.11 µg/m3 0.58 µg/m3 69.05 µg/m3 22.34 µg/m3 13.59 µg/m3 0.59 mg/m3 28.9 °C 75.24 % 1,011.34 mbar 3.19 m/s 54.43 Deg 6.63 µg/m3 N/A
2022-08-08 09:00 32.63 µg/m3 0.44 µg/m3 46.34 µg/m3 32.43 µg/m3 16.76 µg/m3 0.58 mg/m3 28.47 °C 80.1 % 1,011.01 mbar 2.35 m/s 52.64 Deg 19.13 µg/m3 N/A
2022-08-08 08:00 26.1 µg/m3 0.99 µg/m3 31.53 µg/m3 37.71 µg/m3 18.74 µg/m3 0.61 mg/m3 27.44 °C 86.85 % 1,010.70 mbar 1.34 m/s 45.48 Deg 24.77 µg/m3 N/A
2022-08-08 07:00 41.2 µg/m3 1.62 µg/m3 4.39 µg/m3 43.32 µg/m3 22.48 µg/m3 0.7 mg/m3 25.58 °C 93.64 % 1,010.20 mbar 0.29 m/s 294.41 Deg 47.92 µg/m3 N/A
2022-08-08 06:00 33.26 µg/m3 1.3 µg/m3 2.07 µg/m3 34.83 µg/m3 16.27 µg/m3 0.64 mg/m3 25.01 °C 98.14 % 1,009.81 mbar 0.5 m/s 223.8 Deg 68.44 µg/m3 N/A
2022-08-08 05:00 35.62 µg/m3 0.78 µg/m3 4.34 µg/m3 23.52 µg/m3 14.51 µg/m3 0.46 mg/m3 25.56 °C 98.39 % 1,009.44 mbar 0.57 m/s 249.3 Deg 40.39 µg/m3 N/A
2022-08-08 04:00 20.64 µg/m3 0.15 µg/m3 21.1 µg/m3 20.13 µg/m3 12.69 µg/m3 0.42 mg/m3 25.55 °C 97.53 % 1,009.14 mbar 0.74 m/s 225.21 Deg 8.87 µg/m3 N/A
2022-08-08 03:00 29.88 µg/m3 -0 µg/m3 33 µg/m3 18.88 µg/m3 12.24 µg/m3 0.26 mg/m3 25.96 °C 96.65 % 1,009.25 mbar 1.31 m/s 241.28 Deg 5.26 µg/m3 N/A
2022-08-08 02:00 12.01 µg/m3 0.12 µg/m3 25.38 µg/m3 19 µg/m3 12.08 µg/m3 0.42 mg/m3 26.16 °C 95.49 % 1,009.35 mbar 1.04 m/s 234.4 Deg 2.58 µg/m3 N/A
2022-08-08 01:00 20.18 µg/m3 -0.02 µg/m3 29.48 µg/m3 21.43 µg/m3 13.05 µg/m3 0.47 mg/m3 26.45 °C 94.06 % 1,009.63 mbar 0.91 m/s 221.79 Deg 6.14 µg/m3 N/A
2022-08-08 00:00 21.72 µg/m3 0.03 µg/m3 31.69 µg/m3 22.02 µg/m3 12.48 µg/m3 0.51 mg/m3 26.68 °C 92.6 % 1,010.00 mbar 1.46 m/s 233.23 Deg 6.18 µg/m3 N/A
2022-08-07 23:00 23.24 µg/m3 0.18 µg/m3 32.98 µg/m3 22.95 µg/m3 13.13 µg/m3 0.49 mg/m3 26.9 °C 90.96 % 1,010.09 mbar 1.66 m/s 234.06 Deg 6.35 µg/m3 N/A
2022-08-07 22:00 35.11 µg/m3 0.51 µg/m3 30.43 µg/m3 24.18 µg/m3 13.66 µg/m3 0.56 mg/m3 27.03 °C 88.72 % 1,010.10 mbar 1.36 m/s 236.28 Deg 14.22 µg/m3 N/A
2022-08-07 21:00 31.31 µg/m3 0.36 µg/m3 35.72 µg/m3 22.32 µg/m3 12.35 µg/m3 0.51 mg/m3 27.67 °C 83.08 % 1,009.95 mbar 1.05 m/s 258.14 Deg 6.84 µg/m3 N/A
2022-08-07 20:00 28.66 µg/m3 0.66 µg/m3 56.58 µg/m3 21.84 µg/m3 12.13 µg/m3 0.49 mg/m3 28.49 °C 75.79 % 1,009.51 mbar 1.33 m/s 323.9 Deg 7.13 µg/m3 N/A
2022-08-07 19:00 15.81 µg/m3 0.31 µg/m3 77.74 µg/m3 19.71 µg/m3 11.94 µg/m3 0.48 mg/m3 28.98 °C 72.41 % 1,009.03 mbar 2.73 m/s 103.86 Deg 4.01 µg/m3 N/A
2022-08-07 18:00 21.02 µg/m3 0.53 µg/m3 78.63 µg/m3 18.06 µg/m3 10.47 µg/m3 0.46 mg/m3 30.49 °C 61.51 % 1,008.78 mbar 2.59 m/s 282.9 Deg 7.08 µg/m3 N/A
2022-08-07 17:00 18.33 µg/m3 0.73 µg/m3 92.35 µg/m3 12.62 µg/m3 7.94 µg/m3 0.47 mg/m3 31.45 °C 43.77 % 1,009.03 mbar 2.63 m/s 272.31 Deg 4.12 µg/m3 N/A
2022-08-07 16:00 16.02 µg/m3 0.65 µg/m3 97.29 µg/m3 13.63 µg/m3 8.73 µg/m3 0.49 mg/m3 30.7 °C 56.19 % 1,009.10 mbar 2.67 m/s 285.28 Deg 3.94 µg/m3 N/A
2022-08-07 15:00 13.15 µg/m3 0.3 µg/m3 95.88 µg/m3 15.2 µg/m3 8.77 µg/m3 0.53 mg/m3 29.73 °C 68.11 % 1,009.18 mbar 2.59 m/s 54.84 Deg 2.72 µg/m3 N/A
2022-08-07 14:00 13.9 µg/m3 0.53 µg/m3 94.68 µg/m3 16.36 µg/m3 9.31 µg/m3 0.56 mg/m3 29.7 °C 70.47 % 1,009.45 mbar 2.87 m/s 206.19 Deg 2.83 µg/m3 N/A
2022-08-07 13:00 16.6 µg/m3 0.53 µg/m3 82.57 µg/m3 17.3 µg/m3 9.98 µg/m3 0.59 mg/m3 29.69 °C 71.49 % 1,009.95 mbar 2.39 m/s 125.08 Deg 4.4 µg/m3 N/A
2022-08-07 12:00 16.14 µg/m3 0.53 µg/m3 78.79 µg/m3 18.19 µg/m3 10.06 µg/m3 0.61 mg/m3 29.27 °C 73.49 % 1,010.30 mbar 2.44 m/s 66.55 Deg 4.41 µg/m3 N/A
2022-08-07 11:00 21.45 µg/m3 0.88 µg/m3 75.89 µg/m3 20.68 µg/m3 11.18 µg/m3 0.62 mg/m3 28.95 °C 75.65 % 1,010.60 mbar 2.59 m/s 69.28 Deg 6.7 µg/m3 N/A
2022-08-07 10:00 19.88 µg/m3 0.77 µg/m3 72.19 µg/m3 20.54 µg/m3 10.7 µg/m3 0.61 mg/m3 28.4 °C 78.43 % 1,010.62 mbar 2.48 m/s 62.96 Deg 4.88 µg/m3 N/A
2022-08-07 09:00 22.36 µg/m3 0.67 µg/m3 66.04 µg/m3 19.3 µg/m3 10.43 µg/m3 0.62 mg/m3 28.34 °C 78.89 % 1,010.32 mbar 2.07 m/s 61.76 Deg 8.32 µg/m3 N/A
2022-08-07 08:00 19.38 µg/m3 0.26 µg/m3 63.7 µg/m3 17.64 µg/m3 10.07 µg/m3 0.5 mg/m3 27.87 °C 81.57 % 1,009.98 mbar 2.41 m/s 58.21 Deg 4.36 µg/m3 N/A
2022-08-07 07:00 13.16 µg/m3 0.5 µg/m3 62.31 µg/m3 17.82 µg/m3 10.65 µg/m3 0.42 mg/m3 27.26 °C 87.45 % 1,009.58 mbar 2.99 m/s 44.68 Deg 2.5 µg/m3 N/A
2022-08-07 06:00 25.37 µg/m3 0.28 µg/m3 28.08 µg/m3 27.64 µg/m3 13.19 µg/m3 0.43 mg/m3 25.46 °C 90.13 % 1,009.28 mbar 0.91 m/s 238.62 Deg 9.5 µg/m3 N/A
2022-08-07 05:00 21.99 µg/m3 0.17 µg/m3 29.02 µg/m3 20.59 µg/m3 11.15 µg/m3 0.4 mg/m3 25.07 °C 87.39 % 1,009.02 mbar 1.01 m/s 238.41 Deg 5.82 µg/m3 N/A
2022-08-07 04:00 26.51 µg/m3 -0.01 µg/m3 50.42 µg/m3 20.76 µg/m3 10.59 µg/m3 0.35 mg/m3 26.2 °C 81.25 % 1,009.01 mbar 0.69 m/s 229.37 Deg 2.98 µg/m3 N/A
2022-08-07 03:00 32.43 µg/m3 -0.05 µg/m3 65.52 µg/m3 19.43 µg/m3 10.2 µg/m3 0.22 mg/m3 27.31 °C 73.94 % 1,009.29 mbar 1.72 m/s 239.8 Deg 1.49 µg/m3 N/A
2022-08-07 02:00 12.11 µg/m3 -0.06 µg/m3 63.76 µg/m3 18.27 µg/m3 9.96 µg/m3 0.36 mg/m3 27.19 °C 82.12 % 1,009.70 mbar 2.55 m/s 242.97 Deg 1.77 µg/m3 N/A
2022-08-07 01:00 8.42 µg/m3 0.06 µg/m3 44.47 µg/m3 18.98 µg/m3 11.04 µg/m3 0.34 mg/m3 27.25 °C 84.3 % 1,010.25 mbar 3.25 m/s 252.33 Deg 0.82 µg/m3 N/A
2022-08-07 00:00 7.47 µg/m3 -0.12 µg/m3 63.93 µg/m3 16.29 µg/m3 11.02 µg/m3 0.34 mg/m3 27.33 °C 84.31 % 1,010.80 mbar 4.08 m/s 260.67 Deg 1.21 µg/m3 N/A
2022-08-06 23:00 8.05 µg/m3 -0.09 µg/m3 59.1 µg/m3 16.08 µg/m3 10.29 µg/m3 0.35 mg/m3 27.58 °C 83.73 % 1,011.05 mbar 4.08 m/s 261.24 Deg 1.49 µg/m3 N/A
2022-08-06 22:00 10.54 µg/m3 -0.07 µg/m3 56.02 µg/m3 14.5 µg/m3 9.24 µg/m3 0.37 mg/m3 27.75 °C 80.81 % 1,011.23 mbar 2.99 m/s 270.22 Deg 2.23 µg/m3 N/A
2022-08-06 21:00 12.77 µg/m3 0.07 µg/m3 57.17 µg/m3 13.94 µg/m3 9.1 µg/m3 0.38 mg/m3 28.03 °C 80.28 % 1,011.22 mbar 2.79 m/s 282.13 Deg 3.52 µg/m3 N/A
2022-08-06 20:00 14.07 µg/m3 0.01 µg/m3 54.35 µg/m3 13.52 µg/m3 8.45 µg/m3 0.37 mg/m3 28.29 °C 79.28 % 1,010.97 mbar 2.73 m/s 283.23 Deg 4.4 µg/m3 N/A
2022-08-06 19:00 12.21 µg/m3 -0.2 µg/m3 55.94 µg/m3 14.84 µg/m3 8.39 µg/m3 0.37 mg/m3 28.77 °C 77.99 % 1,010.79 mbar 3.32 m/s 284.89 Deg 4.81 µg/m3 N/A
2022-08-06 18:00 11.16 µg/m3 0.01 µg/m3 57.16 µg/m3 12.95 µg/m3 8.28 µg/m3 0.37 mg/m3 29.41 °C 76.87 % 1,010.61 mbar 4.15 m/s 278.74 Deg 3.88 µg/m3 N/A
2022-08-06 17:00 10.39 µg/m3 0.02 µg/m3 61.18 µg/m3 14.2 µg/m3 8.68 µg/m3 0.37 mg/m3 30 °C 73.19 % 1,010.72 mbar 4.75 m/s 270.86 Deg 3.99 µg/m3 N/A
2022-08-06 16:00 11.07 µg/m3 0.24 µg/m3 69.38 µg/m3 11.87 µg/m3 7.89 µg/m3 0.37 mg/m3 30.48 °C 60.52 % 1,011.08 mbar 4.29 m/s 281.83 Deg 3.91 µg/m3 N/A
2022-08-06 15:00 8.91 µg/m3 -0.03 µg/m3 77.1 µg/m3 14.09 µg/m3 8.3 µg/m3 0.38 mg/m3 30.77 °C 58.06 % 1,011.49 mbar 4.74 m/s 273.23 Deg 2.51 µg/m3 N/A
2022-08-06 14:00 11.77 µg/m3 0.31 µg/m3 83.94 µg/m3 14.2 µg/m3 8.97 µg/m3 0.39 mg/m3 31.08 °C 57.14 % 1,011.81 mbar 4.27 m/s 267.27 Deg 3.54 µg/m3 N/A
2022-08-06 13:00 16.35 µg/m3 0.09 µg/m3 84.27 µg/m3 15.03 µg/m3 8.87 µg/m3 0.39 mg/m3 30.94 °C 57.12 % 1,012.04 mbar 4.41 m/s 275.03 Deg 6.25 µg/m3 N/A
2022-08-06 12:00 16.91 µg/m3 0.37 µg/m3 84.38 µg/m3 17.16 µg/m3 9.24 µg/m3 0.4 mg/m3 30.66 °C 59.84 % 1,012.24 mbar 3.79 m/s 278.78 Deg 4.81 µg/m3 N/A
2022-08-06 11:00 18.76 µg/m3 0.55 µg/m3 77.98 µg/m3 17.46 µg/m3 9.48 µg/m3 0.4 mg/m3 29.9 °C 67.85 % 1,012.36 mbar 3.7 m/s 288.52 Deg 6.24 µg/m3 N/A
2022-08-06 10:00 15.1 µg/m3 0.17 µg/m3 75.96 µg/m3 16.36 µg/m3 9.15 µg/m3 0.39 mg/m3 29.38 °C 69.21 % 1,012.25 mbar 3.69 m/s 285.08 Deg 4.03 µg/m3 N/A
2022-08-06 09:00 14.67 µg/m3 0.11 µg/m3 73.38 µg/m3 18.4 µg/m3 10.03 µg/m3 0.37 mg/m3 28.77 °C 72.58 % 1,012.14 mbar 3.49 m/s 289.43 Deg 4.15 µg/m3 N/A
2022-08-06 08:00 16.89 µg/m3 0.17 µg/m3 69.12 µg/m3 20.59 µg/m3 9.88 µg/m3 0.36 mg/m3 28.41 °C 72.67 % 1,012.06 mbar 3.42 m/s 278.47 Deg 4.32 µg/m3 N/A
2022-08-06 07:00 13.17 µg/m3 0.22 µg/m3 68.9 µg/m3 15.29 µg/m3 10.28 µg/m3 0.37 mg/m3 27.45 °C 81.45 % 1,012.04 mbar 2.83 m/s 279.08 Deg 2.37 µg/m3 N/A
2022-08-06 06:00 11.11 µg/m3 -0.17 µg/m3 69.5 µg/m3 14.81 µg/m3 9.08 µg/m3 0.39 mg/m3 26.93 °C 86.26 % 1,011.88 mbar 2.5 m/s 277.99 Deg 1.14 µg/m3 N/A
2022-08-06 05:00 10.84 µg/m3 -0.16 µg/m3 69.04 µg/m3 12.66 µg/m3 9.3 µg/m3 0.4 mg/m3 26.8 °C 85.38 % 1,011.58 mbar 2.2 m/s 286.33 Deg 0.79 µg/m3 N/A
2022-08-06 04:00 12.05 µg/m3 -0.11 µg/m3 71.27 µg/m3 14 µg/m3 9.75 µg/m3 0.38 mg/m3 26.77 °C 84.7 % 1,011.68 mbar 2.23 m/s 260.55 Deg 0.92 µg/m3 N/A
2022-08-06 03:00 25.3 µg/m3 -0.13 µg/m3 61.25 µg/m3 14.62 µg/m3 9.9 µg/m3 0.26 mg/m3 26.55 °C 85.76 % 1,011.87 mbar 1.72 m/s 254.92 Deg 0.93 µg/m3 N/A
2022-08-06 02:00 13.95 µg/m3 0.03 µg/m3 45.63 µg/m3 15.77 µg/m3 9.88 µg/m3 0.48 mg/m3 26.27 °C 88.08 % 1,011.95 mbar 1.28 m/s 236.06 Deg 1.78 µg/m3 N/A
2022-08-06 01:00 20.79 µg/m3 0.11 µg/m3 6 µg/m3 17.6 µg/m3 10.45 µg/m3 0.52 mg/m3 26.4 °C 87.25 % 1,012.19 mbar 1.59 m/s 240.05 Deg 3.49 µg/m3 N/A
2022-08-06 00:00 26.3 µg/m3 0.18 µg/m3 53.07 µg/m3 15.9 µg/m3 10.08 µg/m3 0.52 mg/m3 26.9 °C 84.3 % 1,012.58 mbar 1.71 m/s 234.63 Deg 8.06 µg/m3 N/A
2022-08-05 23:00 18.87 µg/m3 0.2 µg/m3 62.24 µg/m3 14.7 µg/m3 9.59 µg/m3 0.51 mg/m3 27.35 °C 81.17 % 1,012.59 mbar 2.23 m/s 253.11 Deg 2.2 µg/m3 N/A
2022-08-05 22:00 30.27 µg/m3 0.39 µg/m3 47.33 µg/m3 20.92 µg/m3 11.25 µg/m3 0.55 mg/m3 27.55 °C 73.03 % 1,012.78 mbar 1.75 m/s 233.65 Deg 7.07 µg/m3 N/A
2022-08-05 21:00 34.13 µg/m3 0.3 µg/m3 52.6 µg/m3 20.45 µg/m3 11.19 µg/m3 0.51 mg/m3 27.77 °C 70.52 % 1,012.75 mbar 1.23 m/s 230.14 Deg 6.2 µg/m3 N/A
2022-08-05 20:00 23.03 µg/m3 0.39 µg/m3 62.05 µg/m3 18.67 µg/m3 11.12 µg/m3 0.45 mg/m3 28.54 °C 67.48 % 1,012.32 mbar 1.49 m/s 268.83 Deg 2.44 µg/m3 N/A
2022-08-05 19:00 23.07 µg/m3 0.46 µg/m3 69.19 µg/m3 15.53 µg/m3 9.77 µg/m3 0.45 mg/m3 29.37 °C 64.24 % 1,012.09 mbar 2.51 m/s 284.44 Deg 6.54 µg/m3 N/A
2022-08-05 18:00 20.38 µg/m3 0.51 µg/m3 83.11 µg/m3 18.48 µg/m3 11.33 µg/m3 0.43 mg/m3 30.13 °C 56.98 % 1,012.18 mbar 3.42 m/s 274.1 Deg 5.3 µg/m3 N/A
2022-08-05 17:00 19.58 µg/m3 0.87 µg/m3 85.39 µg/m3 16.93 µg/m3 11.14 µg/m3 0.44 mg/m3 30.77 °C 51.35 % 1,012.53 mbar 3.96 m/s 268.41 Deg 5.08 µg/m3 N/A
2022-08-05 16:00 18.8 µg/m3 0.72 µg/m3 85.07 µg/m3 17.8 µg/m3 9.68 µg/m3 0.47 mg/m3 30.97 °C 50.68 % 1,012.78 mbar 4.39 m/s 270.67 Deg 5.31 µg/m3 N/A
2022-08-05 15:00 15.18 µg/m3 0.49 µg/m3 86.65 µg/m3 20.6 µg/m3 9.8 µg/m3 0.51 mg/m3 30.97 °C 56.25 % 1,013.10 mbar 3.79 m/s 276.38 Deg 4.55 µg/m3 N/A
2022-08-05 14:00 14.5 µg/m3 0.53 µg/m3 85.71 µg/m3 18.84 µg/m3 9.63 µg/m3 0.53 mg/m3 30.95 °C 54.81 % 1,013.39 mbar 3.29 m/s 227.4 Deg 4.2 µg/m3 N/A
2022-08-05 13:00 12.94 µg/m3 0.53 µg/m3 82.31 µg/m3 14.89 µg/m3 8.38 µg/m3 0.53 mg/m3 30.14 °C 54 % 1,013.44 mbar 4.45 m/s 43.15 Deg 4.68 µg/m3 N/A
2022-08-05 12:00 14.62 µg/m3 0.48 µg/m3 77.52 µg/m3 17.68 µg/m3 8.02 µg/m3 0.56 mg/m3 29.05 °C 68.14 % 1,013.65 mbar 4.27 m/s 47.68 Deg 4.37 µg/m3 N/A
2022-08-05 11:00 20.38 µg/m3 0.49 µg/m3 65.78 µg/m3 23.44 µg/m3 8.8 µg/m3 0.57 mg/m3 28.56 °C 74.69 % 1,013.81 mbar 4.03 m/s 54.34 Deg 6.11 µg/m3 N/A
2022-08-05 10:00 24.81 µg/m3 0.53 µg/m3 57.91 µg/m3 21.83 µg/m3 8.79 µg/m3 0.57 mg/m3 28.97 °C 72.34 % 1,013.75 mbar 3.83 m/s 54.36 Deg 12.9 µg/m3 N/A
2022-08-05 09:00 20.07 µg/m3 0.86 µg/m3 63.74 µg/m3 24.73 µg/m3 10.36 µg/m3 0.56 mg/m3 29.42 °C 64 % 1,013.67 mbar 2.33 m/s 274.79 Deg 7.5 µg/m3 N/A
2022-08-05 08:00 24.09 µg/m3 0.98 µg/m3 53.3 µg/m3 20.38 µg/m3 10.03 µg/m3 0.61 mg/m3 28.78 °C 64.35 % 1,013.44 mbar 1.46 m/s 314.12 Deg 9.51 µg/m3 N/A
2022-08-05 07:00 49.03 µg/m3 1.42 µg/m3 18.07 µg/m3 47 µg/m3 24.22 µg/m3 0.71 mg/m3 26.8 °C 83.71 % 1,013.22 mbar 1.01 m/s 229.12 Deg 32.28 µg/m3 N/A
2022-08-05 06:00 47.33 µg/m3 1.65 µg/m3 4.55 µg/m3 43.66 µg/m3 21.37 µg/m3 0.69 mg/m3 25.15 °C 90.7 % 1,013.06 mbar 0.94 m/s 226.48 Deg 59.92 µg/m3 N/A
2022-08-05 05:00 41.72 µg/m3 0.76 µg/m3 13.01 µg/m3 27.16 µg/m3 17.02 µg/m3 0.54 mg/m3 25 °C 90.01 % 1,012.92 mbar 0.82 m/s 226.4 Deg 33.52 µg/m3 N/A
2022-08-05 04:00 30.53 µg/m3 0.33 µg/m3 28.02 µg/m3 25.56 µg/m3 17.34 µg/m3 0.48 mg/m3 25.4 °C 89.04 % 1,012.91 mbar 0.76 m/s 223.28 Deg 6.42 µg/m3 N/A
2022-08-05 03:00 39.9 µg/m3 0.18 µg/m3 43.68 µg/m3 22.82 µg/m3 16.16 µg/m3 0.3 mg/m3 25.47 °C 88.27 % 1,013.18 mbar 0.83 m/s 227.86 Deg 7.99 µg/m3 N/A
2022-08-05 02:00 16.23 µg/m3 0.21 µg/m3 47.19 µg/m3 20.89 µg/m3 15 µg/m3 0.41 mg/m3 25.78 °C 86.49 % 1,013.50 mbar 0.81 m/s 225.39 Deg 2.49 µg/m3 N/A
2022-08-05 01:00 23.13 µg/m3 0.17 µg/m3 49.27 µg/m3 21.54 µg/m3 14.12 µg/m3 0.45 mg/m3 26.51 °C 85.16 % 1,013.78 mbar 0.67 m/s 217.51 Deg 3.01 µg/m3 N/A
2022-08-05 00:00 22.39 µg/m3 0.36 µg/m3 48.58 µg/m3 20.68 µg/m3 12.6 µg/m3 0.47 mg/m3 26.45 °C 81.09 % 1,013.94 mbar 0.86 m/s 223.95 Deg 3.49 µg/m3 N/A
2022-08-04 23:00 38.67 µg/m3 0.49 µg/m3 45 µg/m3 20.61 µg/m3 12.35 µg/m3 0.5 mg/m3 27.16 °C 77.06 % 1,013.91 mbar 0.68 m/s 206.6 Deg 8.42 µg/m3 N/A
2022-08-04 22:00 23.37 µg/m3 0.14 µg/m3 73.56 µg/m3 17.22 µg/m3 10.74 µg/m3 0.48 mg/m3 28.29 °C 75.76 % 1,013.85 mbar 1.24 m/s 73.33 Deg 3.68 µg/m3 N/A
2022-08-04 21:00 14.25 µg/m3 0.4 µg/m3 82.98 µg/m3 16.13 µg/m3 10.85 µg/m3 0.48 mg/m3 28.53 °C 77.21 % 1,013.74 mbar 2.71 m/s 51.43 Deg 1.66 µg/m3 N/A
2022-08-04 20:00 16.55 µg/m3 0.73 µg/m3 92.98 µg/m3 22.46 µg/m3 12.58 µg/m3 0.53 mg/m3 28.93 °C 73.56 % 1,013.24 mbar 2.53 m/s 52.68 Deg 1.91 µg/m3 N/A
2022-08-04 19:00 19.07 µg/m3 0.66 µg/m3 96.73 µg/m3 22.38 µg/m3 12.72 µg/m3 0.52 mg/m3 29.53 °C 71.56 % 1,013.11 mbar 2.17 m/s 58.21 Deg 2.91 µg/m3 N/A
2022-08-04 18:00 22.54 µg/m3 1.02 µg/m3 96.6 µg/m3 21.59 µg/m3 12.43 µg/m3 0.5 mg/m3 30.42 °C 66.09 % 1,013.12 mbar 2.04 m/s 173.48 Deg 6.01 µg/m3 N/A
2022-08-04 17:00 22.86 µg/m3 0.91 µg/m3 102.77 µg/m3 22.87 µg/m3 12.32 µg/m3 0.49 mg/m3 30.59 °C 62.72 % 1,013.13 mbar 2.81 m/s 261.91 Deg 3.84 µg/m3 N/A
2022-08-04 16:00 18.63 µg/m3 2.17 µg/m3 102.63 µg/m3 21.12 µg/m3 13.35 µg/m3 0.54 mg/m3 30.01 °C 67.08 % 1,013.03 mbar 2.01 m/s 133.7 Deg 4.43 µg/m3 N/A
2022-08-04 15:00 11.38 µg/m3 1.11 µg/m3 112.84 µg/m3 18.66 µg/m3 12.82 µg/m3 0.51 mg/m3 29.31 °C 72.66 % 1,013.15 mbar 3.38 m/s 53.75 Deg 2.06 µg/m3 N/A
2022-08-04 14:00 13.02 µg/m3 1.12 µg/m3 110.07 µg/m3 19.24 µg/m3 12.66 µg/m3 0.52 mg/m3 29.76 °C 72.78 % 1,013.38 mbar 3.49 m/s 55.61 Deg 2.3 µg/m3 N/A
2022-08-04 13:00 14.98 µg/m3 0.99 µg/m3 101.04 µg/m3 18.91 µg/m3 12.11 µg/m3 0.54 mg/m3 29.46 °C 69.19 % 1,013.77 mbar 3.62 m/s 57.73 Deg 3.75 µg/m3 N/A
2022-08-04 12:00 15.91 µg/m3 0.96 µg/m3 99.81 µg/m3 20.03 µg/m3 12.27 µg/m3 0.52 mg/m3 29.04 °C 68.58 % 1,014.02 mbar 3.52 m/s 54.44 Deg 4.43 µg/m3 N/A
2022-08-04 11:00 17.83 µg/m3 0.89 µg/m3 94.58 µg/m3 18.72 µg/m3 11.76 µg/m3 0.55 mg/m3 28.67 °C 71.35 % 1,014.08 mbar 3.17 m/s 53.97 Deg 4.72 µg/m3 N/A
2022-08-04 10:00 20.53 µg/m3 0.65 µg/m3 85.03 µg/m3 21.06 µg/m3 12.39 µg/m3 0.54 mg/m3 28.26 °C 78.3 % 1,013.89 mbar 2.57 m/s 59.63 Deg 8.28 µg/m3 N/A
2022-08-04 09:00 29.32 µg/m3 1.11 µg/m3 70.09 µg/m3 23.56 µg/m3 11.95 µg/m3 0.58 mg/m3 28.15 °C 76.27 % 1,013.60 mbar 2.36 m/s 60.75 Deg 10.58 µg/m3 N/A
2022-08-04 08:00 32.05 µg/m3 1.08 µg/m3 52.27 µg/m3 26.49 µg/m3 12.68 µg/m3 0.58 mg/m3 27.79 °C 76.99 % 1,013.22 mbar 1.87 m/s 57.35 Deg 12.78 µg/m3 N/A
2022-08-04 07:00 53.59 µg/m3 1.69 µg/m3 3.92 µg/m3 65.22 µg/m3 24.62 µg/m3 0.71 mg/m3 26.16 °C 80.75 % 1,012.84 mbar 0.54 m/s 173.7 Deg 86.82 µg/m3 N/A
2022-08-04 06:00 50.86 µg/m3 1.3 µg/m3 4.88 µg/m3 48.87 µg/m3 20.29 µg/m3 0.61 mg/m3 24.12 °C 85.76 % 1,012.60 mbar 0.89 m/s 232.13 Deg 74.74 µg/m3 N/A
2022-08-04 05:00 45.4 µg/m3 0.52 µg/m3 9.22 µg/m3 25.67 µg/m3 13.99 µg/m3 0.46 mg/m3 23.99 °C 83.74 % 1,012.39 mbar 0.63 m/s 227.32 Deg 40.1 µg/m3 N/A
2022-08-04 04:00 31.06 µg/m3 0.13 µg/m3 33.83 µg/m3 18.2 µg/m3 11.74 µg/m3 0.4 mg/m3 23.87 °C 83.74 % 1,012.42 mbar 0.89 m/s 235.61 Deg 10.75 µg/m3 N/A
2022-08-04 03:00 35.59 µg/m3 0.06 µg/m3 47.58 µg/m3 16.59 µg/m3 10.6 µg/m3 0.26 mg/m3 24.51 °C 81.92 % 1,012.58 mbar 0.95 m/s 219.93 Deg 5.08 µg/m3 N/A
2022-08-04 02:00 17.25 µg/m3 0.07 µg/m3 44.15 µg/m3 17.23 µg/m3 10.39 µg/m3 0.44 mg/m3 24.78 °C 81.24 % 1,012.83 mbar 0.99 m/s 232.8 Deg 3.43 µg/m3 N/A
2022-08-04 01:00 26.22 µg/m3 0.4 µg/m3 36.67 µg/m3 20.58 µg/m3 11.6 µg/m3 0.47 mg/m3 25.12 °C 80.25 % 1,012.95 mbar 0.83 m/s 230.77 Deg 6.49 µg/m3 N/A
2022-08-04 00:00 32.34 µg/m3 0.37 µg/m3 35.15 µg/m3 26.96 µg/m3 13.29 µg/m3 0.48 mg/m3 25.64 °C 77.3 % 1,013.09 mbar 0.97 m/s 246.69 Deg 6.87 µg/m3 N/A
2022-08-03 23:00 49.43 µg/m3 0.81 µg/m3 40.84 µg/m3 20.57 µg/m3 11.96 µg/m3 0.53 mg/m3 27.43 °C 70.84 % 1,012.92 mbar 0.58 m/s 193.88 Deg 6.92 µg/m3 N/A
2022-08-03 22:00 52.48 µg/m3 0.8 µg/m3 44.71 µg/m3 20.32 µg/m3 12.11 µg/m3 0.49 mg/m3 27.68 °C 68.34 % 1,012.83 mbar 0.55 m/s 180.86 Deg 6.5 µg/m3 N/A
2022-08-03 21:00 31.21 µg/m3 0.97 µg/m3 69.73 µg/m3 21.03 µg/m3 11.13 µg/m3 0.45 mg/m3 28.26 °C 67.16 % 1,012.67 mbar 1.12 m/s 147.08 Deg 4.33 µg/m3 N/A
2022-08-03 20:00 26.24 µg/m3 0.69 µg/m3 76.94 µg/m3 23.42 µg/m3 11.89 µg/m3 0.44 mg/m3 28.71 °C 66.98 % 1,012.27 mbar 1.76 m/s 63.08 Deg 3.88 µg/m3 N/A
2022-08-03 19:00 24.45 µg/m3 0.5 µg/m3 81.68 µg/m3 20.91 µg/m3 11.05 µg/m3 0.45 mg/m3 29.29 °C 65.66 % 1,012.06 mbar 2.29 m/s 63.27 Deg 9.33 µg/m3 N/A
2022-08-03 18:00 10.77 µg/m3 0.51 µg/m3 95.89 µg/m3 17.83 µg/m3 10.34 µg/m3 0.45 mg/m3 29.31 °C 64.55 % 1,011.80 mbar 3.03 m/s 53 Deg 2.04 µg/m3 N/A
2022-08-03 17:00 11.77 µg/m3 0.73 µg/m3 93.15 µg/m3 19.88 µg/m3 10.55 µg/m3 0.47 mg/m3 29.53 °C 66.07 % 1,011.78 mbar 3.42 m/s 54.57 Deg 2.85 µg/m3 N/A
2022-08-03 16:00 10.85 µg/m3 0.82 µg/m3 90.93 µg/m3 17.24 µg/m3 9.99 µg/m3 0.48 mg/m3 29.56 °C 65.42 % 1,011.79 mbar 3.63 m/s 55.16 Deg 2.67 µg/m3 N/A
2022-08-03 15:00 11.67 µg/m3 0.94 µg/m3 101.52 µg/m3 18.73 µg/m3 10.64 µg/m3 0.49 mg/m3 29.41 °C 68.05 % 1,011.94 mbar 3.74 m/s 57.23 Deg 2.38 µg/m3 N/A
2022-08-03 14:00 13.4 µg/m3 0.99 µg/m3 108.68 µg/m3 20.66 µg/m3 12.21 µg/m3 0.5 mg/m3 29.21 °C 69.79 % 1,012.39 mbar 3.78 m/s 55.12 Deg 2.77 µg/m3 N/A
2022-08-03 13:00 16.8 µg/m3 1.78 µg/m3 106.82 µg/m3 23.14 µg/m3 12.64 µg/m3 0.52 mg/m3 29.4 °C 64.25 % 1,012.69 mbar 3.71 m/s 57.81 Deg 4.68 µg/m3 N/A
2022-08-03 12:00 19.5 µg/m3 1.8 µg/m3 99.93 µg/m3 24.78 µg/m3 12.4 µg/m3 0.53 mg/m3 29.32 °C 64.85 % 1,012.97 mbar 3.63 m/s 58.74 Deg 7.08 µg/m3 N/A
2022-08-03 11:00 25.22 µg/m3 1.5 µg/m3 83.91 µg/m3 28.97 µg/m3 12.06 µg/m3 0.53 mg/m3 29.32 °C 64.51 % 1,013.18 mbar 3.46 m/s 62.58 Deg 9.18 µg/m3 N/A
2022-08-03 10:00 25.6 µg/m3 2.13 µg/m3 78.53 µg/m3 27.45 µg/m3 11.59 µg/m3 0.55 mg/m3 28.8 °C 66.24 % 1,013.05 mbar 3.21 m/s 60.69 Deg 7.32 µg/m3 N/A
2022-08-03 09:00 29.89 µg/m3 1.02 µg/m3 62.52 µg/m3 19.67 µg/m3 9.02 µg/m3 0.57 mg/m3 28.37 °C 74.79 % 1,012.79 mbar 2.59 m/s 57.43 Deg 13.6 µg/m3 N/A
2022-08-03 08:00 38.17 µg/m3 1.07 µg/m3 42.88 µg/m3 17.75 µg/m3 8.52 µg/m3 0.56 mg/m3 27.91 °C 79.42 % 1,012.50 mbar 2.51 m/s 55.73 Deg 22.47 µg/m3 N/A
2022-08-03 07:00 46.62 µg/m3 2.12 µg/m3 6.75 µg/m3 64.31 µg/m3 18.52 µg/m3 0.67 mg/m3 26.2 °C 84.18 % 1,012.09 mbar 0.77 m/s 214.34 Deg 80.07 µg/m3 N/A
2022-08-03 06:00 42.07 µg/m3 1.49 µg/m3 0.42 µg/m3 58.85 µg/m3 16.32 µg/m3 0.61 mg/m3 24.41 °C 89.29 % 1,011.64 mbar 0.29 m/s 222.18 Deg 84.3 µg/m3 N/A
2022-08-03 05:00 38.13 µg/m3 0.8 µg/m3 6.17 µg/m3 28.91 µg/m3 10.03 µg/m3 0.43 mg/m3 23.88 °C 89.98 % 1,011.32 mbar 0.79 m/s 236.53 Deg 50.3 µg/m3 N/A
2022-08-03 04:00 26.31 µg/m3 0.13 µg/m3 13.35 µg/m3 12.21 µg/m3 6.54 µg/m3 0.38 mg/m3 24.05 °C 89.55 % 1,011.22 mbar 0.75 m/s 228.42 Deg 12.36 µg/m3 N/A
2022-08-03 03:00 32.49 µg/m3 -0.07 µg/m3 24.08 µg/m3 11.43 µg/m3 6.2 µg/m3 0.27 mg/m3 24.38 °C 88.97 % 1,011.11 mbar 0.95 m/s 235.85 Deg 9.99 µg/m3 N/A
2022-08-03 02:00 12.84 µg/m3 -0.07 µg/m3 22.23 µg/m3 12.43 µg/m3 6.34 µg/m3 0.45 mg/m3 24.74 °C 87.93 % 1,011.45 mbar 0.93 m/s 233.75 Deg 3.19 µg/m3 N/A
2022-08-03 01:00 16.4 µg/m3 -0.06 µg/m3 21.99 µg/m3 12.31 µg/m3 6.49 µg/m3 0.47 mg/m3 25.03 °C 86.93 % 1,011.62 mbar 0.76 m/s 239.28 Deg 3.49 µg/m3 N/A
2022-08-03 00:00 28.35 µg/m3 0.31 µg/m3 19.48 µg/m3 14.28 µg/m3 6.74 µg/m3 0.47 mg/m3 26.04 °C 84.1 % 1,011.75 mbar 0.39 m/s 234.72 Deg 8.22 µg/m3 N/A
2022-08-02 23:00 17.42 µg/m3 -0.12 µg/m3 56.01 µg/m3 11.14 µg/m3 6.04 µg/m3 0.46 mg/m3 27.14 °C 80.69 % 1,011.89 mbar 1.21 m/s 165.14 Deg 4.14 µg/m3 N/A
2022-08-02 22:00 5.06 µg/m3 -0.05 µg/m3 65.6 µg/m3 10.23 µg/m3 5.95 µg/m3 0.43 mg/m3 27.48 °C 82.36 % 1,011.86 mbar 2.08 m/s 43.55 Deg 1.27 µg/m3 N/A
2022-08-02 21:00 7.12 µg/m3 0.11 µg/m3 62.84 µg/m3 11.29 µg/m3 6.44 µg/m3 0.44 mg/m3 27.76 °C 82.3 % 1,011.67 mbar 2.53 m/s 45.79 Deg 1.44 µg/m3 N/A
2022-08-02 20:00 8.26 µg/m3 0.06 µg/m3 58.53 µg/m3 13.73 µg/m3 6.63 µg/m3 0.47 mg/m3 28.3 °C 76.59 % 1,011.19 mbar 2.57 m/s 47.52 Deg 2.16 µg/m3 N/A
2022-08-02 19:00 12.44 µg/m3 0.14 µg/m3 54.81 µg/m3 16.45 µg/m3 7.77 µg/m3 0.43 mg/m3 29.08 °C 71.87 % 1,011.03 mbar 2.13 m/s 99.48 Deg 6.71 µg/m3 N/A
2022-08-02 18:00 15.53 µg/m3 0.22 µg/m3 50.75 µg/m3 18.11 µg/m3 8.19 µg/m3 0.44 mg/m3 29.79 °C 68.09 % 1,010.97 mbar 2.45 m/s 270.71 Deg 6.2 µg/m3 N/A
2022-08-02 17:00 17.09 µg/m3 0.08 µg/m3 53.25 µg/m3 16.28 µg/m3 8.28 µg/m3 0.45 mg/m3 30.09 °C 66.62 % 1,010.92 mbar 3.37 m/s 259.57 Deg 7.29 µg/m3 N/A
2022-08-02 16:00 12.17 µg/m3 -0.05 µg/m3 57.69 µg/m3 17.68 µg/m3 8.65 µg/m3 0.47 mg/m3 30.33 °C 64.59 % 1,010.93 mbar 4.04 m/s 254.43 Deg 5.08 µg/m3 N/A
2022-08-02 15:00 13.77 µg/m3 0.06 µg/m3 58.64 µg/m3 17.86 µg/m3 8.7 µg/m3 0.5 mg/m3 30.53 °C 63.67 % 1,011.13 mbar 3.02 m/s 261.76 Deg 5.78 µg/m3 N/A
2022-08-02 14:00 12.29 µg/m3 0.19 µg/m3 77.33 µg/m3 18.69 µg/m3 9.45 µg/m3 0.52 mg/m3 29.49 °C 68.21 % 1,011.44 mbar 1.61 m/s 176.07 Deg 4.64 µg/m3 N/A
2022-08-02 13:00 13.49 µg/m3 0.16 µg/m3 80.85 µg/m3 18.47 µg/m3 9.72 µg/m3 0.52 mg/m3 29.28 °C 69.42 % 1,011.48 mbar 2.54 m/s 53.3 Deg 7.99 µg/m3 0 µg/m3
2022-08-02 12:00 17.38 µg/m3 0.31 µg/m3 69.91 µg/m3 21.76 µg/m3 10.2 µg/m3 0.53 mg/m3 28.9 °C 70.37 % 1,011.61 mbar 2.74 m/s 56.92 Deg 13.07 µg/m3 0 µg/m3
2022-08-02 11:00 19.36 µg/m3 0.48 µg/m3 68.54 µg/m3 24.62 µg/m3 10.58 µg/m3 0.55 mg/m3 28.75 °C 71.15 % 1,011.86 mbar 2.4 m/s 58.46 Deg 8.9 µg/m3 0 µg/m3
2022-08-02 10:00 15.99 µg/m3 0.25 µg/m3 68.56 µg/m3 21.62 µg/m3 10.32 µg/m3 0.55 mg/m3 28.18 °C 75.26 % 1,011.79 mbar 2.29 m/s 60 Deg 5.42 µg/m3 0 µg/m3
2022-08-02 09:00 16.95 µg/m3 0.16 µg/m3 64.78 µg/m3 20.76 µg/m3 10.09 µg/m3 0.55 mg/m3 28.06 °C 77.02 % 1,011.70 mbar 2.34 m/s 56.73 Deg 6.16 µg/m3 0 µg/m3
2022-08-02 08:00 21.08 µg/m3 0.46 µg/m3 58.02 µg/m3 23.08 µg/m3 11.09 µg/m3 0.55 mg/m3 27.97 °C 79.35 % 1,011.70 mbar 1.28 m/s 50.38 Deg 9.26 µg/m3 0 µg/m3
2022-08-02 07:00 44.25 µg/m3 1.44 µg/m3 9.39 µg/m3 50.36 µg/m3 17.12 µg/m3 0.65 mg/m3 26.67 °C 84.28 % 1,011.49 mbar 0.29 m/s 204.44 Deg 52.47 µg/m3 0 µg/m3
2022-08-02 06:00 47.87 µg/m3 1.31 µg/m3 3.51 µg/m3 41.54 µg/m3 15.3 µg/m3 0.61 mg/m3 25.05 °C 87.26 % 1,011.24 mbar 0.64 m/s 221.7 Deg 61.37 µg/m3 0 µg/m3
2022-08-02 05:00 44.49 µg/m3 0.44 µg/m3 5.01 µg/m3 22.01 µg/m3 12.28 µg/m3 0.52 mg/m3 25.02 °C 87.05 % 1,010.93 mbar 0.65 m/s 251.33 Deg 37.98 µg/m3 0 µg/m3
2022-08-02 04:00 24.32 µg/m3 0.12 µg/m3 35.22 µg/m3 18.02 µg/m3 10.71 µg/m3 0.43 mg/m3 25.36 °C 89.45 % 1,010.84 mbar 0.76 m/s 211.87 Deg 7.14 µg/m3 0 µg/m3
2022-08-02 03:00 30.74 µg/m3 0.11 µg/m3 38.91 µg/m3 17.26 µg/m3 11.07 µg/m3 0.26 mg/m3 25.35 °C 89.13 % 1,011.06 mbar 0.68 m/s 229.34 Deg 5.64 µg/m3 0 µg/m3
2022-08-02 02:00 9.89 µg/m3 -0.12 µg/m3 44.52 µg/m3 17.37 µg/m3 10.99 µg/m3 0.42 mg/m3 25.74 °C 87.41 % 1,011.17 mbar 0.62 m/s 227.26 Deg 1.46 µg/m3 0 µg/m3
2022-08-02 01:00 10.29 µg/m3 0.05 µg/m3 46.37 µg/m3 17.44 µg/m3 10.72 µg/m3 0.39 mg/m3 26.12 °C 85.69 % 1,011.48 mbar 0.82 m/s 206.77 Deg 1.31 µg/m3 0 µg/m3
2022-08-02 00:00 18.79 µg/m3 0.03 µg/m3 48.52 µg/m3 19.06 µg/m3 11.36 µg/m3 0.44 mg/m3 26.76 °C 83.98 % 1,011.84 mbar 0.68 m/s 203.54 Deg 3.23 µg/m3 0 µg/m3
2022-08-01 23:00 22.99 µg/m3 0.03 µg/m3 48.98 µg/m3 19.87 µg/m3 11.57 µg/m3 0.42 mg/m3 27.11 °C 81.05 % 1,012.02 mbar 0.75 m/s 209.55 Deg 4.64 µg/m3 0 µg/m3
2022-08-01 22:00 22.78 µg/m3 0.19 µg/m3 52.89 µg/m3 20.79 µg/m3 11.89 µg/m3 0.44 mg/m3 27.37 °C 78.74 % 1,012.05 mbar 0.67 m/s 209.49 Deg 4.75 µg/m3 0 µg/m3
2022-08-01 21:00 20.67 µg/m3 0.09 µg/m3 62.99 µg/m3 18.28 µg/m3 10.36 µg/m3 0.4 mg/m3 27.83 °C 77.25 % 1,011.52 mbar 1.04 m/s 269.02 Deg 3.06 µg/m3 0 µg/m3
2022-08-01 20:00 17.29 µg/m3 0.31 µg/m3 70.39 µg/m3 18.97 µg/m3 10.22 µg/m3 0.4 mg/m3 28.36 °C 75.36 % 1,011.08 mbar 1.66 m/s 287.23 Deg 3.25 µg/m3 0 µg/m3
2022-08-01 19:00 16.45 µg/m3 0.09 µg/m3 69 µg/m3 18.21 µg/m3 9.37 µg/m3 0.39 mg/m3 28.99 °C 71.28 % 1,010.83 mbar 2.42 m/s 267.79 Deg 2.43 µg/m3 0 µg/m3
2022-08-01 18:00 11.83 µg/m3 0.13 µg/m3 70.16 µg/m3 15.95 µg/m3 8.74 µg/m3 0.42 mg/m3 29.57 °C 68.07 % 1,010.56 mbar 3.52 m/s 267.18 Deg 3.34 µg/m3 0 µg/m3
2022-08-01 17:00 10.63 µg/m3 0.27 µg/m3 75.98 µg/m3 16.59 µg/m3 8.68 µg/m3 0.46 mg/m3 30.17 °C 64.01 % 1,010.72 mbar 3.72 m/s 267.4 Deg 2.96 µg/m3 0 µg/m3
2022-08-01 16:00 9.66 µg/m3 0.58 µg/m3 87.06 µg/m3 17.36 µg/m3 9.37 µg/m3 0.48 mg/m3 30 °C 66.76 % 1,010.80 mbar 1.94 m/s 254.46 Deg 2.79 µg/m3 0 µg/m3
2022-08-01 15:00 11.97 µg/m3 0.8 µg/m3 88.94 µg/m3 18.06 µg/m3 9.63 µg/m3 0.47 mg/m3 29.54 °C 69.75 % 1,010.89 mbar 1.99 m/s 104.84 Deg 4.85 µg/m3 0 µg/m3
2022-08-01 14:00 12.54 µg/m3 0.35 µg/m3 88.71 µg/m3 17.43 µg/m3 9.35 µg/m3 0.46 mg/m3 28.93 °C 72.81 % 1,011.10 mbar 2.83 m/s 58.08 Deg 4.28 µg/m3 0 µg/m3
2022-08-01 13:00 11.86 µg/m3 0.49 µg/m3 83.72 µg/m3 19.37 µg/m3 9.35 µg/m3 0.44 mg/m3 28.8 °C 73.82 % 1,011.56 mbar 3.05 m/s 57.75 Deg 3.23 µg/m3 0 µg/m3
2022-08-01 12:00 12.79 µg/m3 0.5 µg/m3 82.24 µg/m3 17.93 µg/m3 9.5 µg/m3 0.4 mg/m3 28.52 °C 76.87 % 1,011.82 mbar 3.55 m/s 54.68 Deg 3.85 µg/m3 0 µg/m3
2022-08-01 11:00 18.67 µg/m3 0.52 µg/m3 79.25 µg/m3 19.45 µg/m3 10.04 µg/m3 0.4 mg/m3 28.41 °C 77.23 % 1,011.84 mbar 3.2 m/s 58.43 Deg 5.3 µg/m3 8.14 µg/m3
2022-08-01 10:00 18.74 µg/m3 0.38 µg/m3 80.07 µg/m3 20.45 µg/m3 10.29 µg/m3 0.51 mg/m3 28.12 °C 79.67 % 1,011.67 mbar 3.5 m/s 54.97 Deg 6.35 µg/m3 0 µg/m3
2022-08-01 09:00 20.9 µg/m3 0.58 µg/m3 64.78 µg/m3 19.59 µg/m3 10.6 µg/m3 0.57 mg/m3 28.04 °C 81.08 % 1,011.46 mbar 3.28 m/s 54 Deg 7.19 µg/m3 0 µg/m3
2022-08-01 08:00 26.19 µg/m3 0.63 µg/m3 55.61 µg/m3 23.29 µg/m3 11.22 µg/m3 0.55 mg/m3 27.88 °C 81.33 % 1,011.25 mbar 2.4 m/s 57.63 Deg 9.5 µg/m3 0 µg/m3
2022-08-01 07:00 48.08 µg/m3 1.02 µg/m3 18.8 µg/m3 36.68 µg/m3 15.93 µg/m3 0.61 mg/m3 27.22 °C 85.64 % 1,011.14 mbar 0.81 m/s 186.26 Deg 26.52 µg/m3 0 µg/m3
2022-08-01 06:00 62.74 µg/m3 0.79 µg/m3 13.36 µg/m3 28.95 µg/m3 14.69 µg/m3 0.65 mg/m3 26.4 °C 88.33 % 1,010.78 mbar 0.56 m/s 197.26 Deg 39.19 µg/m3 0 µg/m3
2022-08-01 05:00 54.34 µg/m3 0.26 µg/m3 8.07 µg/m3 22.57 µg/m3 13.04 µg/m3 0.48 mg/m3 26.17 °C 89.74 % 1,010.64 mbar 0.19 m/s 253.06 Deg 31.9 µg/m3 0 µg/m3
2022-08-01 04:00 26.01 µg/m3 0.14 µg/m3 45.56 µg/m3 20 µg/m3 12.66 µg/m3 0.41 mg/m3 26.46 °C 88.69 % 1,010.52 mbar 0.55 m/s 143.55 Deg 2.46 µg/m3 0 µg/m3
2022-08-01 03:00 37.33 µg/m3 0.12 µg/m3 34.32 µg/m3 20.16 µg/m3 11.58 µg/m3 0.29 mg/m3 26.2 °C 89.94 % 1,010.55 mbar 0.57 m/s 156.36 Deg 4.05 µg/m3 0 µg/m3
2022-08-01 02:00 14.57 µg/m3 0.09 µg/m3 28.33 µg/m3 19.15 µg/m3 10.38 µg/m3 0.5 mg/m3 25.73 °C 92.33 % 1,010.69 mbar 0.48 m/s 189.67 Deg 3.78 µg/m3 0 µg/m3
2022-08-01 01:00 13.41 µg/m3 0.18 µg/m3 46.08 µg/m3 22.42 µg/m3 11.49 µg/m3 0.51 mg/m3 26.04 °C 91.32 % 1,010.87 mbar 0.52 m/s 175.1 Deg 1.83 µg/m3 0 µg/m3
2022-08-01 00:00 17.89 µg/m3 0.18 µg/m3 42.87 µg/m3 24.42 µg/m3 12.79 µg/m3 0.56 mg/m3 26.11 °C 88.5 % 1,011.18 mbar 1.19 m/s 220.18 Deg 3.27 µg/m3 0 µg/m3
2022-07-31 23:00 40.6 µg/m3 0.48 µg/m3 23.77 µg/m3 25.5 µg/m3 13.18 µg/m3 0.64 mg/m3 26.61 °C 86.63 % 1,011.28 mbar 0.89 m/s 206.72 Deg 17.23 µg/m3 0 µg/m3
2022-07-31 22:00 32.02 µg/m3 0.1 µg/m3 56.77 µg/m3 21.11 µg/m3 10.51 µg/m3 0.56 mg/m3 27.33 °C 86.57 % 1,011.31 mbar 0.86 m/s 147.38 Deg 8.24 µg/m3 0 µg/m3
2022-07-31 21:00 7.27 µg/m3 -0.02 µg/m3 80.99 µg/m3 20.14 µg/m3 10 µg/m3 0.49 mg/m3 27.72 °C 85.21 % 1,011.11 mbar 1.34 m/s 44.05 Deg 0.65 µg/m3 0 µg/m3
2022-07-31 20:00 9.86 µg/m3 1.05 µg/m3 80.05 µg/m3 20.86 µg/m3 10.59 µg/m3 0.53 mg/m3 27.95 °C 83.23 % 1,010.75 mbar 1.47 m/s 28.28 Deg 1.41 µg/m3 0 µg/m3
2022-07-31 19:00 8.02 µg/m3 0.16 µg/m3 82.33 µg/m3 19.54 µg/m3 9.74 µg/m3 0.55 mg/m3 28.39 °C 79.02 % 1,010.62 mbar 2.68 m/s 28.91 Deg 1.08 µg/m3 0 µg/m3
2022-07-31 18:00 14.73 µg/m3 0.39 µg/m3 74.11 µg/m3 18.92 µg/m3 9.57 µg/m3 0.55 mg/m3 29.44 °C 70.71 % 1,010.54 mbar 3.08 m/s 168.71 Deg 3.38 µg/m3 0 µg/m3
2022-07-31 17:00 11.64 µg/m3 0.45 µg/m3 84.5 µg/m3 19.43 µg/m3 10.27 µg/m3 0.58 mg/m3 29.76 °C 69.36 % 1,010.90 mbar 3.17 m/s 235.23 Deg 3.44 µg/m3 0 µg/m3
2022-07-31 16:00 7.67 µg/m3 0.53 µg/m3 96.15 µg/m3 21.46 µg/m3 12.03 µg/m3 0.6 mg/m3 29.37 °C 77.19 % 1,010.91 mbar 3.23 m/s 54.18 Deg 1.13 µg/m3 0 µg/m3
2022-07-31 15:00 6.25 µg/m3 0.57 µg/m3 95.38 µg/m3 19.27 µg/m3 11.02 µg/m3 0.57 mg/m3 29.08 °C 77.73 % 1,011.22 mbar 3.22 m/s 56.34 Deg 0.98 µg/m3 0 µg/m3
2022-07-31 14:00 6.98 µg/m3 0.5 µg/m3 80.66 µg/m3 17.94 µg/m3 10.44 µg/m3 0.58 mg/m3 29.13 °C 76.92 % 1,011.66 mbar 3.61 m/s 61.48 Deg 1.25 µg/m3 0 µg/m3
2022-07-31 13:00 6.77 µg/m3 0.29 µg/m3 85.49 µg/m3 19.2 µg/m3 10.98 µg/m3 0.57 mg/m3 29.22 °C 76.04 % 1,012.05 mbar 4.1 m/s 44.92 Deg 1.14 µg/m3 0 µg/m3
2022-07-31 12:00 9.11 µg/m3 0.43 µg/m3 80.42 µg/m3 22.19 µg/m3 12.43 µg/m3 0.57 mg/m3 28.66 °C 82.08 % 1,012.41 mbar 2.88 m/s 63.93 Deg 1.75 µg/m3 0 µg/m3
2022-07-31 11:00 11.78 µg/m3 0.44 µg/m3 72.2 µg/m3 24.26 µg/m3 12.55 µg/m3 0.58 mg/m3 28.34 °C 82.39 % 1,012.40 mbar 3.34 m/s 53.86 Deg 2.45 µg/m3 0 µg/m3
2022-07-31 10:00 18.36 µg/m3 0.69 µg/m3 67.59 µg/m3 25.14 µg/m3 12.51 µg/m3 0.57 mg/m3 29.41 °C 68.74 % 1,012.18 mbar 3.51 m/s 49.96 Deg 5.48 µg/m3 0 µg/m3
2022-07-31 09:00 15.29 µg/m3 0.72 µg/m3 62.8 µg/m3 26.33 µg/m3 12.72 µg/m3 0.53 mg/m3 29.38 °C 65.19 % 1,012.06 mbar 2.61 m/s 55.27 Deg 3.73 µg/m3 0 µg/m3
2022-07-31 08:00 15.1 µg/m3 0.39 µg/m3 54.06 µg/m3 23.78 µg/m3 12.99 µg/m3 0.52 mg/m3 28.57 °C 77.13 % 1,011.83 mbar 1.93 m/s 39.31 Deg 3.69 µg/m3 0 µg/m3
2022-07-31 07:00 25.7 µg/m3 0.57 µg/m3 29.41 µg/m3 28.42 µg/m3 14.06 µg/m3 0.52 mg/m3 27.58 °C 80.14 % 1,011.56 mbar 0.9 m/s 265.87 Deg 6.58 µg/m3 0 µg/m3
2022-07-31 06:00 30.17 µg/m3 0.18 µg/m3 30.31 µg/m3 28.87 µg/m3 13.88 µg/m3 0.43 mg/m3 26.32 °C 83.83 % 1,011.25 mbar 1.13 m/s 226.18 Deg 12.6 µg/m3 0 µg/m3
2022-07-31 05:00 17.65 µg/m3 0.23 µg/m3 45.04 µg/m3 23.87 µg/m3 12.72 µg/m3 0.33 mg/m3 26.8 °C 82.08 % 1,011.07 mbar 0.94 m/s 244.41 Deg 1.89 µg/m3 0 µg/m3
2022-07-31 04:00 15.53 µg/m3 -0.12 µg/m3 53.94 µg/m3 25.04 µg/m3 13.22 µg/m3 0.32 mg/m3 27.29 °C 79.91 % 1,011.13 mbar 2.37 m/s 224.41 Deg 1.14 µg/m3 0 µg/m3
2022-07-31 03:00 26.81 µg/m3 -0.19 µg/m3 59.62 µg/m3 21.94 µg/m3 12.58 µg/m3 0.22 mg/m3 27.35 °C 82.42 % 1,011.41 mbar 4.07 m/s 239.03 Deg 1.84 µg/m3 0 µg/m3
2022-07-31 02:00 5.01 µg/m3 -0.3 µg/m3 60.16 µg/m3 18.85 µg/m3 10.49 µg/m3 0.34 mg/m3 27.44 °C 83.38 % 1,011.73 mbar 4.18 m/s 257.04 Deg 0.51 µg/m3 0 µg/m3
2022-07-31 01:00 5.66 µg/m3 -0.26 µg/m3 61.69 µg/m3 17.93 µg/m3 9.47 µg/m3 0.35 mg/m3 27.64 °C 83.71 % 1,012.16 mbar 4.93 m/s 261.49 Deg 1.06 µg/m3 0 µg/m3
2022-07-31 00:00 7.44 µg/m3 -0.18 µg/m3 64 µg/m3 19.6 µg/m3 11.13 µg/m3 0.38 mg/m3 27.65 °C 86.56 % 1,012.48 mbar 5.26 m/s 265.47 Deg 1.42 µg/m3 0 µg/m3
2022-07-30 23:00 10.84 µg/m3 -0.19 µg/m3 49.02 µg/m3 24.44 µg/m3 13.75 µg/m3 0.4 mg/m3 27.62 °C 88.5 % 1,012.71 mbar 4.92 m/s 262.12 Deg 1.98 µg/m3 0 µg/m3
2022-07-30 22:00 7.53 µg/m3 -0.22 µg/m3 48.65 µg/m3 24.82 µg/m3 13.87 µg/m3 0.41 mg/m3 27.84 °C 87.97 % 1,012.73 mbar 4.74 m/s 264.62 Deg 1.92 µg/m3 0 µg/m3
2022-07-30 21:00 12.57 µg/m3 -0.05 µg/m3 46.19 µg/m3 26.12 µg/m3 13.78 µg/m3 0.44 mg/m3 28.13 °C 86 % 1,012.66 mbar 3.33 m/s 269.88 Deg 3.46 µg/m3 0 µg/m3
2022-07-30 20:00 14.93 µg/m3 0.14 µg/m3 45.64 µg/m3 27.03 µg/m3 13.75 µg/m3 0.43 mg/m3 28.51 °C 83.16 % 1,012.49 mbar 2.65 m/s 286.05 Deg 4.77 µg/m3 0 µg/m3
2022-07-30 19:00 13.49 µg/m3 0.11 µg/m3 47.8 µg/m3 27.58 µg/m3 13.73 µg/m3 0.42 mg/m3 29.3 °C 78.43 % 1,012.26 mbar 2.99 m/s 281.03 Deg 4.4 µg/m3 0 µg/m3
2022-07-30 18:00 11.73 µg/m3 -0.24 µg/m3 49.85 µg/m3 26.98 µg/m3 13.14 µg/m3 0.39 mg/m3 29.92 °C 74 % 1,011.96 mbar 4.31 m/s 274.18 Deg 4.94 µg/m3 0 µg/m3
2022-07-30 17:00 8.19 µg/m3 -0.12 µg/m3 50.85 µg/m3 31.14 µg/m3 13.47 µg/m3 0.39 mg/m3 29.94 °C 74.75 % 1,011.86 mbar 6.71 m/s 257.01 Deg 3.13 µg/m3 0 µg/m3
2022-07-30 16:00 8.46 µg/m3 -0.16 µg/m3 52.48 µg/m3 24.78 µg/m3 12.49 µg/m3 0.42 mg/m3 30.3 °C 72.81 % 1,012.29 mbar 6.08 m/s 259.83 Deg 3.01 µg/m3 0 µg/m3
2022-07-30 15:00 9.22 µg/m3 0.14 µg/m3 56.5 µg/m3 26.47 µg/m3 12.84 µg/m3 0.43 mg/m3 30.57 °C 72.92 % 1,012.59 mbar 5.74 m/s 257.18 Deg 3.41 µg/m3 0 µg/m3
2022-07-30 14:00 11.04 µg/m3 0.15 µg/m3 64.34 µg/m3 24.33 µg/m3 12 µg/m3 0.45 mg/m3 31.32 °C 64.35 % 1,012.79 mbar 4.72 m/s 272.69 Deg 3.86 µg/m3 0 µg/m3
2022-07-30 13:00 12.75 µg/m3 0.06 µg/m3 63.22 µg/m3 20.5 µg/m3 10.37 µg/m3 0.45 mg/m3 31.47 °C 58.76 % 1,012.93 mbar 4.21 m/s 272.84 Deg 5.7 µg/m3 0 µg/m3
2022-07-30 12:00 12.89 µg/m3 0.09 µg/m3 62.63 µg/m3 20.16 µg/m3 10.11 µg/m3 0.45 mg/m3 30.85 °C 61.49 % 1,013.11 mbar 3.92 m/s 282.33 Deg 5.52 µg/m3 0 µg/m3
2022-07-30 11:00 16.05 µg/m3 0.17 µg/m3 61.97 µg/m3 22.1 µg/m3 10.35 µg/m3 0.46 mg/m3 30.52 °C 63.6 % 1,013.35 mbar 3.8 m/s 283.82 Deg 6.92 µg/m3 0 µg/m3
2022-07-30 10:00 17.4 µg/m3 0.19 µg/m3 61.64 µg/m3 22.43 µg/m3 10.37 µg/m3 0.45 mg/m3 30.59 °C 59.08 % 1,013.25 mbar 3.47 m/s 275.94 Deg 8.84 µg/m3 0 µg/m3
2022-07-30 09:00 21.19 µg/m3 0.34 µg/m3 57.33 µg/m3 24.23 µg/m3 10.62 µg/m3 0.46 mg/m3 29.9 °C 64.26 % 1,012.99 mbar 3.13 m/s 276.68 Deg 7.78 µg/m3 0 µg/m3
2022-07-30 08:00 15.85 µg/m3 0.14 µg/m3 56.31 µg/m3 21.23 µg/m3 10.7 µg/m3 0.46 mg/m3 28.61 °C 78.24 % 1,012.78 mbar 3.42 m/s 270.42 Deg 4.57 µg/m3 0 µg/m3
2022-07-30 07:00 18.55 µg/m3 0.11 µg/m3 43.47 µg/m3 27.99 µg/m3 12.91 µg/m3 0.48 mg/m3 27.57 °C 87.77 % 1,012.69 mbar 2.71 m/s 255.52 Deg 4.33 µg/m3 0 µg/m3
2022-07-30 06:00 27.66 µg/m3 0.06 µg/m3 31.22 µg/m3 32.56 µg/m3 15 µg/m3 0.51 mg/m3 26.52 °C 91.01 % 1,012.22 mbar 2.33 m/s 232.08 Deg 13.56 µg/m3 0 µg/m3
2022-07-30 05:00 18.42 µg/m3 0.37 µg/m3 36.73 µg/m3 24.25 µg/m3 13.29 µg/m3 0.52 mg/m3 26.31 °C 91.51 % 1,011.98 mbar 2.16 m/s 242.84 Deg 4.41 µg/m3 0 µg/m3
2022-07-30 04:00 19 µg/m3 0.09 µg/m3 27.94 µg/m3 25.25 µg/m3 14.68 µg/m3 0.51 mg/m3 25.89 °C 94.34 % 1,012.05 mbar 1.4 m/s 226.78 Deg 4.56 µg/m3 0 µg/m3
2022-07-30 03:00 33.55 µg/m3 0.24 µg/m3 27.33 µg/m3 25.4 µg/m3 16.04 µg/m3 0.34 mg/m3 26.31 °C 94.24 % 1,012.24 mbar 0.86 m/s 227.37 Deg 3.06 µg/m3 0 µg/m3
2022-07-30 02:00 22.7 µg/m3 0.18 µg/m3 25.81 µg/m3 28.76 µg/m3 16.68 µg/m3 0.57 mg/m3 26.6 °C 92.55 % 1,012.65 mbar 1.12 m/s 223.26 Deg 6.18 µg/m3 0 µg/m3
2022-07-30 01:00 24.93 µg/m3 0.36 µg/m3 31.97 µg/m3 28.39 µg/m3 16.48 µg/m3 0.62 mg/m3 26.67 °C 90.57 % 1,013.06 mbar 1.25 m/s 238.68 Deg 6.93 µg/m3 0 µg/m3
2022-07-30 00:00 41.41 µg/m3 0.35 µg/m3 20.68 µg/m3 32.45 µg/m3 18.39 µg/m3 0.68 mg/m3 27.14 °C 89.66 % 1,013.50 mbar 1.47 m/s 227.82 Deg 19.06 µg/m3 0 µg/m3
2022-07-29 23:00 50.53 µg/m3 0.54 µg/m3 19.68 µg/m3 32.92 µg/m3 18.16 µg/m3 0.71 mg/m3 27.34 °C 87.28 % 1,013.49 mbar 1.38 m/s 231.22 Deg 22.22 µg/m3 0 µg/m3
2022-07-29 22:00 42.95 µg/m3 0.49 µg/m3 25.09 µg/m3 32.67 µg/m3 18.66 µg/m3 0.69 mg/m3 27.67 °C 85.63 % 1,013.53 mbar 1.49 m/s 224.88 Deg 14.25 µg/m3 0 µg/m3
2022-07-29 21:00 49.51 µg/m3 0.32 µg/m3 24 µg/m3 37.9 µg/m3 18.9 µg/m3 0.62 mg/m3 27.96 °C 83.79 % 1,013.34 mbar 1.29 m/s 230.68 Deg 20.8 µg/m3 0 µg/m3
2022-07-29 20:00 36.86 µg/m3 0.38 µg/m3 46.07 µg/m3 35.91 µg/m3 17.2 µg/m3 0.54 mg/m3 28.72 °C 80.67 % 1,012.90 mbar 1.67 m/s 248.18 Deg 8.79 µg/m3 0 µg/m3
2022-07-29 19:00 29.35 µg/m3 0.43 µg/m3 53.94 µg/m3 31.96 µg/m3 19.08 µg/m3 0.52 mg/m3 29.97 °C 73.65 % 1,012.74 mbar 2.46 m/s 268.14 Deg 7.71 µg/m3 0 µg/m3
2022-07-29 18:00 22.42 µg/m3 0.34 µg/m3 67.79 µg/m3 32.69 µg/m3 20.14 µg/m3 0.52 mg/m3 30.44 °C 72.12 % 1,012.48 mbar 3.19 m/s 267.49 Deg 6.09 µg/m3 0 µg/m3
2022-07-29 17:00 17.89 µg/m3 0.11 µg/m3 74.28 µg/m3 31.35 µg/m3 19.29 µg/m3 0.53 mg/m3 30.71 °C 72.75 % 1,012.58 mbar 3.83 m/s 256.21 Deg 3.9 µg/m3 0 µg/m3
2022-07-29 16:00 15.03 µg/m3 0.12 µg/m3 71.38 µg/m3 30.65 µg/m3 17.27 µg/m3 0.54 mg/m3 30.8 °C 72.38 % 1,012.97 mbar 3.67 m/s 255.25 Deg 3.75 µg/m3 0 µg/m3
2022-07-29 15:00 14.43 µg/m3 0.13 µg/m3 79.85 µg/m3 28.17 µg/m3 15.81 µg/m3 0.57 mg/m3 30.38 °C 73.86 % 1,013.14 mbar 2.07 m/s 117.69 Deg 6.43 µg/m3 0 µg/m3
2022-07-29 14:00 14.64 µg/m3 -0.14 µg/m3 79.71 µg/m3 25.18 µg/m3 14.87 µg/m3 0.56 mg/m3 29.78 °C 74.24 % 1,013.38 mbar 2.47 m/s 65.88 Deg 4.8 µg/m3 0 µg/m3
2022-07-29 13:00 13.88 µg/m3 0.25 µg/m3 87.42 µg/m3 25.04 µg/m3 14.76 µg/m3 0.59 mg/m3 29.37 °C 75.11 % 1,013.42 mbar 3.04 m/s 57.94 Deg 3.56 µg/m3 0 µg/m3
2022-07-29 12:00 14.41 µg/m3 0.13 µg/m3 81.38 µg/m3 24.16 µg/m3 14.74 µg/m3 0.58 mg/m3 29.04 °C 76.31 % 1,013.43 mbar 3.29 m/s 54.23 Deg 6.42 µg/m3 0 µg/m3
2022-07-29 11:00 18.55 µg/m3 -0 µg/m3 74.33 µg/m3 28.52 µg/m3 15.52 µg/m3 0.6 mg/m3 28.86 °C 77.22 % 1,013.48 mbar 3.12 m/s 55.47 Deg 6.33 µg/m3 0 µg/m3
2022-07-29 10:00 17.68 µg/m3 0.23 µg/m3 72.98 µg/m3 26.4 µg/m3 15.22 µg/m3 0.59 mg/m3 28.71 °C 77.03 % 1,013.32 mbar 3.25 m/s 54.66 Deg 5.55 µg/m3 0 µg/m3
2022-07-29 09:00 23.1 µg/m3 0.09 µg/m3 60.75 µg/m3 29.37 µg/m3 16.14 µg/m3 0.58 mg/m3 28.7 °C 78.36 % 1,013.10 mbar 2.71 m/s 56.9 Deg 10.53 µg/m3 31.6 µg/m3
2022-07-29 08:00 28.31 µg/m3 0.44 µg/m3 47.35 µg/m3 41.83 µg/m3 18.61 µg/m3 0.58 mg/m3 28.97 °C 76.17 % 1,012.80 mbar 1.26 m/s 184.8 Deg 12.34 µg/m3 0 µg/m3
2022-07-29 07:00 41.18 µg/m3 0.62 µg/m3 20.42 µg/m3 39.14 µg/m3 21.42 µg/m3 0.6 mg/m3 27.7 °C 87.76 % 1,012.33 mbar 0.81 m/s 159.41 Deg 20.13 µg/m3 0 µg/m3
2022-07-29 06:00 52.91 µg/m3 0.73 µg/m3 9.37 µg/m3 47.91 µg/m3 33.89 µg/m3 0.6 mg/m3 26.8 °C 92.5 % 1,011.78 mbar 0.61 m/s 127.13 Deg 39.5 µg/m3 0 µg/m3
2022-07-29 05:00 29.71 µg/m3 0.08 µg/m3 31.31 µg/m3 37.07 µg/m3 27.47 µg/m3 0.45 mg/m3 27.03 °C 91.98 % 1,011.26 mbar 1.07 m/s 133.01 Deg 8.4 µg/m3 0 µg/m3
2022-07-29 04:00 13.67 µg/m3 -0.17 µg/m3 54.65 µg/m3 22.88 µg/m3 14.57 µg/m3 0.4 mg/m3 27.49 °C 91.07 % 1,011.23 mbar 2.06 m/s 59.91 Deg 0.93 µg/m3 0 µg/m3
2022-07-29 03:00 24.79 µg/m3 -0.34 µg/m3 58.59 µg/m3 24.62 µg/m3 15.36 µg/m3 0.27 mg/m3 27.52 °C 92.68 % 1,011.27 mbar 1.49 m/s 52.39 Deg 0.5 µg/m3 0 µg/m3
2022-07-29 02:00 6.62 µg/m3 -0.25 µg/m3 57.19 µg/m3 25.41 µg/m3 15.75 µg/m3 0.44 mg/m3 27.65 °C 92.85 % 1,011.38 mbar 1.87 m/s 66.2 Deg 0.37 µg/m3 32.28 µg/m3
2022-07-29 01:00 10.91 µg/m3 0.09 µg/m3 46.38 µg/m3 25.62 µg/m3 15.92 µg/m3 0.45 mg/m3 27.8 °C 91.95 % 1,011.69 mbar 2.14 m/s 67.22 Deg 0.92 µg/m3 0 µg/m3
2022-07-29 00:00 12.49 µg/m3 0.16 µg/m3 50.76 µg/m3 26.35 µg/m3 15.7 µg/m3 0.49 mg/m3 28.03 °C 90.34 % 1,012.11 mbar 1.65 m/s 66.18 Deg 2.08 µg/m3 0 µg/m3
2022-07-28 23:00 16.69 µg/m3 -0.16 µg/m3 46.06 µg/m3 25.68 µg/m3 15.25 µg/m3 0.5 mg/m3 28.15 °C 88.67 % 1,012.17 mbar 1.33 m/s 57.63 Deg 1.98 µg/m3 0 µg/m3
2022-07-28 22:00 11.77 µg/m3 -0.01 µg/m3 56.63 µg/m3 25.27 µg/m3 14.84 µg/m3 0.52 mg/m3 28.25 °C 88.51 % 1,012.10 mbar 1.59 m/s 63.51 Deg 2.08 µg/m3 0 µg/m3
2022-07-28 21:00 9.65 µg/m3 -0.05 µg/m3 62.99 µg/m3 25.82 µg/m3 14.46 µg/m3 0.55 mg/m3 28.27 °C 89.47 % 1,011.66 mbar 1.94 m/s 58.55 Deg 2.04 µg/m3 0 µg/m3
2022-07-28 20:00 11.02 µg/m3 0.26 µg/m3 66.87 µg/m3 25.82 µg/m3 15.1 µg/m3 0.55 mg/m3 28.4 °C 89.03 % 1,010.79 mbar 2.49 m/s 56.35 Deg 1.98 µg/m3 0 µg/m3
2022-07-28 19:00 13.55 µg/m3 0.43 µg/m3 70.91 µg/m3 26.49 µg/m3 15.08 µg/m3 0.58 mg/m3 29.02 °C 83.76 % 1,010.21 mbar 2.47 m/s 53.97 Deg 7.9 µg/m3 0 µg/m3
2022-07-28 18:00 11.49 µg/m3 0.36 µg/m3 72.73 µg/m3 26.68 µg/m3 15.27 µg/m3 0.57 mg/m3 29.29 °C 81.6 % 1,009.54 mbar 3.03 m/s 50.91 Deg 1.96 µg/m3 0 µg/m3
2022-07-28 17:00 10.1 µg/m3 0.09 µg/m3 68.13 µg/m3 25.83 µg/m3 14.92 µg/m3 0.56 mg/m3 29.63 °C 80.34 % 1,009.56 mbar 3.48 m/s 55.78 Deg 2.58 µg/m3 0 µg/m3
2022-07-28 16:00 14.16 µg/m3 0.24 µg/m3 66.38 µg/m3 27.54 µg/m3 15.43 µg/m3 0.57 mg/m3 29.71 °C 79.81 % 1,009.70 mbar 3.55 m/s 60.53 Deg 5.04 µg/m3 0 µg/m3
2022-07-28 15:00 13.25 µg/m3 0.25 µg/m3 71.62 µg/m3 25.55 µg/m3 15.02 µg/m3 0.55 mg/m3 29.47 °C 81.2 % 1,009.78 mbar 3.86 m/s 60.24 Deg 4.92 µg/m3 0 µg/m3
2022-07-28 14:00 13.06 µg/m3 0.51 µg/m3 77.77 µg/m3 27.47 µg/m3 15.73 µg/m3 0.55 mg/m3 29.35 °C 79.47 % 1,009.96 mbar 3.92 m/s 61.73 Deg 6.21 µg/m3 0 µg/m3
2022-07-28 13:00 14.7 µg/m3 0.03 µg/m3 74.51 µg/m3 28.36 µg/m3 16.36 µg/m3 0.54 mg/m3 29.01 °C 80.77 % 1,010.16 mbar 3.8 m/s 62.78 Deg 4.91 µg/m3 0 µg/m3
2022-07-28 12:00 17.18 µg/m3 -0.05 µg/m3 72.26 µg/m3 32.69 µg/m3 18.21 µg/m3 0.52 mg/m3 28.98 °C 78.63 % 1,010.15 mbar 3.94 m/s 132.77 Deg 5.54 µg/m3 0 µg/m3
2022-07-28 11:00 21.19 µg/m3 0.14 µg/m3 68.19 µg/m3 32.36 µg/m3 18.24 µg/m3 0.48 mg/m3 28.4 °C 81.14 % 1,009.95 mbar 3.66 m/s 60.74 Deg 10.25 µg/m3 0 µg/m3
2022-07-28 10:00 13.6 µg/m3 0.04 µg/m3 66.56 µg/m3 35.32 µg/m3 19.26 µg/m3 0.4 mg/m3 27.82 °C 83.3 % 1,009.52 mbar 2.9 m/s 53.81 Deg 5.19 µg/m3 0 µg/m3
2022-07-28 09:00 18.46 µg/m3 -0.1 µg/m3 58.48 µg/m3 36.39 µg/m3 18.89 µg/m3 0.34 mg/m3 27.68 °C 84.61 % 1,009.33 mbar 2.08 m/s 107.03 Deg 6.98 µg/m3 0 µg/m3
2022-07-28 08:00 17.42 µg/m3 0.01 µg/m3 58.85 µg/m3 30.99 µg/m3 17.19 µg/m3 0.28 mg/m3 27.44 °C 86.15 % 1,008.93 mbar 3.32 m/s 276.69 Deg 5.76 µg/m3 0 µg/m3
2022-07-28 07:00 15.15 µg/m3 -0.06 µg/m3 51.7 µg/m3 32.37 µg/m3 16.47 µg/m3 0.41 mg/m3 26.84 °C 89.72 % 1,008.13 mbar 4.56 m/s 262.49 Deg 3.7 µg/m3 N/A
2022-07-28 06:00 33.36 µg/m3 0.33 µg/m3 24.32 µg/m3 36.42 µg/m3 18.07 µg/m3 0.46 mg/m3 25.98 °C 93.15 % 1,007.80 mbar 2.34 m/s 253.11 Deg 12.58 µg/m3 N/A
2022-07-28 05:00 36.46 µg/m3 -0.01 µg/m3 21.18 µg/m3 32.54 µg/m3 17.16 µg/m3 0.42 mg/m3 25.85 °C 92.37 % 1,007.43 mbar 1.07 m/s 229.29 Deg 14.25 µg/m3 N/A
2022-07-28 04:00 20.78 µg/m3 0.08 µg/m3 55.11 µg/m3 28.09 µg/m3 14.71 µg/m3 0.35 mg/m3 26.39 °C 90.56 % 1,007.70 mbar 0.89 m/s 252.51 Deg 1.35 µg/m3 N/A
2022-07-28 03:00 24.83 µg/m3 -0.2 µg/m3 68.98 µg/m3 24.2 µg/m3 13.02 µg/m3 0.22 mg/m3 26.74 °C 90.05 % 1,008.27 mbar 1.53 m/s 290.01 Deg 0.56 µg/m3 N/A
2022-07-28 02:00 5.82 µg/m3 -0.18 µg/m3 62.6 µg/m3 22.74 µg/m3 12.63 µg/m3 0.38 mg/m3 26.74 °C 90.64 % 1,008.57 mbar 2.86 m/s 250.05 Deg 0.95 µg/m3 N/A
2022-07-28 01:00 5.07 µg/m3 -0.23 µg/m3 64.67 µg/m3 23.06 µg/m3 12.94 µg/m3 0.39 mg/m3 26.74 °C 91.07 % 1,008.69 mbar 3.27 m/s 257.16 Deg 0.53 µg/m3 N/A
2022-07-28 00:00 6.99 µg/m3 -0.13 µg/m3 69.06 µg/m3 24.37 µg/m3 13.47 µg/m3 0.41 mg/m3 26.78 °C 91.47 % 1,008.98 mbar 2.95 m/s 259.92 Deg 0.69 µg/m3 N/A
2022-07-27 23:00 11.86 µg/m3 0.01 µg/m3 68.95 µg/m3 24.95 µg/m3 14.3 µg/m3 0.43 mg/m3 27 °C 90.8 % 1,008.86 mbar 2.22 m/s 263.27 Deg 1.39 µg/m3 N/A
2022-07-27 22:00 13.57 µg/m3 -0.1 µg/m3 74.41 µg/m3 25.33 µg/m3 15.02 µg/m3 0.45 mg/m3 27.36 °C 89.12 % 1,008.73 mbar 2.13 m/s 265.83 Deg 1.32 µg/m3 N/A
2022-07-27 21:00 20.12 µg/m3 -0.02 µg/m3 67.97 µg/m3 27.63 µg/m3 15.73 µg/m3 0.48 mg/m3 27.67 °C 88.88 % 1,008.16 mbar 1.7 m/s 276.27 Deg 5.28 µg/m3 N/A
2022-07-27 20:00 20.06 µg/m3 -0.05 µg/m3 68.1 µg/m3 27.96 µg/m3 15.63 µg/m3 0.48 mg/m3 27.93 °C 87.61 % 1,007.66 mbar 2.17 m/s 262.32 Deg 2.78 µg/m3 N/A
2022-07-27 19:00 15.21 µg/m3 0.13 µg/m3 67.09 µg/m3 24.1 µg/m3 13.97 µg/m3 0.48 mg/m3 28.59 °C 85.28 % 1,007.39 mbar 3.67 m/s 259.67 Deg 3.16 µg/m3 N/A
2022-07-27 18:00 22.16 µg/m3 0.42 µg/m3 65.64 µg/m3 30.02 µg/m3 13.28 µg/m3 0.49 mg/m3 30.56 °C 67.52 % 1,007.14 mbar 3.16 m/s 263.22 Deg 7.32 µg/m3 N/A
2022-07-27 17:00 20.12 µg/m3 0.35 µg/m3 71.46 µg/m3 23.54 µg/m3 11.25 µg/m3 0.5 mg/m3 32.58 °C 42.72 % 1,007.12 mbar 2.84 m/s 289.77 Deg 6.83 µg/m3 N/A
2022-07-27 16:00 16.5 µg/m3 0.59 µg/m3 75.3 µg/m3 25.27 µg/m3 11.62 µg/m3 0.51 mg/m3 32.93 °C 42.37 % 1,007.38 mbar 2.79 m/s 281.14 Deg 4.51 µg/m3 N/A
2022-07-27 15:00 13.89 µg/m3 1.34 µg/m3 83.18 µg/m3 27.9 µg/m3 14.11 µg/m3 0.53 mg/m3 32.25 °C 50.11 % 1,007.96 mbar 2.9 m/s 285.81 Deg 4.07 µg/m3 N/A
2022-07-27 14:00 14.77 µg/m3 1.02 µg/m3 82.59 µg/m3 29.21 µg/m3 15.6 µg/m3 0.58 mg/m3 31.47 °C 61.88 % 1,008.36 mbar 2.71 m/s 231.89 Deg 3.48 µg/m3 N/A
2022-07-27 13:00 25.33 µg/m3 0.8 µg/m3 73.4 µg/m3 32.41 µg/m3 16.03 µg/m3 0.58 mg/m3 30.57 °C 65.73 % 1,008.55 mbar 2.3 m/s 124.82 Deg 18.94 µg/m3 N/A
2022-07-27 12:00 16.82 µg/m3 -0.01 µg/m3 81.6 µg/m3 32.87 µg/m3 15.57 µg/m3 0.56 mg/m3 29.64 °C 68.54 % 1,008.86 mbar 2.41 m/s 65.01 Deg 4.66 µg/m3 N/A
2022-07-27 11:00 19.69 µg/m3 -0.31 µg/m3 73.71 µg/m3 28.68 µg/m3 15.01 µg/m3 0.55 mg/m3 29.01 °C 75.53 % 1,008.91 mbar 3.15 m/s 53.94 Deg 9.44 µg/m3 N/A
2022-07-27 10:00 16.78 µg/m3 -0.18 µg/m3 66.81 µg/m3 26.56 µg/m3 14.44 µg/m3 0.52 mg/m3 28.28 °C 82.08 % 1,008.61 mbar 3.27 m/s 51.43 Deg 5.41 µg/m3 N/A
2022-07-27 09:00 15.68 µg/m3 0.1 µg/m3 54.65 µg/m3 27.8 µg/m3 15.07 µg/m3 0.5 mg/m3 27.92 °C 86.68 % 1,008.42 mbar 2.71 m/s 58.19 Deg 5.18 µg/m3 N/A
2022-07-27 08:00 23.04 µg/m3 0.18 µg/m3 41.11 µg/m3 33.46 µg/m3 17.45 µg/m3 0.47 mg/m3 27.64 °C 88.59 % 1,008.04 mbar 1.98 m/s 57.58 Deg 14.55 µg/m3 N/A
2022-07-27 07:00 23.26 µg/m3 0.27 µg/m3 40.07 µg/m3 34.64 µg/m3 17.94 µg/m3 0.43 mg/m3 27.23 °C 90.56 % 1,007.55 mbar 1.81 m/s 60.99 Deg 8.57 µg/m3 N/A
2022-07-27 06:00 15.55 µg/m3 -0.03 µg/m3 50.27 µg/m3 29.24 µg/m3 17.13 µg/m3 0.39 mg/m3 27 °C 91.96 % 1,007.13 mbar 2.53 m/s 47.55 Deg 7.59 µg/m3 N/A
2022-07-27 05:00 21.05 µg/m3 0.04 µg/m3 35.22 µg/m3 30.4 µg/m3 17.01 µg/m3 0.36 mg/m3 26.78 °C 91.47 % 1,006.96 mbar 0.9 m/s 229.68 Deg 3.76 µg/m3 N/A
2022-07-27 04:00 22.93 µg/m3 -0.3 µg/m3 41.33 µg/m3 26.46 µg/m3 15.87 µg/m3 0.32 mg/m3 26.77 °C 90.65 % 1,007.14 mbar 2.62 m/s 264.6 Deg 1.11 µg/m3 N/A
2022-07-27 03:00 28.24 µg/m3 0.07 µg/m3 54.52 µg/m3 21.55 µg/m3 13.44 µg/m3 0.22 mg/m3 27.12 °C 87.95 % 1,007.47 mbar 4.65 m/s 261.45 Deg 0.99 µg/m3 N/A
2022-07-27 02:00 4.41 µg/m3 -0.27 µg/m3 60.83 µg/m3 19.71 µg/m3 12.24 µg/m3 0.37 mg/m3 27.28 °C 84.97 % 1,008.00 mbar 4.55 m/s 261.83 Deg 0.77 µg/m3 N/A
2022-07-27 01:00 7.61 µg/m3 -0.16 µg/m3 60.91 µg/m3 20.13 µg/m3 12.27 µg/m3 0.37 mg/m3 27.32 °C 84.43 % 1,008.50 mbar 3.88 m/s 256.2 Deg 0.88 µg/m3 N/A
2022-07-27 00:00 8.7 µg/m3 -0.14 µg/m3 65.82 µg/m3 19.93 µg/m3 12.26 µg/m3 0.39 mg/m3 27.47 °C 81.47 % 1,008.78 mbar 3.68 m/s 249.34 Deg 0.83 µg/m3 N/A
2022-07-26 23:00 10.66 µg/m3 -0.16 µg/m3 71.73 µg/m3 18.97 µg/m3 11.92 µg/m3 0.4 mg/m3 27.42 °C 81.75 % 1,008.91 mbar 3.35 m/s 246.63 Deg 0.93 µg/m3 N/A
2022-07-26 22:00 12.37 µg/m3 -0.01 µg/m3 63.18 µg/m3 19.63 µg/m3 11.81 µg/m3 0.4 mg/m3 27.33 °C 85.11 % 1,009.00 mbar 3.3 m/s 249.96 Deg 1.74 µg/m3 N/A
2022-07-26 21:00 11.66 µg/m3 -0.37 µg/m3 62.77 µg/m3 19.58 µg/m3 11.55 µg/m3 0.41 mg/m3 27.46 °C 87.26 % 1,008.95 mbar 3.5 m/s 256.24 Deg 1.4 µg/m3 N/A
2022-07-26 20:00 10.41 µg/m3 -0.12 µg/m3 60.69 µg/m3 19.81 µg/m3 11.24 µg/m3 0.42 mg/m3 27.62 °C 87.44 % 1,008.69 mbar 3.94 m/s 260.28 Deg 1.44 µg/m3 N/A
2022-07-26 19:00 14.42 µg/m3 -0.18 µg/m3 64.94 µg/m3 21.81 µg/m3 11.81 µg/m3 0.44 mg/m3 28.26 °C 86.96 % 1,008.69 mbar 3.61 m/s 269.46 Deg 3.52 µg/m3 N/A
2022-07-26 18:00 13.79 µg/m3 0.02 µg/m3 74.62 µg/m3 25.19 µg/m3 16.84 µg/m3 0.45 mg/m3 28.87 °C 83.07 % 1,008.79 mbar 4.31 m/s 267.63 Deg 3.97 µg/m3 N/A
2022-07-26 17:00 15.5 µg/m3 0.17 µg/m3 75.41 µg/m3 23.8 µg/m3 14.48 µg/m3 0.43 mg/m3 29.58 °C 78.52 % 1,008.93 mbar 4.46 m/s 268.47 Deg 5.91 µg/m3 N/A
2022-07-26 16:00 14.57 µg/m3 0.4 µg/m3 73.24 µg/m3 23.48 µg/m3 14.42 µg/m3 0.43 mg/m3 29.97 °C 72.94 % 1,009.32 mbar 4.81 m/s 264.34 Deg 5.24 µg/m3 N/A
2022-07-26 15:00 16.87 µg/m3 0.19 µg/m3 75.73 µg/m3 22.16 µg/m3 12.47 µg/m3 0.44 mg/m3 30.15 °C 70.31 % 1,009.78 mbar 4.63 m/s 271.11 Deg 4.18 µg/m3 N/A
2022-07-26 14:00 11.81 µg/m3 0.25 µg/m3 77.57 µg/m3 23.39 µg/m3 11.99 µg/m3 0.44 mg/m3 30.48 °C 66.72 % 1,010.05 mbar 4.66 m/s 275.25 Deg 3.81 µg/m3 N/A
2022-07-26 13:00 11.12 µg/m3 0.31 µg/m3 79.97 µg/m3 22.3 µg/m3 12.4 µg/m3 0.45 mg/m3 30.56 °C 63.71 % 1,010.39 mbar 4.09 m/s 280.86 Deg 3.16 µg/m3 N/A
2022-07-26 12:00 15.91 µg/m3 0.11 µg/m3 73.08 µg/m3 26.79 µg/m3 14.24 µg/m3 0.48 mg/m3 30.93 °C 65.64 % 1,010.44 mbar 4.79 m/s 265.89 Deg 5.17 µg/m3 N/A
2022-07-26 11:00 20.52 µg/m3 0 µg/m3 66.5 µg/m3 29.64 µg/m3 14.25 µg/m3 0.48 mg/m3 30.93 °C 65.13 % 1,010.40 mbar 3.91 m/s 251.13 Deg 7.63 µg/m3 N/A
2022-07-26 10:00 21.34 µg/m3 -0.1 µg/m3 55.35 µg/m3 27.34 µg/m3 14.31 µg/m3 0.47 mg/m3 30.02 °C 73.15 % 1,010.19 mbar 3.42 m/s 249.7 Deg 7.65 µg/m3 N/A
2022-07-26 09:00 18.84 µg/m3 -0.16 µg/m3 47.11 µg/m3 29.09 µg/m3 14.81 µg/m3 0.45 mg/m3 29.11 °C 79.34 % 1,010.14 mbar 3.51 m/s 256.14 Deg 7.18 µg/m3 N/A
2022-07-26 08:00 19.09 µg/m3 -0.09 µg/m3 39.04 µg/m3 24.33 µg/m3 13.65 µg/m3 0.4 mg/m3 28.17 °C 85.59 % 1,010.16 mbar 2.74 m/s 278.03 Deg 8.07 µg/m3 N/A
2022-07-26 07:00 16.78 µg/m3 0.09 µg/m3 36.35 µg/m3 22.07 µg/m3 12.18 µg/m3 0.37 mg/m3 27.28 °C 93.12 % 1,009.98 mbar 3.38 m/s 269.03 Deg 6.5 µg/m3 N/A
2022-07-26 06:00 13.96 µg/m3 -0.2 µg/m3 38.34 µg/m3 19.16 µg/m3 11.47 µg/m3 0.36 mg/m3 26.92 °C 94.62 % 1,009.82 mbar 3.88 m/s 261.86 Deg 3.51 µg/m3 N/A
2022-07-26 05:00 12.02 µg/m3 -0.3 µg/m3 42.64 µg/m3 16.27 µg/m3 10.33 µg/m3 0.36 mg/m3 26.94 °C 93.94 % 1,009.66 mbar 4.35 m/s 258.99 Deg 2.38 µg/m3 N/A
2022-07-26 04:00 12.51 µg/m3 -0.37 µg/m3 67.79 µg/m3 16.46 µg/m3 10.48 µg/m3 0.36 mg/m3 26.85 °C 91.57 % 1,009.77 mbar 4.05 m/s 258.25 Deg 0.47 µg/m3 N/A
2022-07-26 03:00 25.53 µg/m3 -0.08 µg/m3 71.68 µg/m3 16.42 µg/m3 10.98 µg/m3 0.24 mg/m3 26.98 °C 87.18 % 1,010.20 mbar 3.6 m/s 249.4 Deg 0.71 µg/m3 N/A
2022-07-26 02:00 5 µg/m3 -0.18 µg/m3 74.27 µg/m3 17.54 µg/m3 11.03 µg/m3 0.37 mg/m3 27.08 °C 84.38 % 1,010.57 mbar 3.22 m/s 246.58 Deg 0.56 µg/m3 N/A
2022-07-26 01:00 8.41 µg/m3 0.09 µg/m3 72.96 µg/m3 15.71 µg/m3 10.81 µg/m3 0.39 mg/m3 27.14 °C 81.85 % 1,010.92 mbar 3.39 m/s 247.84 Deg 0.72 µg/m3 N/A
2022-07-26 00:00 10.3 µg/m3 0 µg/m3 72.5 µg/m3 16.32 µg/m3 10.81 µg/m3 0.41 mg/m3 27.05 °C 81.68 % 1,011.19 mbar 3.17 m/s 245.23 Deg 1.48 µg/m3 N/A
2022-07-25 23:00 21 µg/m3 0.17 µg/m3 57.7 µg/m3 19.97 µg/m3 11.56 µg/m3 0.45 mg/m3 27.34 °C 75.23 % 1,011.32 mbar 2.52 m/s 233.27 Deg 4.29 µg/m3 N/A
2022-07-25 22:00 29.73 µg/m3 0.19 µg/m3 47.35 µg/m3 22.98 µg/m3 11.7 µg/m3 0.47 mg/m3 27.47 °C 71.04 % 1,011.48 mbar 2.01 m/s 238.17 Deg 5.18 µg/m3 N/A
2022-07-25 21:00 45.14 µg/m3 0.32 µg/m3 39.17 µg/m3 26.67 µg/m3 12.77 µg/m3 0.49 mg/m3 27.88 °C 71.34 % 1,011.40 mbar 1.84 m/s 235.73 Deg 11.6 µg/m3 N/A
2022-07-25 20:00 38.75 µg/m3 0.26 µg/m3 47.01 µg/m3 34.62 µg/m3 12.89 µg/m3 0.47 mg/m3 29.17 °C 63.91 % 1,011.15 mbar 1.71 m/s 234.9 Deg 9.95 µg/m3 N/A
2022-07-25 19:00 24 µg/m3 0.24 µg/m3 62.87 µg/m3 25.64 µg/m3 11.47 µg/m3 0.42 mg/m3 30.41 °C 64.73 % 1,011.09 mbar 2.59 m/s 246.15 Deg 4.52 µg/m3 N/A
2022-07-25 18:00 22.11 µg/m3 0.27 µg/m3 71.1 µg/m3 21.19 µg/m3 11.08 µg/m3 0.4 mg/m3 31.03 °C 63.55 % 1,011.08 mbar 3.44 m/s 257.74 Deg 4.79 µg/m3 N/A
2022-07-25 17:00 21.97 µg/m3 0.35 µg/m3 81.53 µg/m3 22.39 µg/m3 12.37 µg/m3 0.41 mg/m3 32.01 °C 50.83 % 1,011.17 mbar 3.77 m/s 273.2 Deg 7.08 µg/m3 N/A
2022-07-25 16:00 17.78 µg/m3 0.58 µg/m3 85.02 µg/m3 24.01 µg/m3 13.47 µg/m3 0.41 mg/m3 32.33 °C 52.39 % 1,011.46 mbar 4.03 m/s 263.52 Deg 4.21 µg/m3 N/A
2022-07-25 15:00 18.53 µg/m3 0.56 µg/m3 77.6 µg/m3 27.09 µg/m3 14.68 µg/m3 0.41 mg/m3 32.59 °C 61.67 % 1,011.80 mbar 3.66 m/s 259.8 Deg 4.58 µg/m3 N/A
2022-07-25 14:00 18.41 µg/m3 0.27 µg/m3 66.21 µg/m3 22.87 µg/m3 13.35 µg/m3 0.39 mg/m3 31.75 °C 69.17 % 1,012.25 mbar 3.61 m/s 258.29 Deg 5.72 µg/m3 N/A
2022-07-25 13:00 16.46 µg/m3 0.09 µg/m3 66.89 µg/m3 22.02 µg/m3 12.39 µg/m3 0.39 mg/m3 31.44 °C 70.68 % 1,012.51 mbar 3.61 m/s 260.82 Deg 4.74 µg/m3 N/A
2022-07-25 11:00 14.46 µg/m3 0.06 µg/m3 63.36 µg/m3 23.62 µg/m3 13.14 µg/m3 0.33 mg/m3 29.74 °C 77.91 % 1,013.01 mbar 4.83 m/s 259.62 Deg 3.65 µg/m3 N/A
2022-07-25 10:00 18.44 µg/m3 -0.16 µg/m3 58.27 µg/m3 21.8 µg/m3 12.78 µg/m3 0.29 mg/m3 29.87 °C 74.16 % 1,012.84 mbar 4.14 m/s 264.04 Deg 4.93 µg/m3 N/A
2022-07-25 09:00 21.47 µg/m3 -0.42 µg/m3 53.46 µg/m3 21.16 µg/m3 11.76 µg/m3 0.23 mg/m3 29.24 °C 78.94 % 1,012.74 mbar 3.93 m/s 264.76 Deg 4.45 µg/m3 N/A
2022-07-25 08:00 875.04 µg/m3 226.59 µg/m3 262.99 µg/m3 22.82 µg/m3 12.02 µg/m3 0.24 mg/m3 28.62 °C 82.42 % 1,012.77 mbar 3.01 m/s 266.02 Deg 4 µg/m3 N/A
2022-07-25 07:00 59.18 µg/m3 6.05 µg/m3 45.85 µg/m3 20.97 µg/m3 12.03 µg/m3 0.44 mg/m3 27.02 °C 91.97 % 1,012.74 mbar 2.92 m/s 254.41 Deg 5.95 µg/m3 N/A
2022-07-25 06:00 33.36 µg/m3 0.1 µg/m3 33.32 µg/m3 24.32 µg/m3 13.15 µg/m3 0.44 mg/m3 26.21 °C 94.52 % 1,012.74 mbar 2.41 m/s 242.37 Deg 11.25 µg/m3 N/A
2022-07-25 05:00 21.53 µg/m3 -0.14 µg/m3 46.22 µg/m3 19.38 µg/m3 12.23 µg/m3 0.39 mg/m3 26 °C 93.17 % 1,012.49 mbar 2.66 m/s 240.98 Deg 4.12 µg/m3 N/A
2022-07-25 04:00 14.32 µg/m3 -0.1 µg/m3 60.36 µg/m3 18.1 µg/m3 11.62 µg/m3 0.38 mg/m3 26.03 °C 92.05 % 1,012.54 mbar 2.74 m/s 240.27 Deg 1.23 µg/m3 N/A
2022-07-25 03:00 25.27 µg/m3 -0.17 µg/m3 63.02 µg/m3 17.45 µg/m3 11.09 µg/m3 0.26 mg/m3 26.16 °C 91.01 % 1,012.81 mbar 2.81 m/s 239.79 Deg 1.11 µg/m3 N/A
2022-07-25 02:00 8.36 µg/m3 -0.12 µg/m3 59.88 µg/m3 19.46 µg/m3 11.01 µg/m3 0.41 mg/m3 26.16 °C 89.73 % 1,013.36 mbar 2.61 m/s 241.03 Deg 1.35 µg/m3 N/A
2022-07-25 01:00 11.28 µg/m3 0.2 µg/m3 59.87 µg/m3 18.36 µg/m3 10.95 µg/m3 0.44 mg/m3 26.28 °C 87.96 % 1,013.87 mbar 2.53 m/s 236.89 Deg 2.47 µg/m3 N/A
2022-07-25 00:00 22.98 µg/m3 -0.02 µg/m3 48.99 µg/m3 19.7 µg/m3 11.27 µg/m3 0.45 mg/m3 26.27 °C 85.94 % 1,014.29 mbar 2.13 m/s 233.52 Deg 6.76 µg/m3 N/A
2022-07-24 23:00 27.18 µg/m3 0.22 µg/m3 49.1 µg/m3 23.4 µg/m3 12.56 µg/m3 0.43 mg/m3 26.62 °C 83.78 % 1,014.38 mbar 2.29 m/s 240.85 Deg 7.51 µg/m3 N/A
2022-07-24 22:00 25.01 µg/m3 0.42 µg/m3 53.45 µg/m3 22.5 µg/m3 12.8 µg/m3 0.4 mg/m3 26.99 °C 82.4 % 1,014.28 mbar 2.88 m/s 251.76 Deg 4.97 µg/m3 N/A
2022-07-24 21:00 17.96 µg/m3 0.39 µg/m3 64.14 µg/m3 21.88 µg/m3 12.07 µg/m3 0.37 mg/m3 27.53 °C 79.45 % 1,014.12 mbar 3.08 m/s 251.85 Deg 2.46 µg/m3 N/A
2022-07-24 20:00 11.57 µg/m3 0.01 µg/m3 69.24 µg/m3 18.73 µg/m3 11.34 µg/m3 0.35 mg/m3 27.88 °C 77.26 % 1,013.91 mbar 3.04 m/s 264.17 Deg 1.44 µg/m3 N/A
2022-07-24 19:00 12.16 µg/m3 0.22 µg/m3 70.9 µg/m3 18.17 µg/m3 11.07 µg/m3 0.36 mg/m3 28.58 °C 74.63 % 1,013.79 mbar 4.11 m/s 269.72 Deg 2.93 µg/m3 N/A
2022-07-24 18:00 10.28 µg/m3 0.71 µg/m3 67.46 µg/m3 15.64 µg/m3 9.29 µg/m3 0.35 mg/m3 29.02 °C 71.99 % 1,013.78 mbar 4.92 m/s 277.48 Deg 3.3 µg/m3 N/A
2022-07-24 04:00 17.43 µg/m3 0.1 µg/m3 34.24 µg/m3 14.56 µg/m3 10.17 µg/m3 0.52 mg/m3 25.28 °C 92.35 % 1,015.36 mbar 1.17 m/s 208.47 Deg 3.32 µg/m3 0 µg/m3
2022-07-24 03:00 28.16 µg/m3 0.34 µg/m3 30.52 µg/m3 15.29 µg/m3 10.03 µg/m3 0.4 mg/m3 25.12 °C 92.67 % 1,015.50 mbar 1.09 m/s 226.68 Deg 5.85 µg/m3 0 µg/m3
2022-07-24 02:00 22.17 µg/m3 0.27 µg/m3 18.44 µg/m3 18.37 µg/m3 11.15 µg/m3 0.63 mg/m3 24.82 °C 92.65 % 1,015.82 mbar 1.01 m/s 227.64 Deg 10.89 µg/m3 0 µg/m3
2022-07-24 01:00 24.15 µg/m3 0.43 µg/m3 44.97 µg/m3 21.65 µg/m3 11.83 µg/m3 0.51 mg/m3 27.52 °C 77.27 % 1,016.25 mbar 2.58 m/s 223.61 Deg 15.07 µg/m3 0 µg/m3
2022-07-23 04:00 20.91 µg/m3 0.32 µg/m3 11.02 µg/m3 18.78 µg/m3 12.35 µg/m3 0.47 mg/m3 23.97 °C 95.78 % 1,015.51 mbar 0.83 m/s 231.54 Deg 15.63 µg/m3 0 µg/m3
2022-07-23 03:00 33.42 µg/m3 0.32 µg/m3 12.88 µg/m3 18.3 µg/m3 11.91 µg/m3 0.3 mg/m3 24.31 °C 94.61 % 1,015.61 mbar 0.87 m/s 225.07 Deg 19.5 µg/m3 0 µg/m3
2022-07-23 02:00 25.23 µg/m3 0.25 µg/m3 12.49 µg/m3 18.97 µg/m3 12.17 µg/m3 0.5 mg/m3 24.77 °C 92.84 % 1,015.75 mbar 0.79 m/s 226.99 Deg 22.09 µg/m3 0 µg/m3
2022-07-23 01:00 25.24 µg/m3 0.54 µg/m3 49.89 µg/m3 29.1 µg/m3 14.48 µg/m3 0.4 mg/m3 28.21 °C 76.76 % 1,015.50 mbar 2.12 m/s 226.08 Deg 12.92 µg/m3 0 µg/m3
2022-07-22 07:00 45.98 µg/m3 1.74 µg/m3 1.66 µg/m3 50.8 µg/m3 23.11 µg/m3 0.43 mg/m3 24.87 °C 90.65 % 1,014.81 mbar 0.9 m/s 211.1 Deg 77.53 µg/m3 0 µg/m3
2022-07-22 06:00 41.32 µg/m3 1.76 µg/m3 2.42 µg/m3 43.12 µg/m3 21.04 µg/m3 0.42 mg/m3 24.02 °C 91.95 % 1,014.73 mbar 0.98 m/s 224.86 Deg 78.95 µg/m3 0 µg/m3
2022-07-22 05:00 35.7 µg/m3 0.67 µg/m3 3.7 µg/m3 31.67 µg/m3 18.88 µg/m3 0.28 mg/m3 24.02 °C 91.23 % 1,014.39 mbar 0.66 m/s 223.64 Deg 44.04 µg/m3 0 µg/m3
2022-07-22 04:00 23.66 µg/m3 0.3 µg/m3 16.85 µg/m3 24.22 µg/m3 16.41 µg/m3 0.23 mg/m3 23.6 °C 90.71 % 1,014.30 mbar 0.91 m/s 241.55 Deg 8 µg/m3 0 µg/m3
2022-07-22 03:00 36.85 µg/m3 0.28 µg/m3 11.88 µg/m3 25.62 µg/m3 16.12 µg/m3 0.16 mg/m3 23.57 °C 88.9 % 1,014.41 mbar 0.66 m/s 232.25 Deg 12.35 µg/m3 0 µg/m3
2022-07-22 02:00 10.12 µg/m3 0.21 µg/m3 24.87 µg/m3 23.4 µg/m3 15.8 µg/m3 0.26 mg/m3 24.07 °C 86.49 % 1,014.59 mbar 0.61 m/s 240.32 Deg 2.38 µg/m3 0 µg/m3
2022-07-22 01:00 17.94 µg/m3 0.29 µg/m3 26.37 µg/m3 23.47 µg/m3 15.77 µg/m3 0.28 mg/m3 24.81 °C 83.83 % 1,015.05 mbar 0.75 m/s 222.61 Deg 4.68 µg/m3 0 µg/m3
2022-07-22 00:00 25.15 µg/m3 0.42 µg/m3 25.68 µg/m3 24.68 µg/m3 15.4 µg/m3 0.31 mg/m3 25.36 °C 81.89 % 1,015.35 mbar 0.62 m/s 231.38 Deg 5.32 µg/m3 0 µg/m3
2022-07-21 23:00 34.45 µg/m3 0.68 µg/m3 25.15 µg/m3 22.65 µg/m3 15.17 µg/m3 0.34 mg/m3 26.09 °C 78.13 % 1,015.48 mbar 0.72 m/s 236.22 Deg 9.77 µg/m3 0 µg/m3
2022-07-21 22:00 39.93 µg/m3 0.63 µg/m3 29.06 µg/m3 25.51 µg/m3 16.12 µg/m3 0.38 mg/m3 26.93 °C 75.13 % 1,015.55 mbar 0.44 m/s 234.63 Deg 10.57 µg/m3 0 µg/m3
2022-07-21 21:00 24.75 µg/m3 0.28 µg/m3 54.63 µg/m3 21.19 µg/m3 13.7 µg/m3 0.3 mg/m3 27.53 °C 73.09 % 1,015.22 mbar 0.79 m/s 131.38 Deg 4.68 µg/m3 0 µg/m3
2022-07-21 20:00 12.14 µg/m3 0.46 µg/m3 76.48 µg/m3 18.99 µg/m3 12.56 µg/m3 0.26 mg/m3 27.8 °C 72.53 % 1,014.88 mbar 1.84 m/s 40.37 Deg 2.39 µg/m3 0 µg/m3
2022-07-21 19:00 9.64 µg/m3 0.6 µg/m3 74.49 µg/m3 19.08 µg/m3 12.33 µg/m3 0.27 mg/m3 28.21 °C 71.93 % 1,014.73 mbar 2.86 m/s 43.78 Deg 2.73 µg/m3 0 µg/m3
2022-07-21 18:00 12.59 µg/m3 0.86 µg/m3 70.21 µg/m3 21.27 µg/m3 12.84 µg/m3 0.26 mg/m3 28.87 °C 67.5 % 1,014.47 mbar 3.25 m/s 119.09 Deg 3.85 µg/m3 0 µg/m3
2022-07-21 17:00 16.64 µg/m3 0.51 µg/m3 71.41 µg/m3 29.38 µg/m3 14.39 µg/m3 0.26 mg/m3 29.99 °C 61.76 % 1,014.91 mbar 1.64 m/s 166.47 Deg 7.72 µg/m3 0 µg/m3
2022-07-21 16:00 12.11 µg/m3 0.54 µg/m3 77.79 µg/m3 23.92 µg/m3 14.18 µg/m3 0.24 mg/m3 30.14 °C 59.01 % 1,015.32 mbar 2.02 m/s 283.87 Deg 4.95 µg/m3 0 µg/m3
2022-07-21 15:00 12.9 µg/m3 0.87 µg/m3 82.66 µg/m3 24.51 µg/m3 14.9 µg/m3 0.25 mg/m3 29.92 °C 62.25 % 1,015.59 mbar 2.89 m/s 276.23 Deg 3.55 µg/m3 0 µg/m3
2022-07-21 14:00 15.33 µg/m3 1.07 µg/m3 81.92 µg/m3 26.02 µg/m3 15.76 µg/m3 0.27 mg/m3 29.89 °C 64.53 % 1,015.75 mbar 3.1 m/s 279.84 Deg 6.05 µg/m3 0 µg/m3
2022-07-21 13:00 18.48 µg/m3 1.1 µg/m3 84.72 µg/m3 25.41 µg/m3 16.55 µg/m3 0.29 mg/m3 29.26 °C 67.86 % 1,015.74 mbar 2.63 m/s 35.04 Deg 5.14 µg/m3 0 µg/m3
2022-07-21 12:00 16.89 µg/m3 0.93 µg/m3 85.83 µg/m3 25.19 µg/m3 16.92 µg/m3 0.28 mg/m3 28.87 °C 65.2 % 1,016.03 mbar 2.7 m/s 68.99 Deg 5.09 µg/m3 0 µg/m3
2022-07-21 11:00 21.66 µg/m3 1.01 µg/m3 84.65 µg/m3 25.26 µg/m3 17.19 µg/m3 0.29 mg/m3 28.06 °C 73.49 % 1,016.29 mbar 2.57 m/s 59.62 Deg 6.92 µg/m3 0 µg/m3
2022-07-21 10:00 19.57 µg/m3 1.05 µg/m3 77.23 µg/m3 26.16 µg/m3 16.44 µg/m3 0.31 mg/m3 27.83 °C 73.83 % 1,016.28 mbar 2.64 m/s 66.68 Deg 8.1 µg/m3 0 µg/m3
2022-07-21 09:00 20.2 µg/m3 0.6 µg/m3 81.62 µg/m3 25.72 µg/m3 16.63 µg/m3 0.32 mg/m3 27.47 °C 79.09 % 1,016.28 mbar 2.29 m/s 48.74 Deg 5.52 µg/m3 0 µg/m3
2022-07-21 08:00 26.63 µg/m3 1.12 µg/m3 67.42 µg/m3 36.25 µg/m3 18.14 µg/m3 0.31 mg/m3 27.72 °C 75.75 % 1,016.15 mbar 1.6 m/s 262.11 Deg 7.83 µg/m3 0 µg/m3
2022-07-21 07:00 58.01 µg/m3 2.11 µg/m3 11.27 µg/m3 60.91 µg/m3 23.86 µg/m3 0.47 mg/m3 26.18 °C 81.7 % 1,015.77 mbar 0.45 m/s 234.1 Deg 65.48 µg/m3 0 µg/m3
2022-07-21 06:00 49.85 µg/m3 1.77 µg/m3 1.52 µg/m3 55.99 µg/m3 22.97 µg/m3 0.4 mg/m3 24.06 °C 86.78 % 1,015.45 mbar 0.72 m/s 227.97 Deg 69.83 µg/m3 0 µg/m3
2022-07-21 05:00 42.25 µg/m3 0.63 µg/m3 10.68 µg/m3 33.18 µg/m3 17.88 µg/m3 0.32 mg/m3 23.8 °C 85.93 % 1,015.27 mbar 0.75 m/s 235.76 Deg 29.47 µg/m3 0 µg/m3
2022-07-21 04:00 33.71 µg/m3 0.27 µg/m3 9.96 µg/m3 23.35 µg/m3 15.06 µg/m3 0.23 mg/m3 24.49 °C 83.39 % 1,015.21 mbar 0.84 m/s 232.11 Deg 6.96 µg/m3 0 µg/m3
2022-07-21 03:00 47.73 µg/m3 0.32 µg/m3 39.32 µg/m3 20.49 µg/m3 14.19 µg/m3 0.16 mg/m3 24.8 °C 82.15 % 1,015.35 mbar 0.49 m/s 234.03 Deg 12.18 µg/m3 0 µg/m3
2022-07-21 02:00 15.69 µg/m3 0.16 µg/m3 50.35 µg/m3 21.75 µg/m3 14.32 µg/m3 0.25 mg/m3 25.12 °C 82.63 % 1,015.52 mbar 0.67 m/s 218 Deg 2.64 µg/m3 0 µg/m3
2022-07-21 01:00 20.42 µg/m3 0.44 µg/m3 53.25 µg/m3 23.89 µg/m3 15.05 µg/m3 0.26 mg/m3 25.43 °C 81.7 % 1,015.78 mbar 0.77 m/s 233.57 Deg 3.67 µg/m3 0 µg/m3
2022-07-21 00:00 42.67 µg/m3 0.69 µg/m3 29.63 µg/m3 24.02 µg/m3 14.9 µg/m3 0.32 mg/m3 25.86 °C 78.16 % 1,016.08 mbar 0.46 m/s 236.61 Deg 6.06 µg/m3 0 µg/m3
2022-07-20 23:00 50.33 µg/m3 0.81 µg/m3 33.6 µg/m3 29.08 µg/m3 15.96 µg/m3 0.31 mg/m3 26.45 °C 76.83 % 1,016.33 mbar 0.52 m/s 230.84 Deg 8.26 µg/m3 0 µg/m3
2022-07-20 22:00 24.86 µg/m3 0.88 µg/m3 71.9 µg/m3 20.93 µg/m3 13.64 µg/m3 0.26 mg/m3 27.33 °C 75.58 % 1,016.34 mbar 0.92 m/s 108.51 Deg 3.52 µg/m3 0 µg/m3
2022-07-20 21:00 21.19 µg/m3 1.2 µg/m3 82.39 µg/m3 20.4 µg/m3 12.86 µg/m3 0.25 mg/m3 27.68 °C 75.68 % 1,015.99 mbar 1.63 m/s 45.58 Deg 8.08 µg/m3 0 µg/m3
2022-07-20 20:00 24.88 µg/m3 1.84 µg/m3 88.1 µg/m3 21.73 µg/m3 12.94 µg/m3 0.28 mg/m3 28.09 °C 73.62 % 1,015.73 mbar 1.81 m/s 54.4 Deg 3.9 µg/m3 0 µg/m3
2022-07-20 19:00 13.68 µg/m3 1.13 µg/m3 99.5 µg/m3 21.09 µg/m3 13.68 µg/m3 0.27 mg/m3 28.53 °C 69.22 % 1,015.55 mbar 2.66 m/s 31.3 Deg 5.36 µg/m3 0 µg/m3
2022-07-20 18:00 28.29 µg/m3 1.31 µg/m3 83.91 µg/m3 25.85 µg/m3 14.2 µg/m3 0.29 mg/m3 29.59 °C 64.3 % 1,015.52 mbar 2.22 m/s 65.54 Deg 5.88 µg/m3 0 µg/m3
2022-07-20 17:00 19.71 µg/m3 1.06 µg/m3 87.93 µg/m3 22.04 µg/m3 13.24 µg/m3 0.27 mg/m3 29.14 °C 68.17 % 1,015.50 mbar 2.34 m/s 60.28 Deg 4.93 µg/m3 0 µg/m3
2022-07-20 16:00 16.69 µg/m3 1.42 µg/m3 86.45 µg/m3 20.82 µg/m3 12.79 µg/m3 0.28 mg/m3 29.04 °C 68.38 % 1,015.88 mbar 2.56 m/s 62.18 Deg 5.27 µg/m3 0 µg/m3
2022-07-20 15:00 10.07 µg/m3 0.9 µg/m3 90.91 µg/m3 18.66 µg/m3 12.37 µg/m3 0.28 mg/m3 28.34 °C 71.33 % 1,016.17 mbar 3.33 m/s 55.3 Deg 4.16 µg/m3 0 µg/m3
2022-07-20 14:00 8.19 µg/m3 1.15 µg/m3 93.68 µg/m3 18.61 µg/m3 12.77 µg/m3 0.3 mg/m3 28.12 °C 74.31 % 1,016.47 mbar 3.77 m/s 56.49 Deg 2.16 µg/m3 0 µg/m3
2022-07-20 13:00 13.88 µg/m3 1.26 µg/m3 99.23 µg/m3 21.83 µg/m3 13.97 µg/m3 0.27 mg/m3 28.44 °C 70.88 % 1,016.71 mbar 4.3 m/s 54.73 Deg 6.57 µg/m3 0 µg/m3
2022-07-20 12:00 18.76 µg/m3 1.24 µg/m3 96.82 µg/m3 22.34 µg/m3 13.88 µg/m3 0.25 mg/m3 28.73 °C 65.91 % 1,016.92 mbar 4 m/s 59.26 Deg 7.61 µg/m3 0 µg/m3
2022-07-20 11:00 21.88 µg/m3 1.65 µg/m3 92.93 µg/m3 25.96 µg/m3 14.37 µg/m3 0.24 mg/m3 28.79 °C 62.22 % 1,016.81 mbar 3.74 m/s 62 Deg 7.4 µg/m3 0 µg/m3
2022-07-20 10:00 20.95 µg/m3 1.58 µg/m3 88.28 µg/m3 27.59 µg/m3 14.74 µg/m3 0.23 mg/m3 28.41 °C 64.14 % 1,016.68 mbar 3.41 m/s 58.38 Deg 6.47 µg/m3 0 µg/m3
2022-07-20 09:00 23.59 µg/m3 1.57 µg/m3 78.12 µg/m3 25.25 µg/m3 13.56 µg/m3 0.23 mg/m3 28.02 °C 70.64 % 1,016.39 mbar 2.52 m/s 62.39 Deg 5.02 µg/m3 0 µg/m3
2022-07-20 08:00 32.59 µg/m3 1.42 µg/m3 56.91 µg/m3 24.11 µg/m3 12.6 µg/m3 0.23 mg/m3 27.55 °C 74.96 % 1,016.13 mbar 2.53 m/s 68.36 Deg 12.46 µg/m3 0 µg/m3
2022-07-20 07:00 48.72 µg/m3 1.88 µg/m3 26.57 µg/m3 45.57 µg/m3 20.69 µg/m3 0.36 mg/m3 26.83 °C 79.63 % 1,015.79 mbar 1.24 m/s 104.46 Deg 44.01 µg/m3 16.74 µg/m3
2022-07-20 06:00 66.51 µg/m3 2.39 µg/m3 1.24 µg/m3 63.04 µg/m3 39.28 µg/m3 0.52 mg/m3 25.06 °C 82.33 % 1,015.38 mbar 0.18 m/s 248.91 Deg 103.07 µg/m3 12.7 µg/m3
2022-07-20 05:00 58.85 µg/m3 1.12 µg/m3 3.11 µg/m3 38.17 µg/m3 22.61 µg/m3 0.36 mg/m3 24.44 °C 82.66 % 1,015.05 mbar 0.38 m/s 244.92 Deg 49.01 µg/m3 0 µg/m3
2022-07-20 04:00 34.29 µg/m3 0.19 µg/m3 23.78 µg/m3 25.99 µg/m3 16.63 µg/m3 0.25 mg/m3 24.81 °C 82.17 % 1,014.91 mbar 0.4 m/s 222.63 Deg 7.14 µg/m3 11.07 µg/m3
2022-07-20 03:00 34 µg/m3 0.36 µg/m3 39.39 µg/m3 24.9 µg/m3 16.68 µg/m3 0.16 mg/m3 24.93 °C 82.62 % 1,014.87 mbar 0.71 m/s 229.17 Deg 2.97 µg/m3 57.47 µg/m3
2022-07-20 02:00 22.85 µg/m3 0.53 µg/m3 25.01 µg/m3 28.88 µg/m3 18.75 µg/m3 0.29 mg/m3 25.43 °C 81.91 % 1,015.10 mbar 0.35 m/s 254.9 Deg 2.45 µg/m3 2.57 µg/m3
2022-07-20 01:00 30.34 µg/m3 0.56 µg/m3 27.22 µg/m3 29.77 µg/m3 18.75 µg/m3 0.32 mg/m3 25.64 °C 81.6 % 1,015.43 mbar 0.42 m/s 238.75 Deg 4.93 µg/m3 18.84 µg/m3
2022-07-20 00:00 29.32 µg/m3 0.45 µg/m3 33.76 µg/m3 27.9 µg/m3 17.77 µg/m3 0.36 mg/m3 25.84 °C 81.14 % 1,015.51 mbar 0.68 m/s 231.98 Deg 5.01 µg/m3 0 µg/m3
2022-07-19 23:00 34.44 µg/m3 0.63 µg/m3 36.57 µg/m3 27.59 µg/m3 17.54 µg/m3 0.33 mg/m3 26.35 °C 80.91 % 1,015.64 mbar 0.59 m/s 236.62 Deg 4.69 µg/m3 94.06 µg/m3
2022-07-19 22:00 40.79 µg/m3 0.69 µg/m3 43 µg/m3 27.08 µg/m3 16.53 µg/m3 0.33 mg/m3 26.96 °C 79.68 % 1,015.56 mbar 0.64 m/s 172.85 Deg 5.37 µg/m3 20 µg/m3
2022-07-19 21:00 39.11 µg/m3 0.66 µg/m3 60.71 µg/m3 27.9 µg/m3 16.82 µg/m3 0.31 mg/m3 27.6 °C 77.37 % 1,015.37 mbar 0.61 m/s 138.65 Deg 4.73 µg/m3 0 µg/m3
2022-07-19 20:00 18.84 µg/m3 0.81 µg/m3 97.69 µg/m3 25.64 µg/m3 15.74 µg/m3 0.29 mg/m3 28.12 °C 77.06 % 1,015.10 mbar 2.04 m/s 59.91 Deg 1.52 µg/m3 13.75 µg/m3
2022-07-19 19:00 17.89 µg/m3 0.92 µg/m3 101.66 µg/m3 24.87 µg/m3 15.26 µg/m3 0.29 mg/m3 28.3 °C 77.11 % 1,015.10 mbar 2.42 m/s 53.75 Deg 3.63 µg/m3 14.07 µg/m3
2022-07-19 18:00 15.08 µg/m3 0.91 µg/m3 108.15 µg/m3 24.12 µg/m3 15.45 µg/m3 0.28 mg/m3 28.63 °C 78.22 % 1,015.08 mbar 3 m/s 56.63 Deg 2.16 µg/m3 0 µg/m3
2022-07-19 17:00 15.56 µg/m3 0.66 µg/m3 104.89 µg/m3 23.79 µg/m3 15.18 µg/m3 0.28 mg/m3 29.14 °C 75.67 % 1,015.14 mbar 2.7 m/s 56.6 Deg 2.83 µg/m3 62.15 µg/m3
2022-07-19 16:00 9.05 µg/m3 0.65 µg/m3 108.45 µg/m3 20.89 µg/m3 14.17 µg/m3 0.27 mg/m3 28.44 °C 78.99 % 1,015.19 mbar 3.03 m/s 55.68 Deg 1.64 µg/m3 9.4 µg/m3
2022-07-19 15:00 6.98 µg/m3 0.83 µg/m3 99.86 µg/m3 21.97 µg/m3 14.1 µg/m3 0.27 mg/m3 28.23 °C 78.28 % 1,015.43 mbar 3.27 m/s 54.76 Deg 2.6 µg/m3 62.57 µg/m3
2022-07-19 14:00 8.16 µg/m3 0.56 µg/m3 103.88 µg/m3 21.03 µg/m3 14.03 µg/m3 0.28 mg/m3 28.24 °C 77.66 % 1,015.78 mbar 3.45 m/s 55.98 Deg 4.04 µg/m3 0 µg/m3
2022-07-19 13:00 8.57 µg/m3 0.73 µg/m3 110.47 µg/m3 24.94 µg/m3 14.73 µg/m3 0.27 mg/m3 28.05 °C 76.66 % 1,016.17 mbar 3.44 m/s 52.88 Deg 1.9 µg/m3 21.47 µg/m3
2022-07-19 12:00 14.49 µg/m3 0.69 µg/m3 105.65 µg/m3 22.87 µg/m3 15.22 µg/m3 0.28 mg/m3 28.21 °C 76.87 % 1,016.48 mbar 3.62 m/s 55.18 Deg 6.06 µg/m3 5.46 µg/m3
2022-07-19 11:00 15.14 µg/m3 1.2 µg/m3 104.77 µg/m3 24.39 µg/m3 15.96 µg/m3 0.28 mg/m3 28.53 °C 73.69 % 1,016.41 mbar 3.67 m/s 59.33 Deg 3.33 µg/m3 1.36 µg/m3
2022-07-19 10:00 21.62 µg/m3 1.84 µg/m3 94.48 µg/m3 54.7 µg/m3 21.44 µg/m3 0.31 mg/m3 29.11 °C 64.56 % 1,016.19 mbar 3.54 m/s 63.87 Deg 5.21 µg/m3 34.12 µg/m3
2022-07-19 09:00 28.39 µg/m3 1.86 µg/m3 79.04 µg/m3 33.82 µg/m3 16.48 µg/m3 0.31 mg/m3 29.06 °C 60.65 % 1,015.96 mbar 3.07 m/s 64.94 Deg 9.81 µg/m3 8.45 µg/m3
2022-07-19 08:00 36.39 µg/m3 1.16 µg/m3 45.19 µg/m3 23.94 µg/m3 11.49 µg/m3 0.31 mg/m3 28.23 °C 76.19 % 1,015.94 mbar 2.15 m/s 64.53 Deg 15.16 µg/m3 18.84 µg/m3
2022-07-19 07:00 52.49 µg/m3 1.87 µg/m3 26.47 µg/m3 55.99 µg/m3 18.1 µg/m3 0.37 mg/m3 27.75 °C 74.84 % 1,015.74 mbar 1.42 m/s 130.38 Deg 31.23 µg/m3 38.05 µg/m3
2022-07-19 06:00 73.63 µg/m3 2.12 µg/m3 0.64 µg/m3 40.89 µg/m3 18.06 µg/m3 0.57 mg/m3 25.89 °C 79.97 % 1,015.35 mbar 0.15 m/s 190.17 Deg 121.95 µg/m3 2.05 µg/m3
2022-07-19 05:00 78.98 µg/m3 1.01 µg/m3 3.71 µg/m3 23.18 µg/m3 13.57 µg/m3 0.4 mg/m3 25.56 °C 79.21 % 1,015.12 mbar 0.16 m/s 121.05 Deg 72.54 µg/m3 13.38 µg/m3
2022-07-19 04:00 50.57 µg/m3 0.5 µg/m3 21.12 µg/m3 16.54 µg/m3 11.68 µg/m3 0.24 mg/m3 25.97 °C 77.79 % 1,015.12 mbar 0.32 m/s 186.66 Deg 17.6 µg/m3 53.64 µg/m3
2022-07-19 03:00 41.13 µg/m3 0.19 µg/m3 34.71 µg/m3 14.2 µg/m3 10.2 µg/m3 0.15 mg/m3 25.93 °C 84.96 % 1,015.21 mbar 0.22 m/s 276.46 Deg 4.88 µg/m3 0 µg/m3
2022-07-19 02:00 17.12 µg/m3 0.14 µg/m3 48.91 µg/m3 15.49 µg/m3 11.64 µg/m3 0.24 mg/m3 26.12 °C 88.75 % 1,015.41 mbar 0.2 m/s 277.59 Deg 1.63 µg/m3 1.47 µg/m3
2022-07-19 01:00 6.96 µg/m3 0.58 µg/m3 90.71 µg/m3 14.29 µg/m3 10.61 µg/m3 0.22 mg/m3 27.03 °C 85.61 % 1,015.76 mbar 1.55 m/s 44.03 Deg 0.52 µg/m3 0 µg/m3
2022-07-19 00:00 10.82 µg/m3 0.67 µg/m3 93.5 µg/m3 14.06 µg/m3 10.62 µg/m3 0.22 mg/m3 27.39 °C 83.27 % 1,016.03 mbar 2.18 m/s 54.45 Deg 0.76 µg/m3 0 µg/m3
2022-07-18 23:00 14.42 µg/m3 0.83 µg/m3 86.27 µg/m3 12.48 µg/m3 9.44 µg/m3 0.23 mg/m3 27.47 °C 81.4 % 1,016.23 mbar 3.01 m/s 49.22 Deg 0.95 µg/m3 5.04 µg/m3
2022-07-18 22:00 10.53 µg/m3 0.75 µg/m3 90.82 µg/m3 12.1 µg/m3 8.59 µg/m3 0.23 mg/m3 27.53 °C 76.91 % 1,016.28 mbar 2.89 m/s 45.67 Deg 1.6 µg/m3 0 µg/m3
2022-07-18 21:00 20.43 µg/m3 0.98 µg/m3 73.99 µg/m3 13.48 µg/m3 8.97 µg/m3 0.24 mg/m3 27.56 °C 75.32 % 1,016.08 mbar 2.06 m/s 30.19 Deg 1.85 µg/m3 0 µg/m3
2022-07-18 20:00 17.1 µg/m3 0.73 µg/m3 82.68 µg/m3 13.11 µg/m3 8.82 µg/m3 0.25 mg/m3 27.81 °C 75.21 % 1,015.84 mbar 2.52 m/s 33.03 Deg 1.65 µg/m3 0 µg/m3
2022-07-18 19:00 13.67 µg/m3 1.51 µg/m3 93.62 µg/m3 15.75 µg/m3 9.3 µg/m3 0.26 mg/m3 28.31 °C 71.84 % 1,015.54 mbar 2.79 m/s 34.62 Deg 3.49 µg/m3 6.56 µg/m3
2022-07-18 18:00 15.46 µg/m3 2.01 µg/m3 97 µg/m3 16.97 µg/m3 10.57 µg/m3 0.28 mg/m3 29.06 °C 69.12 % 1,015.35 mbar 2.91 m/s 52.42 Deg 3.17 µg/m3 61.36 µg/m3
2022-07-18 17:00 25.43 µg/m3 2.44 µg/m3 89.48 µg/m3 21.58 µg/m3 12.28 µg/m3 0.28 mg/m3 30.13 °C 62.45 % 1,015.57 mbar 2.24 m/s 65.72 Deg 6.9 µg/m3 0 µg/m3
2022-07-18 16:00 22.58 µg/m3 2.1 µg/m3 97.27 µg/m3 21.38 µg/m3 12.55 µg/m3 0.28 mg/m3 29.6 °C 68.16 % 1,016.03 mbar 2.78 m/s 66.76 Deg 5.31 µg/m3 86.24 µg/m3
2022-07-18 15:00 14.26 µg/m3 1.63 µg/m3 100.1 µg/m3 15.74 µg/m3 10.6 µg/m3 0.26 mg/m3 28.78 °C 75.67 % 1,016.23 mbar 3.69 m/s 52.09 Deg 3.49 µg/m3 1.63 µg/m3
2022-07-18 14:00 14.65 µg/m3 1.14 µg/m3 95.76 µg/m3 17.59 µg/m3 10.59 µg/m3 0.26 mg/m3 28.87 °C 76.63 % 1,016.42 mbar 3.76 m/s 61.53 Deg 3.48 µg/m3 21.68 µg/m3
2022-07-18 13:00 23.18 µg/m3 1.3 µg/m3 82.94 µg/m3 17.4 µg/m3 10.46 µg/m3 0.25 mg/m3 29.79 °C 68.26 % 1,016.63 mbar 2.76 m/s 107.97 Deg 9.12 µg/m3 82.04 µg/m3
2022-07-18 12:00 20.34 µg/m3 1.01 µg/m3 80.31 µg/m3 20.48 µg/m3 10.85 µg/m3 0.25 mg/m3 28.7 °C 76.86 % 1,016.90 mbar 2.69 m/s 46.05 Deg 5.22 µg/m3 0 µg/m3
2022-07-18 11:00 24.06 µg/m3 0.9 µg/m3 63.25 µg/m3 18.37 µg/m3 9.84 µg/m3 0.23 mg/m3 28.08 °C 80.02 % 1,016.91 mbar 2.46 m/s 57.53 Deg 9.37 µg/m3 1.94 µg/m3
2022-07-18 10:00 25.05 µg/m3 0.98 µg/m3 58.87 µg/m3 16.7 µg/m3 9.41 µg/m3 0.22 mg/m3 28.22 °C 74.58 % 1,016.65 mbar 2.63 m/s 51.73 Deg 9.46 µg/m3 0 µg/m3
2022-07-18 09:00 30.27 µg/m3 1.06 µg/m3 60.44 µg/m3 20.27 µg/m3 9.41 µg/m3 0.23 mg/m3 28.1 °C 69.31 % 1,016.49 mbar 1.7 m/s 68.86 Deg 11.9 µg/m3 14.85 µg/m3
2022-07-18 08:00 42.34 µg/m3 1.9 µg/m3 44.17 µg/m3 32.61 µg/m3 11.65 µg/m3 0.32 mg/m3 28.07 °C 57.79 % 1,016.34 mbar 1.3 m/s 134.62 Deg 23.88 µg/m3 1.05 µg/m3
2022-07-18 07:00 59.44 µg/m3 1.95 µg/m3 9.18 µg/m3 48.99 µg/m3 15.02 µg/m3 0.4 mg/m3 25.87 °C 58.64 % 1,016.17 mbar 0.58 m/s 230.19 Deg 56.78 µg/m3 0 µg/m3
2022-07-18 06:00 53.64 µg/m3 1.89 µg/m3 3.8 µg/m3 42.62 µg/m3 15.53 µg/m3 0.4 mg/m3 23.06 °C 73.62 % 1,016.00 mbar 1.02 m/s 234.01 Deg 86.75 µg/m3 2.78 µg/m3
2022-07-18 05:00 55.86 µg/m3 0.91 µg/m3 5.28 µg/m3 31.31 µg/m3 15.09 µg/m3 0.3 mg/m3 23.3 °C 71.85 % 1,016.00 mbar 0.71 m/s 237.27 Deg 61.49 µg/m3 18.37 µg/m3
2022-07-18 04:00 35.45 µg/m3 0.21 µg/m3 31.16 µg/m3 20.2 µg/m3 10.05 µg/m3 0.22 mg/m3 23.71 °C 66.98 % 1,015.95 mbar 0.78 m/s 238.52 Deg 17.17 µg/m3 0 µg/m3
2022-07-18 03:00 35.37 µg/m3 0.01 µg/m3 45.39 µg/m3 14.07 µg/m3 7.59 µg/m3 0.16 mg/m3 23.72 °C 66.71 % 1,015.99 mbar 0.89 m/s 231.77 Deg 7.41 µg/m3 0 µg/m3
2022-07-18 02:00 17.67 µg/m3 0.38 µg/m3 42.47 µg/m3 11.06 µg/m3 7.39 µg/m3 0.28 mg/m3 23.84 °C 76.54 % 1,016.06 mbar 0.71 m/s 173.19 Deg 3.7 µg/m3 0 µg/m3
2022-07-18 01:00 39.3 µg/m3 0.57 µg/m3 5.28 µg/m3 15 µg/m3 9.67 µg/m3 0.35 mg/m3 24.74 °C 90.46 % 1,016.33 mbar 0.02 m/s 300.87 Deg 27.91 µg/m3 4.09 µg/m3
2022-07-18 00:00 46.63 µg/m3 0.58 µg/m3 6.65 µg/m3 15.11 µg/m3 9.21 µg/m3 0.35 mg/m3 25.67 °C 87.56 % 1,016.66 mbar 0.07 m/s 200.96 Deg 20.19 µg/m3 50.28 µg/m3
2022-07-17 23:00 29.15 µg/m3 0.22 µg/m3 51.42 µg/m3 12.6 µg/m3 7.3 µg/m3 0.29 mg/m3 26.42 °C 83.27 % 1,016.87 mbar 0.72 m/s 40.61 Deg 5.29 µg/m3 0 µg/m3
2022-07-17 22:00 17.19 µg/m3 0.02 µg/m3 74.3 µg/m3 10.95 µg/m3 6.51 µg/m3 0.24 mg/m3 26.81 °C 77.73 % 1,016.80 mbar 1.65 m/s 54.27 Deg 3.39 µg/m3 1.26 µg/m3
2022-07-17 21:00 11.75 µg/m3 0.3 µg/m3 79.76 µg/m3 11.5 µg/m3 6.88 µg/m3 0.25 mg/m3 26.97 °C 74.58 % 1,016.51 mbar 1.84 m/s 41.71 Deg 3.67 µg/m3 5.35 µg/m3
2022-07-17 20:00 14.11 µg/m3 0.28 µg/m3 67.03 µg/m3 14.59 µg/m3 7.67 µg/m3 0.29 mg/m3 27.09 °C 76.35 % 1,015.81 mbar 2.57 m/s 41.34 Deg 4.93 µg/m3 0 µg/m3
2022-07-17 19:00 19.45 µg/m3 0.57 µg/m3 59.82 µg/m3 17.8 µg/m3 8.41 µg/m3 0.32 mg/m3 28 °C 75.17 % 1,015.57 mbar 2.43 m/s 38.53 Deg 4.76 µg/m3 0 µg/m3
2022-07-17 18:00 18.17 µg/m3 0.41 µg/m3 62.66 µg/m3 12.73 µg/m3 6.64 µg/m3 0.25 mg/m3 29.01 °C 65.73 % 1,015.65 mbar 2.31 m/s 271.53 Deg 5.8 µg/m3 0.63 µg/m3
2022-07-17 17:00 13.74 µg/m3 0.44 µg/m3 71.93 µg/m3 12.33 µg/m3 6.45 µg/m3 0.24 mg/m3 29.31 °C 63.52 % 1,015.76 mbar 2.84 m/s 274.2 Deg 4.64 µg/m3 0.79 µg/m3
2022-07-17 16:00 12.39 µg/m3 0.46 µg/m3 75.21 µg/m3 11.04 µg/m3 6.35 µg/m3 0.25 mg/m3 29.52 °C 62.3 % 1,016.11 mbar 2.95 m/s 271.61 Deg 3.89 µg/m3 0 µg/m3
2022-07-17 15:00 13.09 µg/m3 0.47 µg/m3 85.65 µg/m3 13.37 µg/m3 7.25 µg/m3 0.26 mg/m3 29.42 °C 62.53 % 1,016.17 mbar 2.33 m/s 241.79 Deg 3.48 µg/m3 0 µg/m3
2022-07-17 14:00 13.18 µg/m3 0.67 µg/m3 96.23 µg/m3 13.45 µg/m3 7.68 µg/m3 0.28 mg/m3 28.68 °C 66.53 % 1,016.07 mbar 2.96 m/s 113.31 Deg 3.16 µg/m3 0.94 µg/m3
2022-07-17 13:00 13.11 µg/m3 0.58 µg/m3 87.92 µg/m3 14.58 µg/m3 7.19 µg/m3 0.29 mg/m3 28.6 °C 66.05 % 1,016.14 mbar 2.69 m/s 175.18 Deg 3.49 µg/m3 41.78 µg/m3
2022-07-17 12:00 14.88 µg/m3 0.84 µg/m3 82.36 µg/m3 13.34 µg/m3 7.22 µg/m3 0.31 mg/m3 28.28 °C 67.09 % 1,016.40 mbar 3.38 m/s 65.64 Deg 4.13 µg/m3 6.35 µg/m3
2022-07-17 11:00 19.86 µg/m3 1.02 µg/m3 74.94 µg/m3 16.68 µg/m3 8.82 µg/m3 0.34 mg/m3 28.06 °C 71.23 % 1,016.35 mbar 3.79 m/s 55.94 Deg 5.75 µg/m3 7.03 µg/m3
2022-07-17 10:00 22.64 µg/m3 0.93 µg/m3 75.75 µg/m3 25.23 µg/m3 9.85 µg/m3 0.39 mg/m3 28.95 °C 57.98 % 1,016.20 mbar 2.51 m/s 116.75 Deg 4.29 µg/m3 0 µg/m3
2022-07-17 09:00 20.68 µg/m3 1.23 µg/m3 77.68 µg/m3 15.09 µg/m3 7.35 µg/m3 0.31 mg/m3 29.1 °C 44.12 % 1,016.16 mbar 2.18 m/s 261.59 Deg 5.16 µg/m3 0 µg/m3
2022-07-17 08:00 22.67 µg/m3 1.18 µg/m3 56.98 µg/m3 16.2 µg/m3 8.36 µg/m3 0.4 mg/m3 27.44 °C 71.28 % 1,015.93 mbar 0.81 m/s 46.81 Deg 6.19 µg/m3 1.31 µg/m3
2022-07-17 07:00 31.24 µg/m3 1.34 µg/m3 13.28 µg/m3 34.01 µg/m3 11.5 µg/m3 0.33 mg/m3 25.38 °C 82.28 % 1,015.52 mbar 0.28 m/s 226.65 Deg 22.8 µg/m3 1.1 µg/m3
2022-07-17 06:00 30.65 µg/m3 0.72 µg/m3 11.73 µg/m3 31.13 µg/m3 10.18 µg/m3 0.26 mg/m3 22.57 °C 82.42 % 1,015.09 mbar 0.8 m/s 234.26 Deg 23.46 µg/m3 8.14 µg/m3
2022-07-17 05:00 35.03 µg/m3 0.35 µg/m3 10.96 µg/m3 18.05 µg/m3 8 µg/m3 0.25 mg/m3 22.5 °C 80.34 % 1,014.78 mbar 0.51 m/s 234.79 Deg 23.43 µg/m3 7.56 µg/m3
2022-07-17 04:00 30.26 µg/m3 0.44 µg/m3 16.53 µg/m3 13.32 µg/m3 7.58 µg/m3 0.24 mg/m3 22.72 °C 86.1 % 1,014.73 mbar 0.91 m/s 234.32 Deg 12.85 µg/m3 0 µg/m3
2022-07-17 03:00 35.06 µg/m3 0.59 µg/m3 7.91 µg/m3 14.54 µg/m3 8.19 µg/m3 0.17 mg/m3 22.32 °C 93.61 % 1,014.92 mbar 1.01 m/s 239.27 Deg 8.49 µg/m3 0 µg/m3
2022-07-17 02:00 22.7 µg/m3 0.55 µg/m3 7.22 µg/m3 15.65 µg/m3 8.33 µg/m3 0.3 mg/m3 23.02 °C 92.61 % 1,015.19 mbar 0.9 m/s 228.28 Deg 16.6 µg/m3 3.52 µg/m3
2022-07-17 01:00 28.14 µg/m3 0.55 µg/m3 8.11 µg/m3 16.55 µg/m3 8.02 µg/m3 0.34 mg/m3 23.37 °C 91.11 % 1,015.47 mbar 0.93 m/s 233.83 Deg 23.1 µg/m3 0 µg/m3
2022-07-17 00:00 36.73 µg/m3 0.81 µg/m3 5.11 µg/m3 17.03 µg/m3 8.02 µg/m3 0.4 mg/m3 23.98 °C 87.59 % 1,015.71 mbar 0.7 m/s 233.21 Deg 31.04 µg/m3 30.55 µg/m3
2022-07-16 23:00 45.51 µg/m3 0.61 µg/m3 12.78 µg/m3 17.08 µg/m3 7.97 µg/m3 0.38 mg/m3 24.77 °C 85.34 % 1,015.78 mbar 0.73 m/s 210.85 Deg 31.93 µg/m3 0.68 µg/m3
2022-07-16 22:00 36.16 µg/m3 0.54 µg/m3 23.62 µg/m3 13.03 µg/m3 6.41 µg/m3 0.36 mg/m3 25.19 °C 83.24 % 1,015.75 mbar 0.99 m/s 209.7 Deg 22.55 µg/m3 9.45 µg/m3
2022-07-16 21:00 19.29 µg/m3 0.13 µg/m3 41.91 µg/m3 8.91 µg/m3 4.79 µg/m3 0.26 mg/m3 25.61 °C 81.88 % 1,015.41 mbar 1.38 m/s 252.39 Deg 7.28 µg/m3 0 µg/m3
2022-07-16 20:00 26.27 µg/m3 0.09 µg/m3 44.14 µg/m3 8.84 µg/m3 4.67 µg/m3 0.25 mg/m3 26.3 °C 77.22 % 1,014.83 mbar 1.45 m/s 279.74 Deg 8.38 µg/m3 0 µg/m3
2022-07-16 19:00 16.82 µg/m3 0.17 µg/m3 57.91 µg/m3 9.82 µg/m3 4.71 µg/m3 0.22 mg/m3 27.08 °C 74.42 % 1,014.61 mbar 2.56 m/s 279.46 Deg 4.93 µg/m3 0 µg/m3
2022-07-16 18:00 13.09 µg/m3 -0.03 µg/m3 58.96 µg/m3 9.52 µg/m3 4.85 µg/m3 0.21 mg/m3 27.76 °C 71.15 % 1,014.44 mbar 2.71 m/s 287.59 Deg 5.38 µg/m3 59.57 µg/m3
2022-07-16 17:00 13.67 µg/m3 0.01 µg/m3 64.6 µg/m3 10.02 µg/m3 5.3 µg/m3 0.21 mg/m3 28.35 °C 64.57 % 1,014.60 mbar 2.82 m/s 291.34 Deg 5.03 µg/m3 0 µg/m3
2022-07-16 16:00 14.21 µg/m3 0.29 µg/m3 66.87 µg/m3 10.25 µg/m3 5.23 µg/m3 0.21 mg/m3 28.75 °C 60.73 % 1,014.86 mbar 3.59 m/s 268.97 Deg 6.25 µg/m3 0 µg/m3
2022-07-16 15:00 13.99 µg/m3 0.45 µg/m3 74.26 µg/m3 11.28 µg/m3 5.25 µg/m3 0.21 mg/m3 29.14 °C 55.78 % 1,014.97 mbar 3.57 m/s 249.06 Deg 5.43 µg/m3 1.84 µg/m3
2022-07-16 14:00 13.45 µg/m3 0.47 µg/m3 80.93 µg/m3 12.99 µg/m3 5.63 µg/m3 0.25 mg/m3 28.77 °C 58.14 % 1,014.95 mbar 2.26 m/s 133.53 Deg 3.55 µg/m3 23.62 µg/m3
2022-07-16 13:00 14.79 µg/m3 0.35 µg/m3 84.27 µg/m3 11.35 µg/m3 5.17 µg/m3 0.22 mg/m3 29.14 °C 54.46 % 1,015.06 mbar 3.18 m/s 264.76 Deg 4.33 µg/m3 4.72 µg/m3
2022-07-16 12:00 17.96 µg/m3 0.32 µg/m3 84.17 µg/m3 13.05 µg/m3 5.65 µg/m3 0.22 mg/m3 29.06 °C 53.04 % 1,015.07 mbar 3.85 m/s 256.1 Deg 6.15 µg/m3 0.26 µg/m3
2022-07-16 11:00 19.54 µg/m3 0.65 µg/m3 83.6 µg/m3 15.37 µg/m3 6.11 µg/m3 0.23 mg/m3 29.09 °C 51.77 % 1,015.09 mbar 3.11 m/s 259.92 Deg 5.87 µg/m3 14.8 µg/m3
2022-07-16 10:00 19.03 µg/m3 0.67 µg/m3 79.54 µg/m3 14.59 µg/m3 5.67 µg/m3 0.24 mg/m3 28.61 °C 49.79 % 1,014.84 mbar 2.46 m/s 270.67 Deg 5.99 µg/m3 17.06 µg/m3
2022-07-16 09:00 21.64 µg/m3 0.55 µg/m3 71.33 µg/m3 12.49 µg/m3 5.67 µg/m3 0.25 mg/m3 27.27 °C 65.6 % 1,014.50 mbar 2.43 m/s 248.1 Deg 6.42 µg/m3 14.96 µg/m3
2022-07-16 08:00 18.54 µg/m3 0.84 µg/m3 70.93 µg/m3 14.19 µg/m3 6.26 µg/m3 0.25 mg/m3 26.31 °C 71.18 % 1,014.40 mbar 1.5 m/s 297.38 Deg 8.22 µg/m3 7.51 µg/m3
2022-07-16 07:00 36.71 µg/m3 1.44 µg/m3 26.75 µg/m3 44.28 µg/m3 21.89 µg/m3 0.31 mg/m3 24.4 °C 87.13 % 1,014.09 mbar 0.92 m/s 230.83 Deg 35.46 µg/m3 1.42 µg/m3
2022-07-16 06:00 36.76 µg/m3 1.41 µg/m3 6.03 µg/m3 41.81 µg/m3 22.31 µg/m3 0.34 mg/m3 22.78 °C 95.43 % 1,013.89 mbar 0.84 m/s 219.11 Deg 54.43 µg/m3 0.16 µg/m3
2022-07-16 05:00 33.76 µg/m3 0.92 µg/m3 12.61 µg/m3 25.22 µg/m3 15.23 µg/m3 0.27 mg/m3 22.71 °C 95.58 % 1,013.76 mbar 0.81 m/s 221.28 Deg 31.7 µg/m3 13.12 µg/m3
2022-07-16 04:00 24.72 µg/m3 0.45 µg/m3 17.47 µg/m3 22.39 µg/m3 15.9 µg/m3 0.22 mg/m3 22.47 °C 94.66 % 1,013.75 mbar 0.91 m/s 235.95 Deg 10.57 µg/m3 0 µg/m3
2022-07-16 03:00 34.92 µg/m3 0.32 µg/m3 25.12 µg/m3 17.74 µg/m3 12.52 µg/m3 0.16 mg/m3 23.16 °C 93.25 % 1,013.86 mbar 0.87 m/s 228.83 Deg 4.33 µg/m3 10.08 µg/m3
2022-07-16 02:00 19.08 µg/m3 0.17 µg/m3 29.64 µg/m3 15.61 µg/m3 9.29 µg/m3 0.24 mg/m3 23.5 °C 91.55 % 1,014.01 mbar 0.77 m/s 228.5 Deg 5.34 µg/m3 1.73 µg/m3
2022-07-16 01:00 29.89 µg/m3 0.33 µg/m3 25.06 µg/m3 14.89 µg/m3 7.75 µg/m3 0.26 mg/m3 24.12 °C 88.92 % 1,014.06 mbar 0.75 m/s 230.48 Deg 7.47 µg/m3 12.18 µg/m3
2022-07-16 00:00 28.48 µg/m3 0 µg/m3 54.46 µg/m3 11.86 µg/m3 6.63 µg/m3 0.25 mg/m3 25.11 °C 86.2 % 1,014.17 mbar 0.75 m/s 136.37 Deg 4.85 µg/m3 19.74 µg/m3
2022-07-15 23:00 6.52 µg/m3 -0.09 µg/m3 82.93 µg/m3 8.69 µg/m3 5.17 µg/m3 0.23 mg/m3 25.62 °C 85.16 % 1,014.11 mbar 1.78 m/s 35.88 Deg 1.13 µg/m3 0 µg/m3
2022-07-15 22:00 6.41 µg/m3 0.07 µg/m3 78.27 µg/m3 8.9 µg/m3 4.99 µg/m3 0.23 mg/m3 26.05 °C 83.66 % 1,013.95 mbar 2.36 m/s 32.19 Deg 1.48 µg/m3 0.26 µg/m3
2022-07-15 21:00 11.12 µg/m3 0.46 µg/m3 73.7 µg/m3 13.39 µg/m3 6.24 µg/m3 0.26 mg/m3 26.7 °C 77.64 % 1,013.56 mbar 1.61 m/s 28.66 Deg 2.33 µg/m3 1.52 µg/m3
2022-07-15 20:00 24.11 µg/m3 0.47 µg/m3 63.85 µg/m3 16.04 µg/m3 6.41 µg/m3 0.29 mg/m3 26.95 °C 72.97 % 1,013.23 mbar 1.37 m/s 284.9 Deg 4.2 µg/m3 0 µg/m3
2022-07-15 19:00 15.96 µg/m3 0.75 µg/m3 78.53 µg/m3 13.96 µg/m3 6.65 µg/m3 0.29 mg/m3 27.68 °C 71.98 % 1,013.05 mbar 2.06 m/s 112.48 Deg 2.31 µg/m3 70.18 µg/m3
2022-07-15 18:00 15.08 µg/m3 0.7 µg/m3 82.44 µg/m3 15.49 µg/m3 7.08 µg/m3 0.28 mg/m3 28.16 °C 70.3 % 1,012.86 mbar 2.66 m/s 54.11 Deg 3.16 µg/m3 0 µg/m3
2022-07-15 17:00 20.6 µg/m3 0.51 µg/m3 77.42 µg/m3 16.32 µg/m3 7.34 µg/m3 0.27 mg/m3 28.46 °C 68.49 % 1,012.81 mbar 2.2 m/s 63.48 Deg 5.29 µg/m3 0.42 µg/m3
2022-07-15 16:00 14 µg/m3 0.64 µg/m3 85.05 µg/m3 13.71 µg/m3 7.01 µg/m3 0.28 mg/m3 27.83 °C 69.85 % 1,013.01 mbar 2.43 m/s 55.91 Deg 5.48 µg/m3 0 µg/m3
2022-07-15 15:00 11.42 µg/m3 0.52 µg/m3 86.52 µg/m3 10.87 µg/m3 6.19 µg/m3 0.24 mg/m3 27.43 °C 71.83 % 1,013.17 mbar 3.11 m/s 61.3 Deg 3.11 µg/m3 0 µg/m3
2022-07-15 14:00 15.82 µg/m3 0.45 µg/m3 80.96 µg/m3 10.84 µg/m3 6.28 µg/m3 0.23 mg/m3 27.24 °C 73.44 % 1,013.44 mbar 3.3 m/s 64.82 Deg 4.61 µg/m3 6.04 µg/m3
2022-07-15 13:00 18.22 µg/m3 0.53 µg/m3 77.76 µg/m3 12.11 µg/m3 6.48 µg/m3 0.22 mg/m3 26.92 °C 74.64 % 1,013.91 mbar 3.09 m/s 66.29 Deg 6.76 µg/m3 3.73 µg/m3
2022-07-15 12:00 17.25 µg/m3 0.36 µg/m3 76.01 µg/m3 11.36 µg/m3 6.14 µg/m3 0.22 mg/m3 27.43 °C 68.58 % 1,014.25 mbar 2.97 m/s 177.63 Deg 9.67 µg/m3 0 µg/m3
2022-07-15 11:00 15.24 µg/m3 0.39 µg/m3 74.26 µg/m3 9.89 µg/m3 5.12 µg/m3 0.22 mg/m3 27.9 °C 57.01 % 1,014.50 mbar 3.08 m/s 260.93 Deg 5.98 µg/m3 10.71 µg/m3
2022-07-15 10:00 16.55 µg/m3 0.23 µg/m3 73.31 µg/m3 10.25 µg/m3 5.26 µg/m3 0.23 mg/m3 27.27 °C 64.55 % 1,014.40 mbar 2.82 m/s 256.82 Deg 5.67 µg/m3 1.47 µg/m3
2022-07-15 09:00 26.11 µg/m3 0.16 µg/m3 66.29 µg/m3 12.01 µg/m3 6.02 µg/m3 0.23 mg/m3 26.88 °C 69.05 % 1,014.10 mbar 2.48 m/s 264.54 Deg 9.98 µg/m3 3.99 µg/m3
2022-07-15 08:00 26.42 µg/m3 0.28 µg/m3 66.8 µg/m3 11.94 µg/m3 6.42 µg/m3 0.23 mg/m3 26.29 °C 72.8 % 1,013.81 mbar 1.75 m/s 285.33 Deg 9.47 µg/m3 0 µg/m3
2022-07-15 07:00 34.89 µg/m3 0.31 µg/m3 54.76 µg/m3 16.99 µg/m3 8.37 µg/m3 0.24 mg/m3 25.56 °C 77.91 % 1,013.52 mbar 1.47 m/s 280.56 Deg 10.34 µg/m3 9.5 µg/m3
2022-07-15 06:00 45.88 µg/m3 0.3 µg/m3 33.04 µg/m3 24.63 µg/m3 12.69 µg/m3 0.27 mg/m3 24.01 °C 85.86 % 1,013.21 mbar 1.62 m/s 231.93 Deg 18.63 µg/m3 0 µg/m3
2022-07-15 05:00 31.47 µg/m3 -0.03 µg/m3 41.42 µg/m3 14.91 µg/m3 7.94 µg/m3 0.2 mg/m3 23.93 °C 85.02 % 1,013.20 mbar 2.3 m/s 234.23 Deg 10.86 µg/m3 0 µg/m3
2022-07-15 04:00 18.34 µg/m3 -0.14 µg/m3 59.45 µg/m3 10.51 µg/m3 5.78 µg/m3 0.19 mg/m3 23.8 °C 83.05 % 1,013.25 mbar 2.03 m/s 231.03 Deg 3.13 µg/m3 0 µg/m3
2022-07-15 03:00 25.26 µg/m3 -0.12 µg/m3 58.69 µg/m3 8.4 µg/m3 5.22 µg/m3 0.13 mg/m3 23.37 °C 86.71 % 1,013.55 mbar 2.07 m/s 249.07 Deg 0.83 µg/m3 0 µg/m3
2022-07-15 02:00 15.54 µg/m3 0.04 µg/m3 34.67 µg/m3 12.63 µg/m3 6.74 µg/m3 0.22 mg/m3 23.19 °C 87.05 % 1,014.02 mbar 1.2 m/s 235.92 Deg 3.63 µg/m3 0 µg/m3
2022-07-15 01:00 21.29 µg/m3 0.07 µg/m3 34.41 µg/m3 13.76 µg/m3 6.93 µg/m3 0.25 mg/m3 23.32 °C 84.51 % 1,014.61 mbar 0.81 m/s 229.22 Deg 5.82 µg/m3 9.13 µg/m3
2022-07-15 00:00 32.69 µg/m3 0.36 µg/m3 29.24 µg/m3 15.66 µg/m3 7.14 µg/m3 0.29 mg/m3 24.04 °C 81.95 % 1,015.14 mbar 0.61 m/s 209.71 Deg 7.84 µg/m3 2.75 µg/m3
2022-07-14 23:00 41.92 µg/m3 0.39 µg/m3 24.27 µg/m3 15.09 µg/m3 6.68 µg/m3 0.3 mg/m3 24.72 °C 78.49 % 1,015.44 mbar 0.77 m/s 199.21 Deg 12.07 µg/m3 5.51 µg/m3
2022-07-14 22:00 30 µg/m3 0.09 µg/m3 47.36 µg/m3 14.65 µg/m3 6.05 µg/m3 0.28 mg/m3 25.18 °C 71.54 % 1,015.48 mbar 0.85 m/s 202.42 Deg 8.15 µg/m3 2.36 µg/m3
2022-07-14 21:00 31.8 µg/m3 0.33 µg/m3 43.01 µg/m3 15.33 µg/m3 6.25 µg/m3 0.28 mg/m3 25.4 °C 67.54 % 1,015.36 mbar 0.93 m/s 222.08 Deg 8.31 µg/m3 2.52 µg/m3
2022-07-14 20:00 16.09 µg/m3 0.19 µg/m3 66.6 µg/m3 12.11 µg/m3 5.1 µg/m3 0.21 mg/m3 26.24 °C 59.94 % 1,015.17 mbar 1.78 m/s 278.24 Deg 2.09 µg/m3 0 µg/m3
2022-07-14 19:00 17.37 µg/m3 0.34 µg/m3 68.59 µg/m3 9.38 µg/m3 5.13 µg/m3 0.2 mg/m3 27.12 °C 61.7 % 1,015.35 mbar 2.28 m/s 281.08 Deg 4.65 µg/m3 0 µg/m3
2022-07-14 18:00 17.71 µg/m3 0.53 µg/m3 77.41 µg/m3 9.58 µg/m3 5.46 µg/m3 0.2 mg/m3 27.67 °C 58.68 % 1,015.54 mbar 2.93 m/s 270.57 Deg 5.61 µg/m3 0.89 µg/m3
2022-07-14 17:00 14.37 µg/m3 0.38 µg/m3 78.31 µg/m3 11.13 µg/m3 6.05 µg/m3 0.2 mg/m3 27.74 °C 62.67 % 1,015.83 mbar 3.86 m/s 260.1 Deg 4.47 µg/m3 2.62 µg/m3
2022-07-14 16:00 13.08 µg/m3 0.56 µg/m3 79.54 µg/m3 12 µg/m3 6.73 µg/m3 0.21 mg/m3 27.81 °C 63.13 % 1,016.54 mbar 4.15 m/s 258.68 Deg 3.51 µg/m3 0 µg/m3
2022-07-14 15:00 17.61 µg/m3 0.52 µg/m3 80.98 µg/m3 14.59 µg/m3 7.59 µg/m3 0.22 mg/m3 27.67 °C 64.08 % 1,017.07 mbar 3.32 m/s 262.3 Deg 5.71 µg/m3 1.78 µg/m3
2022-07-14 14:00 21.24 µg/m3 0.35 µg/m3 76.99 µg/m3 17.53 µg/m3 8.12 µg/m3 0.23 mg/m3 26.83 °C 70.89 % 1,017.53 mbar 2.29 m/s 258.08 Deg 5.88 µg/m3 14.49 µg/m3
2022-07-14 13:00 15.63 µg/m3 0.72 µg/m3 81.09 µg/m3 12.49 µg/m3 5.48 µg/m3 0.24 mg/m3 26.51 °C 69.47 % 1,017.70 mbar 3.11 m/s 55.64 Deg 4.39 µg/m3 0.68 µg/m3
2022-07-14 12:00 14.4 µg/m3 0.53 µg/m3 81.34 µg/m3 10.58 µg/m3 5.46 µg/m3 0.22 mg/m3 26.48 °C 71.24 % 1,017.98 mbar 3.41 m/s 55.79 Deg 10.45 µg/m3 0.79 µg/m3
2022-07-14 11:00 11.97 µg/m3 0.22 µg/m3 81.94 µg/m3 10.07 µg/m3 5.4 µg/m3 0.22 mg/m3 26.32 °C 74.04 % 1,018.19 mbar 3.33 m/s 53.94 Deg 5.2 µg/m3 0.16 µg/m3
2022-07-14 10:00 17.88 µg/m3 0.46 µg/m3 77.65 µg/m3 11.94 µg/m3 5.87 µg/m3 0.22 mg/m3 26.39 °C 75.33 % 1,018.20 mbar 3.02 m/s 64.39 Deg 6.01 µg/m3 0 µg/m3
2022-07-14 09:00 15.4 µg/m3 0.53 µg/m3 76.9 µg/m3 13.64 µg/m3 6.57 µg/m3 0.22 mg/m3 26.16 °C 75.5 % 1,018.10 mbar 2.43 m/s 58.58 Deg 4.58 µg/m3 0 µg/m3
2022-07-14 08:00 20.25 µg/m3 0.77 µg/m3 66.13 µg/m3 18.97 µg/m3 8.35 µg/m3 0.23 mg/m3 25.76 °C 80.38 % 1,018.16 mbar 1.71 m/s 47.58 Deg 7.78 µg/m3 0 µg/m3
2022-07-14 07:00 41.8 µg/m3 1.74 µg/m3 19.33 µg/m3 39.34 µg/m3 13.61 µg/m3 0.35 mg/m3 24.66 °C 86.31 % 1,018.07 mbar 0.54 m/s 269.22 Deg 51.22 µg/m3 0 µg/m3
2022-07-14 06:00 43.39 µg/m3 1.95 µg/m3 0.86 µg/m3 41.38 µg/m3 14.21 µg/m3 0.41 mg/m3 22.66 °C 93.27 % 1,017.84 mbar 0.63 m/s 227.1 Deg 90.88 µg/m3 0 µg/m3
2022-07-14 05:00 35.27 µg/m3 1.07 µg/m3 6.34 µg/m3 21.2 µg/m3 10.13 µg/m3 0.25 mg/m3 22.36 °C 93.17 % 1,017.72 mbar 0.77 m/s 229.15 Deg 42.07 µg/m3 0 µg/m3
2022-07-14 04:00 28.84 µg/m3 0.27 µg/m3 15.36 µg/m3 14.92 µg/m3 7.63 µg/m3 0.18 mg/m3 22.66 °C 92.18 % 1,017.72 mbar 0.52 m/s 237.62 Deg 13.94 µg/m3 0 µg/m3
2022-07-14 03:00 40.16 µg/m3 0.56 µg/m3 19.9 µg/m3 14.32 µg/m3 7.63 µg/m3 0.12 mg/m3 23.06 °C 90.22 % 1,017.89 mbar 0.73 m/s 232.67 Deg 15.74 µg/m3 0 µg/m3
2022-07-14 02:00 14.58 µg/m3 0.17 µg/m3 40.01 µg/m3 13.2 µg/m3 7.71 µg/m3 0.19 mg/m3 23.7 °C 87.18 % 1,018.17 mbar 0.67 m/s 212.49 Deg 2.15 µg/m3 0 µg/m3
2022-07-14 01:00 20.02 µg/m3 0.06 µg/m3 39.99 µg/m3 15.36 µg/m3 8.4 µg/m3 0.21 mg/m3 23.72 °C 85.71 % 1,018.50 mbar 0.85 m/s 227.36 Deg 5.37 µg/m3 0 µg/m3
2022-07-14 00:00 31.53 µg/m3 0.36 µg/m3 26.23 µg/m3 21.02 µg/m3 9.15 µg/m3 0.26 mg/m3 24.1 °C 83.63 % 1,018.81 mbar 0.79 m/s 235.25 Deg 8.05 µg/m3 0 µg/m3
2022-07-13 23:00 39.75 µg/m3 0.6 µg/m3 35.23 µg/m3 21.74 µg/m3 9.61 µg/m3 0.3 mg/m3 25.04 °C 81.09 % 1,018.82 mbar 0.64 m/s 234.35 Deg 8.31 µg/m3 0 µg/m3
2022-07-13 22:00 34.77 µg/m3 0.62 µg/m3 60.9 µg/m3 17.07 µg/m3 9.39 µg/m3 0.27 mg/m3 26.04 °C 78.07 % 1,018.69 mbar 0.42 m/s 160.59 Deg 3.27 µg/m3 0 µg/m3
2022-07-13 21:00 24.36 µg/m3 1.06 µg/m3 82.69 µg/m3 17.37 µg/m3 8.96 µg/m3 0.22 mg/m3 26.63 °C 72.67 % 1,018.24 mbar 0.84 m/s 131 Deg 2.2 µg/m3 0 µg/m3
2022-07-13 20:00 24.93 µg/m3 1.35 µg/m3 98.16 µg/m3 17.24 µg/m3 8.67 µg/m3 0.24 mg/m3 27.13 °C 68.07 % 1,017.80 mbar 1.49 m/s 118.71 Deg 2.45 µg/m3 0 µg/m3
2022-07-13 19:00 19.19 µg/m3 1.36 µg/m3 85.88 µg/m3 14.32 µg/m3 6.91 µg/m3 0.26 mg/m3 27.66 °C 69.04 % 1,017.50 mbar 3.07 m/s 59.47 Deg 3.4 µg/m3 0 µg/m3
2022-07-13 18:00 16 µg/m3 1.36 µg/m3 86.17 µg/m3 12.27 µg/m3 6.59 µg/m3 0.24 mg/m3 27.52 °C 71.15 % 1,017.29 mbar 3.16 m/s 54.98 Deg 6.62 µg/m3 0 µg/m3
2022-07-13 17:00 21.93 µg/m3 1.48 µg/m3 88.72 µg/m3 15.21 µg/m3 7.66 µg/m3 0.24 mg/m3 28.08 °C 66.45 % 1,017.25 mbar 3.11 m/s 62.72 Deg 6.86 µg/m3 0 µg/m3
2022-07-13 16:00 14.14 µg/m3 1.68 µg/m3 100.76 µg/m3 14.26 µg/m3 7.68 µg/m3 0.2 mg/m3 27.98 °C 65.66 % 1,017.62 mbar 2.56 m/s 63.63 Deg 3.46 µg/m3 0 µg/m3
2022-07-13 15:00 17.38 µg/m3 1.49 µg/m3 96.38 µg/m3 13.9 µg/m3 8.26 µg/m3 0.2 mg/m3 27.5 °C 66.33 % 1,018.04 mbar 2.6 m/s 57.24 Deg 8.67 µg/m3 0 µg/m3
2022-07-13 14:00 12.68 µg/m3 1.15 µg/m3 96.51 µg/m3 14.87 µg/m3 8.69 µg/m3 0.21 mg/m3 27.16 °C 65.15 % 1,018.42 mbar 2.73 m/s 57.93 Deg 5.39 µg/m3 0 µg/m3
2022-07-13 13:00 15.98 µg/m3 0.73 µg/m3 84.82 µg/m3 14.17 µg/m3 8.03 µg/m3 0.21 mg/m3 26.67 °C 69.03 % 1,018.84 mbar 3.32 m/s 57.18 Deg 6.85 µg/m3 0 µg/m3
2022-07-13 12:00 11.24 µg/m3 0.54 µg/m3 80.43 µg/m3 9.13 µg/m3 5.26 µg/m3 0.18 mg/m3 26.49 °C 71.39 % 1,018.99 mbar 5.26 m/s 46.96 Deg 3.6 µg/m3 0 µg/m3
2022-07-13 11:00 12 µg/m3 0.58 µg/m3 76.02 µg/m3 12.61 µg/m3 5.91 µg/m3 0.17 mg/m3 27.26 °C 63.37 % 1,018.66 mbar 5.03 m/s 46.33 Deg 4.45 µg/m3 0 µg/m3
2022-07-13 10:00 14.48 µg/m3 0.61 µg/m3 64.95 µg/m3 15.47 µg/m3 6.4 µg/m3 0.19 mg/m3 27.87 °C 61.19 % 1,018.44 mbar 3.38 m/s 121.05 Deg 5.32 µg/m3 0 µg/m3
2022-07-13 09:00 18.18 µg/m3 0.66 µg/m3 61.04 µg/m3 15.28 µg/m3 6.48 µg/m3 0.22 mg/m3 27.95 °C 53.74 % 1,018.42 mbar 2.32 m/s 346.12 Deg 6.9 µg/m3 0 µg/m3
2022-07-13 08:00 22.06 µg/m3 1.12 µg/m3 47.15 µg/m3 19.7 µg/m3 8 µg/m3 0.28 mg/m3 26.75 °C 62.96 % 1,018.30 mbar 1.32 m/s 168.51 Deg 14.11 µg/m3 0 µg/m3
2022-07-13 07:00 44.44 µg/m3 2.41 µg/m3 5.83 µg/m3 107.01 µg/m3 76.72 µg/m3 0.48 mg/m3 24.51 °C 82.09 % 1,017.98 mbar 0.68 m/s 237.28 Deg 75.34 µg/m3 0 µg/m3
2022-07-13 06:00 35 µg/m3 1.48 µg/m3 4.02 µg/m3 130.44 µg/m3 32.18 µg/m3 0.35 mg/m3 22.16 °C 91.93 % 1,017.57 mbar 1.02 m/s 222.92 Deg 71.15 µg/m3 0 µg/m3
2022-07-13 05:00 26.28 µg/m3 0.71 µg/m3 4.33 µg/m3 33.54 µg/m3 10.36 µg/m3 0.24 mg/m3 21.94 °C 93.07 % 1,017.54 mbar 0.99 m/s 233.18 Deg 41.23 µg/m3 0 µg/m3
2022-07-13 04:00 22.42 µg/m3 0.2 µg/m3 7.6 µg/m3 12.19 µg/m3 6.52 µg/m3 0.19 mg/m3 22.41 °C 92.48 % 1,017.56 mbar 0.55 m/s 215.24 Deg 19.34 µg/m3 0 µg/m3
2022-07-13 03:00 34.48 µg/m3 0.47 µg/m3 11.74 µg/m3 11.72 µg/m3 5.79 µg/m3 0.13 mg/m3 22.46 °C 91.57 % 1,017.69 mbar 0.94 m/s 237.31 Deg 16.84 µg/m3 0 µg/m3
2022-07-13 02:00 11.23 µg/m3 0.11 µg/m3 16.5 µg/m3 11.69 µg/m3 5.44 µg/m3 0.23 mg/m3 22.96 °C 91.29 % 1,018.08 mbar 0.75 m/s 223.48 Deg 3.87 µg/m3 0 µg/m3
2022-07-13 01:00 13.72 µg/m3 0.12 µg/m3 22.63 µg/m3 10.69 µg/m3 5.6 µg/m3 0.21 mg/m3 23.5 °C 91.05 % 1,018.33 mbar 0.81 m/s 226.83 Deg 4.42 µg/m3 0 µg/m3
2022-07-13 00:00 20.42 µg/m3 0.56 µg/m3 20.69 µg/m3 12.49 µg/m3 6.02 µg/m3 0.26 mg/m3 24.07 °C 88.76 % 1,018.67 mbar 0.61 m/s 226.68 Deg 6.48 µg/m3 0 µg/m3
2022-07-12 23:00 13.09 µg/m3 0.17 µg/m3 41.56 µg/m3 10.8 µg/m3 5.89 µg/m3 0.23 mg/m3 24.91 °C 85.86 % 1,018.81 mbar 0.79 m/s 322.71 Deg 2.79 µg/m3 0 µg/m3
2022-07-12 22:00 26.54 µg/m3 0.24 µg/m3 34.66 µg/m3 13.4 µg/m3 7.06 µg/m3 0.25 mg/m3 25.06 °C 82.37 % 1,019.05 mbar 0.47 m/s 201.79 Deg 6.87 µg/m3 0 µg/m3
2022-07-12 21:00 17.09 µg/m3 0.21 µg/m3 48.88 µg/m3 13.71 µg/m3 6.84 µg/m3 0.21 mg/m3 25.66 °C 79.62 % 1,018.74 mbar 1.19 m/s 312.36 Deg 4.04 µg/m3 0 µg/m3
2022-07-12 20:00 11.91 µg/m3 0.13 µg/m3 57.95 µg/m3 11.67 µg/m3 6.26 µg/m3 0.2 mg/m3 26.02 °C 77.79 % 1,018.38 mbar 1.85 m/s 273.73 Deg 2.25 µg/m3 0 µg/m3
2022-07-12 19:00 12.57 µg/m3 0.3 µg/m3 61.76 µg/m3 12.44 µg/m3 6.48 µg/m3 0.21 mg/m3 26.91 °C 73.61 % 1,018.08 mbar 2.91 m/s 281.4 Deg 4.13 µg/m3 0 µg/m3
2022-07-12 18:00 12.8 µg/m3 0.11 µg/m3 68.73 µg/m3 10.72 µg/m3 6.26 µg/m3 0.2 mg/m3 27.46 °C 70.48 % 1,018.04 mbar 3.54 m/s 280.48 Deg 4.52 µg/m3 0 µg/m3
2022-07-12 17:00 11.49 µg/m3 0.27 µg/m3 75.11 µg/m3 12.58 µg/m3 6.51 µg/m3 0.2 mg/m3 27.99 °C 68.17 % 1,018.46 mbar 4.26 m/s 261.88 Deg 3.64 µg/m3 0 µg/m3
2022-07-12 16:00 10.95 µg/m3 0.21 µg/m3 82.65 µg/m3 12.93 µg/m3 6.64 µg/m3 0.2 mg/m3 28.28 °C 61.83 % 1,018.87 mbar 4.94 m/s 257.85 Deg 3.19 µg/m3 0 µg/m3
2022-07-12 15:00 11.44 µg/m3 0.36 µg/m3 84.68 µg/m3 13.48 µg/m3 6.55 µg/m3 0.22 mg/m3 28.74 °C 57.11 % 1,019.14 mbar 4.27 m/s 257.73 Deg 3.14 µg/m3 0 µg/m3
2022-07-12 14:00 18.86 µg/m3 0.65 µg/m3 83.9 µg/m3 16.42 µg/m3 7.1 µg/m3 0.23 mg/m3 28.84 °C 54.92 % 1,019.32 mbar 2.2 m/s 175.13 Deg 6.78 µg/m3 0 µg/m3
2022-07-12 13:00 18.65 µg/m3 0.53 µg/m3 82.71 µg/m3 13.92 µg/m3 6.9 µg/m3 0.24 mg/m3 28.24 °C 53.98 % 1,019.41 mbar 2.6 m/s 133.97 Deg 7.2 µg/m3 0 µg/m3
2022-07-12 12:00 16.41 µg/m3 0.42 µg/m3 81.17 µg/m3 14.73 µg/m3 7.02 µg/m3 0.24 mg/m3 27.84 °C 60.92 % 1,019.65 mbar 2.56 m/s 139.36 Deg 4.89 µg/m3 0 µg/m3
2022-07-12 11:00 21.84 µg/m3 0.67 µg/m3 77.36 µg/m3 15.36 µg/m3 7.6 µg/m3 0.25 mg/m3 27.38 °C 64.91 % 1,019.54 mbar 2.36 m/s 58.64 Deg 8.41 µg/m3 0 µg/m3
2022-07-12 10:00 18.75 µg/m3 0.52 µg/m3 74.37 µg/m3 14.02 µg/m3 6.97 µg/m3 0.26 mg/m3 26.43 °C 72.33 % 1,019.35 mbar 2.37 m/s 64.18 Deg 11.54 µg/m3 0 µg/m3
2022-07-12 09:00 18.5 µg/m3 0.69 µg/m3 69.99 µg/m3 15.28 µg/m3 7.44 µg/m3 0.26 mg/m3 26.04 °C 77.04 % 1,018.95 mbar 2.56 m/s 58.78 Deg 7.88 µg/m3 0 µg/m3
2022-07-12 08:00 20.74 µg/m3 0.72 µg/m3 64.57 µg/m3 16.16 µg/m3 7.61 µg/m3 0.24 mg/m3 26.04 °C 74.79 % 1,018.56 mbar 1.56 m/s 56.88 Deg 9.52 µg/m3 0 µg/m3
2022-07-12 07:00 50.84 µg/m3 1.33 µg/m3 20.86 µg/m3 70.61 µg/m3 17.07 µg/m3 0.33 mg/m3 25.48 °C 78.12 % 1,018.13 mbar 0.53 m/s 43.3 Deg 38.46 µg/m3 0 µg/m3
2022-07-12 06:00 46.75 µg/m3 1.36 µg/m3 3.22 µg/m3 106.36 µg/m3 22.39 µg/m3 0.37 mg/m3 22.79 °C 86.07 % 1,017.75 mbar 0.71 m/s 257.19 Deg 77.21 µg/m3 0 µg/m3
2022-07-12 05:00 40.85 µg/m3 0.83 µg/m3 4.51 µg/m3 23.47 µg/m3 10.23 µg/m3 0.31 mg/m3 22.41 °C 86.58 % 1,017.42 mbar 0.14 m/s 224.17 Deg 57.84 µg/m3 0 µg/m3
2022-07-12 04:00 27.32 µg/m3 0.25 µg/m3 18.06 µg/m3 14.81 µg/m3 7.55 µg/m3 0.21 mg/m3 22.41 °C 85.87 % 1,017.31 mbar 0.83 m/s 231.23 Deg 19.74 µg/m3 0 µg/m3
2022-07-12 03:00 33.42 µg/m3 0.22 µg/m3 23.96 µg/m3 14.05 µg/m3 6.97 µg/m3 0.13 mg/m3 22.32 °C 85.31 % 1,017.26 mbar 0.94 m/s 238.49 Deg 5.93 µg/m3 0 µg/m3
2022-07-12 02:00 15.66 µg/m3 0.35 µg/m3 24.03 µg/m3 12.65 µg/m3 7.39 µg/m3 0.23 mg/m3 23.06 °C 84.11 % 1,017.44 mbar 0.72 m/s 229.93 Deg 3.85 µg/m3 0 µg/m3
2022-07-12 01:00 21.74 µg/m3 0.31 µg/m3 23.74 µg/m3 15.31 µg/m3 7.84 µg/m3 0.25 mg/m3 23.43 °C 82.35 % 1,017.57 mbar 0.64 m/s 221.34 Deg 7.05 µg/m3 0 µg/m3
2022-07-12 00:00 36.65 µg/m3 0.51 µg/m3 16.59 µg/m3 18.17 µg/m3 9.67 µg/m3 0.28 mg/m3 23.84 °C 80.61 % 1,017.48 mbar 0.18 m/s 257.37 Deg 13.07 µg/m3 0 µg/m3
2022-07-11 23:00 42.67 µg/m3 0.64 µg/m3 10.47 µg/m3 19.82 µg/m3 9.92 µg/m3 0.3 mg/m3 24.23 °C 78.32 % 1,017.18 mbar 0.18 m/s 259.9 Deg 13.63 µg/m3 0 µg/m3
2022-07-11 22:00 34.75 µg/m3 0.47 µg/m3 34.45 µg/m3 19.32 µg/m3 8.66 µg/m3 0.29 mg/m3 25.22 °C 72.3 % 1,016.74 mbar 0.87 m/s 172.61 Deg 9.68 µg/m3 0 µg/m3
2022-07-11 21:00 48.62 µg/m3 0.48 µg/m3 29.35 µg/m3 18.26 µg/m3 7.12 µg/m3 0.32 mg/m3 25.83 °C 65.8 % 1,016.13 mbar 0.78 m/s 197.59 Deg 12.99 µg/m3 0 µg/m3
2022-07-11 20:00 26.48 µg/m3 0.11 µg/m3 52.34 µg/m3 19.27 µg/m3 6.39 µg/m3 0.25 mg/m3 26.09 °C 65.82 % 1,015.50 mbar 2.02 m/s 241.29 Deg 5.56 µg/m3 0 µg/m3
2022-07-11 19:00 12.78 µg/m3 0.38 µg/m3 72.62 µg/m3 17.72 µg/m3 7.24 µg/m3 0.25 mg/m3 26.86 °C 73.18 % 1,015.09 mbar 2.67 m/s 50.83 Deg 5.19 µg/m3 0 µg/m3
2022-07-11 18:00 19.77 µg/m3 0.44 µg/m3 66.71 µg/m3 17.82 µg/m3 7.51 µg/m3 0.24 mg/m3 26.85 °C 72.6 % 1,014.78 mbar 2.59 m/s 57.06 Deg 7.29 µg/m3 0 µg/m3
2022-07-11 17:00 19.7 µg/m3 0.38 µg/m3 69.78 µg/m3 14.9 µg/m3 7.02 µg/m3 0.24 mg/m3 26.88 °C 70.67 % 1,014.71 mbar 2.68 m/s 56.56 Deg 11.73 µg/m3 0 µg/m3
2022-07-11 16:00 11.19 µg/m3 0.15 µg/m3 78.94 µg/m3 11.73 µg/m3 5.84 µg/m3 0.22 mg/m3 26.9 °C 70.91 % 1,014.79 mbar 2.83 m/s 57.19 Deg 3.6 µg/m3 0 µg/m3
2022-07-11 15:00 14.26 µg/m3 0.2 µg/m3 77.61 µg/m3 11.87 µg/m3 5.55 µg/m3 0.21 mg/m3 26.77 °C 68.1 % 1,014.84 mbar 3.18 m/s 55.11 Deg 7.05 µg/m3 0 µg/m3
2022-07-11 14:00 11.96 µg/m3 0.12 µg/m3 74.79 µg/m3 12.54 µg/m3 5.4 µg/m3 0.2 mg/m3 27.68 °C 61.35 % 1,014.85 mbar 2.8 m/s 281.4 Deg 4.64 µg/m3 0 µg/m3
2022-07-11 13:00 13.57 µg/m3 0.13 µg/m3 73.33 µg/m3 12.79 µg/m3 5.41 µg/m3 0.2 mg/m3 27.15 °C 65 % 1,014.99 mbar 3.39 m/s 274.32 Deg 5.93 µg/m3 0 µg/m3
2022-07-11 12:00 14.59 µg/m3 0.23 µg/m3 75.55 µg/m3 14.21 µg/m3 5.88 µg/m3 0.19 mg/m3 26.96 °C 66.79 % 1,014.95 mbar 2.19 m/s 301.47 Deg 5.61 µg/m3 0 µg/m3
2022-07-11 11:00 14.9 µg/m3 0.27 µg/m3 75.73 µg/m3 14.76 µg/m3 5.87 µg/m3 0.2 mg/m3 26.49 °C 68.09 % 1,014.74 mbar 2.7 m/s 277.47 Deg 5.59 µg/m3 0 µg/m3
2022-07-11 10:00 17 µg/m3 0.27 µg/m3 69.59 µg/m3 11.84 µg/m3 5.51 µg/m3 0.2 mg/m3 26.21 °C 69.53 % 1,014.54 mbar 3 m/s 264.89 Deg 7.12 µg/m3 0 µg/m3
2022-07-11 09:00 16.12 µg/m3 0.25 µg/m3 71.63 µg/m3 12.02 µg/m3 5.48 µg/m3 0.2 mg/m3 25.83 °C 71.59 % 1,014.41 mbar 2.76 m/s 265.89 Deg 5.38 µg/m3 0 µg/m3
2022-07-11 08:00 20.77 µg/m3 0.41 µg/m3 64.8 µg/m3 13.95 µg/m3 6.09 µg/m3 0.21 mg/m3 25.51 °C 74.49 % 1,013.96 mbar 2.53 m/s 267.33 Deg 7.29 µg/m3 0 µg/m3
2022-07-11 07:00 26.29 µg/m3 0.5 µg/m3 56.99 µg/m3 17.98 µg/m3 7.12 µg/m3 0.22 mg/m3 24.91 °C 78.28 % 1,013.32 mbar 2.39 m/s 255.63 Deg 7.5 µg/m3 0 µg/m3
2022-07-11 06:00 49.38 µg/m3 0.65 µg/m3 22.22 µg/m3 24.59 µg/m3 9.35 µg/m3 0.28 mg/m3 23.47 °C 84.12 % 1,012.83 mbar 1.13 m/s 234.57 Deg 19.36 µg/m3 0 µg/m3
2022-07-11 05:00 41.25 µg/m3 0.2 µg/m3 33.03 µg/m3 18.84 µg/m3 7.62 µg/m3 0.22 mg/m3 23.34 °C 83.69 % 1,012.53 mbar 1.13 m/s 223.46 Deg 11.13 µg/m3 0 µg/m3
2022-07-11 04:00 18.22 µg/m3 -0.02 µg/m3 64.31 µg/m3 14.24 µg/m3 6.6 µg/m3 0.17 mg/m3 23.72 °C 83.03 % 1,012.56 mbar 1.57 m/s 212.01 Deg 2.79 µg/m3 0 µg/m3
2022-07-11 03:00 29.15 µg/m3 -0.06 µg/m3 71.55 µg/m3 12.91 µg/m3 6.46 µg/m3 0.12 mg/m3 23.91 °C 84.3 % 1,012.60 mbar 2.1 m/s 239.92 Deg 2.08 µg/m3 0 µg/m3
2022-07-11 02:00 4.15 µg/m3 -0.21 µg/m3 75.91 µg/m3 12.52 µg/m3 5.48 µg/m3 0.2 mg/m3 24 °C 83.84 % 1,012.93 mbar 2.06 m/s 245.14 Deg 0.35 µg/m3 0 µg/m3
2022-07-11 01:00 12.6 µg/m3 0.26 µg/m3 66.12 µg/m3 11.81 µg/m3 5.16 µg/m3 0.23 mg/m3 23.94 °C 81.18 % 1,013.33 mbar 1.95 m/s 235.49 Deg 1.68 µg/m3 0 µg/m3
2022-07-11 00:00 35.3 µg/m3 0.47 µg/m3 39.12 µg/m3 14.17 µg/m3 6.69 µg/m3 0.3 mg/m3 23.71 °C 77 % 1,013.67 mbar 1.39 m/s 229.53 Deg 9.17 µg/m3 0 µg/m3
2022-07-10 23:00 41.31 µg/m3 0.8 µg/m3 36.69 µg/m3 21.91 µg/m3 10.03 µg/m3 0.29 mg/m3 23.69 °C 74.89 % 1,013.81 mbar 1.12 m/s 240.2 Deg 12.08 µg/m3 0 µg/m3
2022-07-10 22:00 49.04 µg/m3 0.68 µg/m3 37.88 µg/m3 19.2 µg/m3 9.55 µg/m3 0.32 mg/m3 24.34 °C 71.45 % 1,013.72 mbar 1.01 m/s 218.53 Deg 15.73 µg/m3 0 µg/m3
2022-07-10 21:00 53.96 µg/m3 0.73 µg/m3 45.57 µg/m3 19.49 µg/m3 9.69 µg/m3 0.32 mg/m3 25.39 °C 67.07 % 1,013.39 mbar 0.7 m/s 192.58 Deg 14.41 µg/m3 0.05 µg/m3
2022-07-10 20:00 14.23 µg/m3 0.79 µg/m3 95.28 µg/m3 16.89 µg/m3 9.1 µg/m3 0.24 mg/m3 25.96 °C 65.99 % 1,012.89 mbar 2.16 m/s 33.49 Deg 2.75 µg/m3 12.81 µg/m3
2022-07-10 19:00 12.52 µg/m3 0.57 µg/m3 96.57 µg/m3 17.6 µg/m3 9.38 µg/m3 0.24 mg/m3 26.28 °C 68.78 % 1,012.42 mbar 3.11 m/s 39.92 Deg 3.26 µg/m3 0 µg/m3
2022-07-10 18:00 13.48 µg/m3 0.79 µg/m3 85.95 µg/m3 18.24 µg/m3 9.38 µg/m3 0.27 mg/m3 26.74 °C 68.72 % 1,012.17 mbar 3.23 m/s 51.35 Deg 3.14 µg/m3 5.25 µg/m3
2022-07-10 17:00 18.4 µg/m3 0.44 µg/m3 86.75 µg/m3 18.59 µg/m3 9.27 µg/m3 0.28 mg/m3 26.76 °C 67.21 % 1,012.29 mbar 2.05 m/s 57.83 Deg 4.83 µg/m3 20.73 µg/m3
2022-07-10 16:00 9.87 µg/m3 0.4 µg/m3 94.93 µg/m3 15.71 µg/m3 8.54 µg/m3 0.23 mg/m3 26.93 °C 66.77 % 1,012.48 mbar 2.89 m/s 54.65 Deg 2.27 µg/m3 8.14 µg/m3
2022-07-10 15:00 9.22 µg/m3 0.34 µg/m3 95.25 µg/m3 16.09 µg/m3 9.02 µg/m3 0.23 mg/m3 26.62 °C 70.94 % 1,012.84 mbar 3.05 m/s 57.26 Deg 1.91 µg/m3 9.82 µg/m3
2022-07-10 14:00 9.05 µg/m3 0.63 µg/m3 93.67 µg/m3 16.28 µg/m3 9.1 µg/m3 0.24 mg/m3 26.58 °C 71.76 % 1,012.83 mbar 3.47 m/s 53.43 Deg 2.68 µg/m3 1.84 µg/m3
2022-07-10 13:00 13.73 µg/m3 0.49 µg/m3 84.8 µg/m3 19.39 µg/m3 9.48 µg/m3 0.25 mg/m3 26.59 °C 71.09 % 1,013.06 mbar 3.04 m/s 60.34 Deg 4.36 µg/m3 0 µg/m3
2022-07-10 12:00 16.56 µg/m3 0.69 µg/m3 86.22 µg/m3 19.54 µg/m3 9.75 µg/m3 0.26 mg/m3 26.72 °C 68.65 % 1,013.09 mbar 3.67 m/s 63.19 Deg 4.49 µg/m3 6.51 µg/m3
2022-07-10 11:00 18.6 µg/m3 0.6 µg/m3 86.03 µg/m3 19.06 µg/m3 10.06 µg/m3 0.25 mg/m3 26.81 °C 66.24 % 1,013.10 mbar 4 m/s 63.79 Deg 5.51 µg/m3 0 µg/m3
2022-07-10 10:00 13.87 µg/m3 0.75 µg/m3 86.59 µg/m3 22.01 µg/m3 11.29 µg/m3 0.25 mg/m3 26.68 °C 66 % 1,012.90 mbar 3.95 m/s 67.19 Deg 4.02 µg/m3 1.94 µg/m3
2022-07-10 09:00 14.27 µg/m3 0.51 µg/m3 86.25 µg/m3 18.31 µg/m3 9.45 µg/m3 0.25 mg/m3 26.57 °C 65.55 % 1,012.86 mbar 3.66 m/s 66.15 Deg 3.35 µg/m3 0 µg/m3
2022-07-10 08:00 15.22 µg/m3 0.56 µg/m3 83.04 µg/m3 15.99 µg/m3 7.2 µg/m3 0.23 mg/m3 26.39 °C 68.36 % 1,012.72 mbar 2.85 m/s 120.33 Deg 2.95 µg/m3 0 µg/m3
2022-07-10 07:00 24.55 µg/m3 0.86 µg/m3 59.86 µg/m3 22.26 µg/m3 9.21 µg/m3 0.23 mg/m3 26.02 °C 75.02 % 1,012.67 mbar 1.28 m/s 122.35 Deg 4.48 µg/m3 0 µg/m3
2022-07-10 06:00 28.12 µg/m3 0.25 µg/m3 48.2 µg/m3 20.21 µg/m3 8.83 µg/m3 0.25 mg/m3 24.35 °C 82.3 % 1,012.36 mbar 0.6 m/s 166.21 Deg 4.41 µg/m3 0 µg/m3
2022-07-10 05:00 23.24 µg/m3 0.13 µg/m3 58.01 µg/m3 17.49 µg/m3 8.03 µg/m3 0.2 mg/m3 23.7 °C 84.48 % 1,012.00 mbar 0.88 m/s 209.01 Deg 2.25 µg/m3 0 µg/m3
2022-07-10 04:00 31.2 µg/m3 0.22 µg/m3 33.34 µg/m3 17.44 µg/m3 8.28 µg/m3 0.22 mg/m3 23.65 °C 84.3 % 1,012.01 mbar 0.97 m/s 195.09 Deg 5.8 µg/m3 4.15 µg/m3
2022-07-10 03:00 47.09 µg/m3 -0.06 µg/m3 39.67 µg/m3 16.12 µg/m3 7.94 µg/m3 0.14 mg/m3 24.14 °C 81.55 % 1,012.27 mbar 0.88 m/s 196.15 Deg 4.17 µg/m3 1 µg/m3
2022-07-10 02:00 31.98 µg/m3 0.19 µg/m3 53.22 µg/m3 16.67 µg/m3 8.35 µg/m3 0.26 mg/m3 24.75 °C 80.02 % 1,012.68 mbar 0.47 m/s 236.73 Deg 3.81 µg/m3 0 µg/m3
2022-07-10 01:00 35.56 µg/m3 0.48 µg/m3 48.11 µg/m3 19.79 µg/m3 9.23 µg/m3 0.29 mg/m3 24.65 °C 80.56 % 1,013.08 mbar 0.47 m/s 203.06 Deg 6.22 µg/m3 0 µg/m3
2022-07-10 00:00 44.24 µg/m3 0.44 µg/m3 35.69 µg/m3 23.8 µg/m3 10.19 µg/m3 0.3 mg/m3 24.62 °C 80.54 % 1,013.34 mbar 1.08 m/s 235.15 Deg 11.6 µg/m3 21.05 µg/m3
2022-07-09 23:00 46.18 µg/m3 0.52 µg/m3 34.36 µg/m3 25.35 µg/m3 10.1 µg/m3 0.35 mg/m3 24.94 °C 78.63 % 1,013.58 mbar 1.44 m/s 216 Deg 11.49 µg/m3 0 µg/m3
2022-07-09 22:00 31.73 µg/m3 0.44 µg/m3 52.45 µg/m3 18.14 µg/m3 8.84 µg/m3 0.29 mg/m3 25.35 °C 77.13 % 1,013.84 mbar 1.91 m/s 228.56 Deg 5.61 µg/m3 0 µg/m3
2022-07-09 21:00 29.65 µg/m3 0.94 µg/m3 55.5 µg/m3 21.42 µg/m3 10.72 µg/m3 0.28 mg/m3 25.82 °C 72.32 % 1,013.76 mbar 1.86 m/s 232.73 Deg 5.16 µg/m3 3.52 µg/m3
2022-07-09 20:00 31.09 µg/m3 0.67 µg/m3 60.97 µg/m3 22.39 µg/m3 8.09 µg/m3 0.28 mg/m3 26.46 °C 66.96 % 1,013.49 mbar 1.86 m/s 245.65 Deg 5.1 µg/m3 0.63 µg/m3
2022-07-09 19:00 20.81 µg/m3 0.32 µg/m3 79.72 µg/m3 15.16 µg/m3 6.6 µg/m3 0.23 mg/m3 27.71 °C 59.38 % 1,013.31 mbar 2.08 m/s 280.6 Deg 4.02 µg/m3 0 µg/m3
2022-07-09 18:00 16.64 µg/m3 0.68 µg/m3 82.69 µg/m3 20.55 µg/m3 12.13 µg/m3 0.23 mg/m3 28.17 °C 54.89 % 1,013.36 mbar 2.53 m/s 206.64 Deg 3.98 µg/m3 0 µg/m3
2022-07-09 17:00 7.82 µg/m3 0.37 µg/m3 89.49 µg/m3 11.81 µg/m3 4.65 µg/m3 0.21 mg/m3 27.49 °C 54.03 % 1,013.34 mbar 4.05 m/s 43.94 Deg 2.48 µg/m3 0.58 µg/m3
2022-07-09 16:00 7.49 µg/m3 0.57 µg/m3 91.93 µg/m3 12.76 µg/m3 4.69 µg/m3 0.21 mg/m3 27.52 °C 53.4 % 1,013.57 mbar 3.75 m/s 46.89 Deg 2.04 µg/m3 0 µg/m3
2022-07-09 15:00 10.65 µg/m3 0.59 µg/m3 84.91 µg/m3 12.65 µg/m3 4.76 µg/m3 0.22 mg/m3 28.02 °C 51.94 % 1,013.88 mbar 3.18 m/s 64.3 Deg 3.26 µg/m3 2.62 µg/m3
2022-07-09 14:00 10.02 µg/m3 0.33 µg/m3 85.09 µg/m3 11.29 µg/m3 4.5 µg/m3 0.22 mg/m3 27.42 °C 51.23 % 1,014.01 mbar 3.57 m/s 56.12 Deg 4.1 µg/m3 16.06 µg/m3
2022-07-09 13:00 9.92 µg/m3 0.23 µg/m3 80.91 µg/m3 12.38 µg/m3 4.49 µg/m3 0.21 mg/m3 27.13 °C 51.1 % 1,014.40 mbar 3.53 m/s 50.13 Deg 3.61 µg/m3 0 µg/m3
2022-07-09 12:00 9.5 µg/m3 0.28 µg/m3 81.42 µg/m3 10.29 µg/m3 4.3 µg/m3 0.22 mg/m3 26.65 °C 56.21 % 1,014.61 mbar 4.92 m/s 46.4 Deg 3.29 µg/m3 9.4 µg/m3
2022-07-09 11:00 8.85 µg/m3 0.09 µg/m3 81.65 µg/m3 11.29 µg/m3 4.65 µg/m3 0.21 mg/m3 26.32 °C 60.99 % 1,014.59 mbar 4.99 m/s 43.17 Deg 2.93 µg/m3 0 µg/m3
2022-07-09 10:00 7.34 µg/m3 0.24 µg/m3 84.58 µg/m3 11.59 µg/m3 4.44 µg/m3 0.2 mg/m3 26.47 °C 62.52 % 1,014.34 mbar 4.52 m/s 29.08 Deg 2.41 µg/m3 0 µg/m3
2022-07-09 09:00 8.41 µg/m3 0.06 µg/m3 90 µg/m3 11.56 µg/m3 4.77 µg/m3 0.21 mg/m3 26.39 °C 64.67 % 1,014.23 mbar 4.8 m/s 24.87 Deg 5.02 µg/m3 1.63 µg/m3
2022-07-09 08:00 8.17 µg/m3 0.11 µg/m3 92.7 µg/m3 12.98 µg/m3 5.21 µg/m3 0.19 mg/m3 26.48 °C 64.9 % 1,013.95 mbar 4.3 m/s 101.58 Deg 2.02 µg/m3 0 µg/m3
2022-07-09 07:00 10.6 µg/m3 0.11 µg/m3 93.67 µg/m3 11.97 µg/m3 5.22 µg/m3 0.18 mg/m3 26.23 °C 66.98 % 1,013.61 mbar 4.12 m/s 31.25 Deg 3.44 µg/m3 0.37 µg/m3
2022-07-09 06:00 25.18 µg/m3 0.12 µg/m3 65.2 µg/m3 20.35 µg/m3 7.39 µg/m3 0.2 mg/m3 24.87 °C 73.74 % 1,013.55 mbar 1.58 m/s 212.83 Deg 4.32 µg/m3 2.52 µg/m3
2022-07-09 05:00 31.93 µg/m3 0.14 µg/m3 57.67 µg/m3 14.11 µg/m3 5.16 µg/m3 0.19 mg/m3 24.1 °C 70.02 % 1,013.25 mbar 0.98 m/s 249.18 Deg 6.31 µg/m3 0.68 µg/m3
2022-07-09 04:00 15.36 µg/m3 0.14 µg/m3 88.68 µg/m3 10.11 µg/m3 4.05 µg/m3 0.17 mg/m3 25.25 °C 66.18 % 1,013.07 mbar 1.39 m/s 328.48 Deg 0.64 µg/m3 5.67 µg/m3
2022-07-09 03:00 28.57 µg/m3 0.01 µg/m3 71 µg/m3 20.14 µg/m3 8.78 µg/m3 0.12 mg/m3 24.46 °C 79.96 % 1,013.25 mbar 1.2 m/s 263.94 Deg 0.49 µg/m3 2.15 µg/m3
2022-07-09 02:00 10.96 µg/m3 -0.01 µg/m3 72.89 µg/m3 17.75 µg/m3 7.38 µg/m3 0.19 mg/m3 24.96 °C 79.66 % 1,013.37 mbar 1.1 m/s 177.56 Deg 0.99 µg/m3 0 µg/m3
2022-07-09 01:00 7.55 µg/m3 0.14 µg/m3 99.13 µg/m3 17.07 µg/m3 7 µg/m3 0.18 mg/m3 26.4 °C 74.05 % 1,013.45 mbar 2.15 m/s 48.95 Deg 0.61 µg/m3 0 µg/m3
2022-07-09 00:00 6.67 µg/m3 0.16 µg/m3 100.4 µg/m3 17.25 µg/m3 7.78 µg/m3 0.18 mg/m3 26.68 °C 74.51 % 1,013.50 mbar 3.47 m/s 63.28 Deg 0.71 µg/m3 0.16 µg/m3
2022-07-08 23:00 14.66 µg/m3 0.33 µg/m3 75.96 µg/m3 28.09 µg/m3 13.11 µg/m3 0.18 mg/m3 26.67 °C 82.55 % 1,013.09 mbar 3.35 m/s 50.78 Deg 1.77 µg/m3 0 µg/m3
2022-07-08 22:00 9.79 µg/m3 0.06 µg/m3 84.18 µg/m3 30.68 µg/m3 15.1 µg/m3 0.18 mg/m3 26.71 °C 83.86 % 1,012.57 mbar 4.25 m/s 42.69 Deg 2.06 µg/m3 0 µg/m3
2022-07-08 21:00 8.16 µg/m3 -0.13 µg/m3 84.44 µg/m3 32.06 µg/m3 15.16 µg/m3 0.16 mg/m3 27.38 °C 73.95 % 1,011.56 mbar 4.29 m/s 181.1 Deg 1.21 µg/m3 14.8 µg/m3
2022-07-08 20:00 8.69 µg/m3 -0.04 µg/m3 81.74 µg/m3 33.82 µg/m3 14.73 µg/m3 0.18 mg/m3 26.8 °C 78.44 % 1,010.81 mbar 4.22 m/s 285.91 Deg 1.65 µg/m3 0 µg/m3
2022-07-08 19:00 9.68 µg/m3 -0.06 µg/m3 82.09 µg/m3 29.12 µg/m3 13.26 µg/m3 0.18 mg/m3 26.75 °C 82.57 % 1,010.64 mbar 4.89 m/s 277.33 Deg 2.23 µg/m3 0 µg/m3

It is to be noted that the data is provisional and subject to quality assurance procedures. For validated data kindly refer your request to contact.air@era.org.mt